Provisional Data: South Branch Tunkhannock Creek near La Plume, PA


Please select a monitoring station.
Please select start date.
Please select start date.

Toggle Unit: C/F Toggle Unit: C/F
Sample Time Temperature (C) Temperature (F) Specific Conductivity (mS/cm) pH   Turbidity (NTU+) DO (mg/L)
4/18/2023 12:00:00 AM 13.36 56.048 7.379 7.22 1.81 8.91
4/18/2023 12:15:00 AM 13.29 55.922 7.725 7.21 2.08 8.92
4/18/2023 12:30:00 AM 13.19 55.742 7.755 7.2 1.94 8.96
4/18/2023 12:45:00 AM 13.09 55.562 7.691 7.2 2.17 8.98
4/18/2023 1:00:00 AM 12.98 55.364 7.543 7.19 1.77 9.03
4/18/2023 1:15:00 AM 12.86 55.148 7.457 7.19 2.02 9.05
4/18/2023 1:30:00 AM 12.74 54.932 7.5 7.19 2.09 9.08
4/18/2023 1:45:00 AM 12.6 54.68 7.57 7.19 2.34 9.11
4/18/2023 2:00:00 AM 12.46 54.428 7.409 7.17 2.51 9.16
4/18/2023 2:15:00 AM 12.31 54.158 7.081 7.19 1.92 9.2
4/18/2023 2:30:00 AM 12.19 53.942 7.042 7.19 1.86 9.24
4/18/2023 2:45:00 AM 12.07 53.726 6.918 7.19 2.04 9.28
4/18/2023 3:00:00 AM 11.96 53.528 6.921 7.17 2.04 9.31
4/18/2023 3:15:00 AM 11.84 53.312 6.227 7.17 2.15 9.36
4/18/2023 3:30:00 AM 11.75 53.15 7.59 7.16 2.17 9.34
4/18/2023 3:45:00 AM 11.64 52.952 7.631 7.15 1.97 9.37
4/18/2023 4:00:00 AM 11.55 52.79 6.67 7.18 2.28 9.43
4/18/2023 4:15:00 AM 11.47 52.646 7.677 7.14 2.46 9.41
4/18/2023 4:30:00 AM 11.4 52.52 6.417 7.17 1.84 9.47
4/18/2023 4:45:00 AM 11.33 52.394 6.549 7.17 2.03 9.49
4/18/2023 5:00:00 AM 11.26 52.268 6.919 7.16 2.01 9.51
4/18/2023 5:15:00 AM 11.18 52.124 6.82 7.15 2.62 9.53
4/18/2023 5:30:00 AM 11.12 52.016 6.536 7.17 1.8 9.56
4/18/2023 5:45:00 AM 11.06 51.908 6.189 7.16 1.81 9.58
4/18/2023 6:00:00 AM 11.01 51.818 7.603 7.15 2.31 9.54
4/18/2023 6:15:00 AM 10.96 51.728 6.14 7.17 1.88 9.61
4/18/2023 6:30:00 AM 10.92 51.656 7.697 7.13 3.86 9.58
4/18/2023 6:45:00 AM 10.88 51.584 7.66 7.16 2.06 9.61
4/18/2023 7:00:00 AM 10.82 51.476 6.999 7.14 1.99 9.66
4/18/2023 7:15:00 AM 10.78 51.404 6.594 7.17 6.58 9.7
4/18/2023 7:30:00 AM 10.76 51.368 7.154 7.17 1.85 9.76
4/18/2023 7:45:00 AM 10.72 51.296 6.158 7.2 1.68 9.86
4/18/2023 8:00:00 AM 10.71 51.278 6.187 7.24 2.08 10.07
4/18/2023 8:15:00 AM 10.7 51.26 7.104 7.28 1.83 10.25
4/18/2023 8:30:00 AM 10.72 51.296 6.264 7.32 2.08 10.49
4/18/2023 8:45:00 AM 10.73 51.314 6.707 7.34 1.65 10.62
4/18/2023 9:00:00 AM 10.74 51.332 6.472 7.41 1.63 10.79
4/18/2023 9:15:00 AM 10.7 51.26 6.764 7.45 1.64 10.75
4/18/2023 9:30:00 AM 10.68 51.224 7.224 7.43 1.62 10.75
4/18/2023 9:45:00 AM 10.67 51.206 7.215 7.45 1.61 10.8
4/18/2023 10:00:00 AM 10.71 51.278 6.77 7.53 1.56 10.99
4/18/2023 10:15:00 AM 10.72 51.296 6.879 7.54 1.6 11.02
4/18/2023 10:30:00 AM 10.78 51.404 6.347 7.64 1.51 11.22
4/18/2023 10:45:00 AM 10.78 51.404 6.719 7.68 1.65 11.26
4/18/2023 11:00:00 AM 10.81 51.458 6.299 7.74 1.53 11.33
4/18/2023 11:15:00 AM 10.82 51.476 6.45 7.77 1.47 11.36
4/18/2023 11:30:00 AM 10.82 51.476 6.249 7.82 1.9 11.37
4/18/2023 11:45:00 AM 10.83 51.494 6.854 7.8 1.41 11.35
4/18/2023 12:00:00 PM 10.89 51.602 6.967 7.87 1.56 11.42
4/18/2023 12:15:00 PM 10.85 51.53 6.529 7.86 1.61 11.35
4/18/2023 12:30:00 PM 10.82 51.476 6.447 7.84 2.84 11.31
4/18/2023 12:45:00 PM 10.87 51.566 6.497 7.91 1.41 11.4
4/18/2023 1:00:00 PM 10.98 51.764 7.142 7.96 1.98 11.46
4/18/2023 1:15:00 PM 11.26 52.268 7.081 8.02 1.46 11.53
4/18/2023 1:30:00 PM 11.23 52.214 6.941 8.04 1.6 11.5
4/18/2023 1:45:00 PM 11.24 52.232 6.958 8.03 1.56 11.37
4/18/2023 2:00:00 PM 11.27 52.286 6.655 8 1.53 11.37
4/18/2023 2:15:00 PM 11.26 52.268 6.984 8.03 1.48 11.36
4/18/2023 2:30:00 PM 11.25 52.25 6.786 8.03 1.4 11.3
4/18/2023 2:45:00 PM 11.27 52.286 7.238 8 1.67 11.22
4/18/2023 3:00:00 PM 11.32 52.376 7.419 8.01 1.42 11.26
4/18/2023 3:15:00 PM 11.26 52.268 7.683 7.98 1.48 11.12
4/18/2023 3:30:00 PM 11.27 52.286 7.515 7.96 17.5 11.12
4/18/2023 3:45:00 PM 11.24 52.232 7.462 7.91 1.6 11
4/18/2023 4:00:00 PM 11.19 52.142 7.338 7.81 1.76 10.86
4/18/2023 4:15:00 PM 11.17 52.106 7.36 7.81 1.55 10.88
4/18/2023 4:30:00 PM 11.12 52.016 7.402 7.77 2.01 10.78
4/18/2023 4:45:00 PM 11.09 51.962 7.052 7.71 1.49 10.69
4/18/2023 5:00:00 PM 11.06 51.908 5.973 7.72 1.54 10.71
4/18/2023 5:15:00 PM 11.01 51.818 7.251 7.7 1.56 10.63
4/18/2023 5:30:00 PM 10.96 51.728 7.529 7.58 1.49 10.5
4/18/2023 5:45:00 PM 10.92 51.656 7.606 7.54 1.55 10.4
4/18/2023 6:00:00 PM 10.89 51.602 7.362 7.51 1.65 10.38
4/18/2023 6:15:00 PM 10.83 51.494 7.471 7.49 1.4 10.33
4/18/2023 6:30:00 PM 10.76 51.368 7.337 7.46 1.49 10.25
4/18/2023 6:45:00 PM 10.71 51.278 7.386 7.43 3.2 10.19
4/18/2023 7:00:00 PM 10.63 51.134 5.944 7.44 1.66 10.2
4/18/2023 7:15:00 PM 10.59 51.062 6.522 7.39 1.6 10.13
4/18/2023 7:30:00 PM 10.53 50.954 6.353 7.37 1.41 10.1
4/18/2023 7:45:00 PM 10.46 50.828 7.574 7.31 1.54 10.01
4/18/2023 8:00:00 PM 10.38 50.684 6.536 7.32 1.48 10.01
4/18/2023 8:15:00 PM 10.34 50.612 7.672 7.27 2.42 9.94
4/18/2023 8:30:00 PM 10.28 50.504 7.681 7.26 1.66 9.92
4/18/2023 8:45:00 PM 10.23 50.414 7.452 7.25 1.58 9.92
4/18/2023 9:00:00 PM 10.18 50.324 6.631 7.27 1.72 9.96
4/18/2023 9:15:00 PM 10.12 50.216 6.717 7.25 1.57 9.95
4/18/2023 9:30:00 PM 10.08 50.144 3.414 7.25 1.66 10.07
4/18/2023 9:45:00 PM 10.03 50.054 6.795 7.24 1.72 9.97
4/18/2023 10:00:00 PM 9.96 49.928 6.077 7.24 1.58 9.99
4/18/2023 10:15:00 PM 9.9 49.82 6.234 7.24 1.61 10
4/18/2023 10:30:00 PM 9.87 49.766 7.772 7.19 1.53 9.96
4/18/2023 10:45:00 PM 9.79 49.622 7.858 7.19 1.58 9.97
4/18/2023 11:00:00 PM 9.74 49.532 7.553 7.18 1.54 9.95
4/18/2023 11:15:00 PM 9.71 49.478 7.218 7.19 1.56 10.02
4/18/2023 11:30:00 PM 9.65 49.37 7.098 7.19 1.64 10.04
4/18/2023 11:45:00 PM 9.62 49.316 6.326 7.21 1.63 10.08
4/19/2023 12:00:00 AM 9.58 49.244 6.491 7.2 1.65 10.08
4/19/2023 12:15:00 AM 9.54 49.172 6.729 7.2 1.6 10.09
4/19/2023 12:30:00 AM 9.5 49.1 6.611 7.2 1.58 10.1
4/19/2023 12:45:00 AM 9.46 49.028 6.313 7.21 1.46 10.12
4/19/2023 1:00:00 AM 9.44 48.992 6.344 7.2 1.56 10.14
4/19/2023 1:15:00 AM 9.39 48.902 7.36 7.15 1.69 10.1
4/19/2023 1:30:00 AM 9.35 48.83 6.142 7.21 1.64 10.16
4/19/2023 1:45:00 AM 9.32 48.776 7.679 7.15 1.69 10.11
4/19/2023 2:00:00 AM 9.3 48.74 7.674 7.16 1.52 10.13
4/19/2023 2:15:00 AM 9.26 48.668 7.463 7.15 1.52 10.15
4/19/2023 2:30:00 AM 9.23 48.614 7.447 7.16 1.5 10.16
4/19/2023 2:45:00 AM 9.21 48.578 2.753 7.3 2.57 10.35
4/19/2023 3:00:00 AM 9.18 48.524 7.335 7.15 1.81 10.17
4/19/2023 3:15:00 AM 9.15 48.47 7.544 7.15 1.58 10.17
4/19/2023 3:30:00 AM 9.13 48.434 8.042 7.14 1.67 10.17
4/19/2023 3:45:00 AM 9.1 48.38 8.009 7.14 1.56 10.18
4/19/2023 4:00:00 AM 9.07 48.326 7.557 7.15 1.58 10.21
4/19/2023 4:15:00 AM 9.05 48.29 7.561 7.15 1.69 10.21
4/19/2023 4:30:00 AM 9.03 48.254 7.784 7.14 1.68 10.21
4/19/2023 4:45:00 AM 9 48.2 8.078 7.13 1.6 10.21
4/19/2023 5:00:00 AM 8.97 48.146 7.681 7.12 1.52 10.24
4/19/2023 5:15:00 AM 8.95 48.11 7.805 7.14 1.59 10.25
4/19/2023 5:30:00 AM 8.91 48.038 7.307 7.15 1.49 10.27
4/19/2023 5:45:00 AM 8.9 48.02 7.325 7.14 1.48 10.28
4/19/2023 6:00:00 AM 8.85 47.93 7.959 7.15 1.59 10.27
4/19/2023 6:15:00 AM 8.83 47.894 7.71 7.14 2.57 10.29
4/19/2023 6:30:00 AM 8.81 47.858 7.447 7.14 1.62 10.31
4/19/2023 6:45:00 AM 8.8 47.84 7.83 7.15 1.89 10.32
4/19/2023 7:00:00 AM 8.78 47.804 7.819 7.15 1.89 10.35
4/19/2023 7:15:00 AM 8.78 47.804 7.75 7.17 2.2 10.43
4/19/2023 7:30:00 AM 8.78 47.804 7.814 7.17 1.79 10.53
4/19/2023 7:45:00 AM 8.78 47.804 7.612 7.2 2.21 10.63
4/19/2023 8:00:00 AM 8.77 47.786 7.455 7.22 1.46 10.71
4/19/2023 8:15:00 AM 8.78 47.804 7.424 7.25 1.89 10.81
4/19/2023 8:30:00 AM 8.78 47.804 7.69 7.27 1.54 10.87
4/19/2023 8:45:00 AM 8.79 47.822 7.716 7.29 1.51 10.93
4/19/2023 9:00:00 AM 8.81 47.858 7.4 7.3 1.42 11.06
4/19/2023 9:15:00 AM 8.84 47.912 5.8 7.39 1.32 11.23
4/19/2023 9:30:00 AM 8.87 47.966 7.199 7.39 1.38 11.26
4/19/2023 9:45:00 AM 8.91 48.038 7.06 7.43 1.42 11.42
4/19/2023 10:00:00 AM 8.96 48.128 7.223 7.5 1.45 11.57
4/19/2023 10:15:00 AM 8.98 48.164 7.219 7.53 1.31 11.65
4/19/2023 10:30:00 AM 9.04 48.272 7.124 7.62 1.46 11.77
4/19/2023 10:45:00 AM 9.14 48.452 7.754 7.67 1.43 11.88
4/19/2023 11:00:00 AM 9.24 48.632 7.658 7.77 1.49 11.97
4/19/2023 11:15:00 AM 9.36 48.848 7.292 7.83 1.62 12.05
4/19/2023 11:30:00 AM 9.48 49.064 7.037 7.89 1.47 12.11
4/19/2023 11:45:00 AM 9.74 49.532 5.125 8.02 1.5 12.24
4/19/2023 12:00:00 PM 9.97 49.946 7.981 8 1.4 12.12
4/19/2023 12:15:00 PM 10.17 50.306 7.787 8.04 1.35 12.11
4/19/2023 12:30:00 PM 10.59 51.062 7.754 8.05 1.35 12.09
4/19/2023 12:45:00 PM 10.8 51.44 7.948 8.1 2.06 12.04
4/19/2023 1:00:00 PM 11.12 52.016 7.482 8.13 1.43 12.02
4/19/2023 1:15:00 PM 11.3 52.34 7.422 8.16 1.56 11.96
4/19/2023 1:30:00 PM 11.64 52.952 7.463 8.19 1.6 11.91
4/19/2023 1:45:00 PM 11.95 53.51 7.316 8.22 1.52 11.86
4/19/2023 2:00:00 PM 12.26 54.068 7.203 8.26 1.35 11.82
4/19/2023 2:15:00 PM 12.54 54.572 7.239 8.3 1.53 11.77
4/19/2023 2:30:00 PM 12.78 55.004 6.93 8.31 1.36 11.73
4/19/2023 2:45:00 PM 12.97 55.346 7.222 8.35 1.2 11.69
4/19/2023 3:00:00 PM 13.15 55.67 7.123 8.38 1.36 11.62
4/19/2023 3:15:00 PM 13.3 55.94 7.095 8.41 1.27 11.61
4/19/2023 3:30:00 PM 13.37 56.066 7.357 8.44 1.36 11.56
4/19/2023 3:45:00 PM 13.52 56.336 7.239 8.53 3.41 11.51
4/19/2023 4:00:00 PM 13.59 56.462 7.03 8.49 1.31 11.47
4/19/2023 4:15:00 PM 13.65 56.57 6.903 8.48 1.41 11.41
4/19/2023 4:30:00 PM 13.68 56.624 7.063 8.48 1.31 11.32
4/19/2023 4:45:00 PM 13.68 56.624 6.989 8.49 1.85 11.23
4/19/2023 5:00:00 PM 13.67 56.606 7.304 8.44 1.47 11.13
4/19/2023 5:15:00 PM 13.64 56.552 7.036 8.41 1.39 11.05
4/19/2023 5:30:00 PM 13.58 56.444 7.147 8.41 1.33 10.97
4/19/2023 5:45:00 PM 13.5 56.3 7.152 8.35 1.34 10.88
4/19/2023 6:00:00 PM 13.41 56.138 7.019 8.3 1.4 10.78
4/19/2023 6:15:00 PM 13.35 56.03 7.141 8.24 1.37 10.67
4/19/2023 6:30:00 PM 13.26 55.868 7.2 8.15 1.4 10.56
4/19/2023 6:45:00 PM 13.16 55.688 7.014 8.05 1.38 10.4
4/19/2023 7:00:00 PM 13.05 55.49 7.512 7.92 1.31 10.2
4/19/2023 7:15:00 PM 12.95 55.31 7.433 7.8 1.75 10.03
4/19/2023 7:30:00 PM 12.86 55.148 7.258 7.69 1.44 9.87
4/19/2023 7:45:00 PM 12.78 55.004 7.335 7.62 1.26 9.73
4/19/2023 8:00:00 PM 12.69 54.842 7.362 7.55 1.36 9.61
4/19/2023 8:15:00 PM 12.6 54.68 7.36 7.48 1.61 9.5
4/19/2023 8:30:00 PM 12.5 54.5 7.05 7.45 2.1 9.44
4/19/2023 8:45:00 PM 12.42 54.356 6.935 7.43 1.47 9.4
4/19/2023 9:00:00 PM 12.31 54.158 6.964 7.39 1.55 9.39
4/19/2023 9:15:00 PM 12.21 53.978 7.294 7.37 1.56 9.36
4/19/2023 9:30:00 PM 12.11 53.798 7.679 7.33 1.43 9.36
4/19/2023 9:45:00 PM 11.98 53.564 7.685 7.29 1.7 9.35
4/19/2023 10:00:00 PM 11.88 53.384 7.575 7.3 2.19 9.38
4/19/2023 10:15:00 PM 11.76 53.168 7.33 7.29 1.5 9.43
4/19/2023 10:30:00 PM 11.63 52.934 7.406 7.27 1.65 9.44
4/19/2023 10:45:00 PM 11.5 52.7 7.562 7.26 1.53 9.47
4/19/2023 11:00:00 PM 11.36 52.448 6.894 7.26 1.46 9.52
4/19/2023 11:15:00 PM 11.22 52.196 5.526 7.31 1.64 9.6
4/19/2023 11:30:00 PM 11.08 51.944 7.986 7.23 1.49 9.56
4/19/2023 11:45:00 PM 10.93 51.674 7.951 7.22 1.56 9.6
4/20/2023 12:00:00 AM 10.8 51.44 7.912 7.2 1.42 9.64
4/20/2023 12:15:00 AM 10.65 51.17 7.647 7.19 1.67 9.68
4/20/2023 12:30:00 AM 10.56 51.008 7.678 7.2 1.55 9.72
4/20/2023 12:45:00 AM 10.47 50.846 7.675 7.21 1.56 9.76
4/20/2023 1:00:00 AM 10.38 50.684 4.444 7.29 1.51 9.91
4/20/2023 1:15:00 AM 10.29 50.522 5.24 7.27 1.48 9.91
4/20/2023 1:30:00 AM 10.21 50.378 6.37 7.22 1.51 9.89
4/20/2023 1:45:00 AM 10.14 50.252 6.872 7.21 1.51 9.91
4/20/2023 2:00:00 AM 10.06 50.108 7.343 7.19 1.6 9.91
4/20/2023 2:15:00 AM 9.97 49.946 6.247 7.22 1.84 9.98
4/20/2023 2:30:00 AM 9.89 49.802 5.527 7.22 1.71 10.03
4/20/2023 2:45:00 AM 9.8 49.64 5.875 7.23 1.53 10.04
4/20/2023 3:00:00 AM 9.73 49.514 5.733 7.22 1.5 10.07
4/20/2023 3:15:00 AM 9.68 49.424 5.665 7.22 1.51 10.1
4/20/2023 3:30:00 AM 9.6 49.28 5.842 7.21 1.52 10.11
4/20/2023 3:45:00 AM 9.53 49.154 5.479 7.22 1.48 10.13
4/20/2023 4:00:00 AM 9.46 49.028 5.801 7.18 1.62 10.15
4/20/2023 4:15:00 AM 9.38 48.884 5.803 7.2 1.38 10.17
4/20/2023 4:30:00 AM 9.31 48.758 5.773 7.2 1.39 10.19
4/20/2023 4:45:00 AM 9.24 48.632 5.676 7.21 1.49 10.22
4/20/2023 5:00:00 AM 9.2 48.56 5.568 7.19 1.55 10.23
4/20/2023 5:15:00 AM 9.16 48.488 5.38 7.21 1.51 10.27
4/20/2023 5:30:00 AM 9.12 48.416 5.454 7.19 1.47 10.28
4/20/2023 5:45:00 AM 9.09 48.362 4.957 7.21 1.38 10.31
4/20/2023 6:00:00 AM 9.05 48.29 1.347 7.3 2.26 10.44
4/20/2023 6:15:00 AM 9.03 48.254 6.725 7.17 1.82 10.25
4/20/2023 6:30:00 AM 9.02 48.236 5.654 7.19 1.59 10.32
4/20/2023 6:45:00 AM 9.01 48.218 5.952 7.2 1.73 10.32
4/20/2023 7:00:00 AM 9.01 48.218 6.653 7.18 1.5 10.38
4/20/2023 7:15:00 AM 9 48.2 6.342 7.16 1.57 10.43
4/20/2023 7:30:00 AM 9.01 48.218 6.946 7.21 1.45 10.51
4/20/2023 7:45:00 AM 9.02 48.236 6.698 7.21 1.46 10.65
4/20/2023 8:00:00 AM 9.08 48.344 6.207 7.3 1.53 10.96
4/20/2023 8:15:00 AM 9.12 48.416 5.784 7.36 1.55 11.2
4/20/2023 8:30:00 AM 9.17 48.506 5.577 7.43 1.32 11.35
4/20/2023 8:45:00 AM 9.17 48.506 6.066 7.41 1.39 11.26
4/20/2023 9:00:00 AM 9.29 48.722 6.647 7.48 1.45 11.54
4/20/2023 9:15:00 AM 9.38 48.884 6.791 7.56 1.62 11.73
4/20/2023 9:30:00 AM 9.54 49.172 6.672 7.62 5.57 11.9
4/20/2023 9:45:00 AM 9.63 49.334 7.008 7.68 1.5 11.95
4/20/2023 10:00:00 AM 9.63 49.334 6.109 7.71 1.33 11.92
4/20/2023 10:15:00 AM 9.69 49.442 6.538 7.76 1.49 11.92
4/20/2023 10:30:00 AM 9.69 49.442 6.523 7.74 1.37 11.81
4/20/2023 10:45:00 AM 9.77 49.586 5.718 7.83 1.39 11.96
4/20/2023 11:00:00 AM 10.01 50.018 6.127 7.93 1.34 12.11
4/20/2023 11:15:00 AM 10.25 50.45 6.062 8.02 1.42 12.17
4/20/2023 11:30:00 AM 10.58 51.044 5.856 8.12 1.43 12.21
4/20/2023 11:45:00 AM 10.93 51.674 5.551 8.17 1.3 12.27
4/20/2023 12:00:00 PM 11.22 52.196 5.401 8.23 1.4 12.28
4/20/2023 12:15:00 PM 11.48 52.664 5.831 8.28 4.39 12.2
4/20/2023 12:30:00 PM 11.82 53.276 5.878 8.3 2.21 12.15
4/20/2023 12:45:00 PM 12.18 53.924 5.226 8.36 7.63 12.13
4/20/2023 1:00:00 PM 12.55 54.59 5.42 8.41 1.57 12.1
4/20/2023 1:15:00 PM 12.92 55.256 5.239 8.45 1.39 12.04
4/20/2023 1:30:00 PM 13.26 55.868 5.754 8.48 1.2 11.96
4/20/2023 1:45:00 PM 13.61 56.498 5.111 8.53 1.76 11.93
4/20/2023 2:00:00 PM 13.95 57.11 5.142 8.53 1.19 11.85
4/20/2023 2:15:00 PM 14.26 57.668 4.354 8.6 2.94 11.81
4/20/2023 2:30:00 PM 14.56 58.208 4.355 8.64 2.13 11.74
4/20/2023 2:45:00 PM 14.81 58.658 6.296 8.64 1.24 11.6
4/20/2023 3:00:00 PM 15.03 59.054 2.978 8.73 1.28 11.67
4/20/2023 3:15:00 PM 15.22 59.396 6.764 8.64 2.21 11.44
4/20/2023 3:30:00 PM 15.38 59.684 7.334 8.65 2.33 11.36
4/20/2023 3:45:00 PM 15.49 59.882 7.031 8.65 1.3 11.31
4/20/2023 4:00:00 PM 15.57 60.026 5.309 8.71 1.22 11.31
4/20/2023 4:15:00 PM 15.63 60.134 6.654 8.66 1.38 11.19
4/20/2023 4:30:00 PM 15.67 60.206 6.363 8.66 1.35 11.13
4/20/2023 4:45:00 PM 15.66 60.188 6.276 8.66 1.18 11.06
4/20/2023 5:00:00 PM 15.67 60.206 6.659 8.64 1.58 10.98
4/20/2023 5:15:00 PM 15.68 60.224 6.397 8.65 1.34 10.95
4/20/2023 5:30:00 PM 15.66 60.188 6.88 8.64 1.41 10.86
4/20/2023 5:45:00 PM 15.63 60.134 7.2 8.58 2.25 10.73
4/20/2023 6:00:00 PM 15.54 59.972 6.855 8.55 2.94 10.57
4/20/2023 6:15:00 PM 15.52 59.936 6.679 8.49 1.53 10.47
4/20/2023 6:30:00 PM 15.47 59.846 6.304 8.41 1.29 10.34
4/20/2023 6:45:00 PM 15.4 59.72 6.481 8.3 1.15 10.11
4/20/2023 7:00:00 PM 15.31 59.558 6.551 8.14 1.23 9.86
4/20/2023 7:15:00 PM 15.24 59.432 6.771 7.99 1.18 9.65
4/20/2023 7:30:00 PM 15.15 59.27 1.533 7.97 1.3 9.6
4/20/2023 7:45:00 PM 15.08 59.144 2.744 7.85 1.29 9.35
4/20/2023 8:00:00 PM 15.02 59.036 6.432 7.63 1.34 9.06
4/20/2023 8:15:00 PM 14.93 58.874 6.306 7.57 1.38 8.94
4/20/2023 8:30:00 PM 14.87 58.766 5.868 7.52 1.35 8.85
4/20/2023 8:45:00 PM 14.8 58.64 7.067 7.45 1.37 8.75
4/20/2023 9:00:00 PM 14.71 58.478 6.315 7.42 1.41 8.73
4/20/2023 9:15:00 PM 14.63 58.334 5.99 7.41 1.3 8.71
4/20/2023 9:30:00 PM 14.53 58.154 6.642 7.37 1.5 8.68
4/20/2023 9:45:00 PM 14.45 58.01 7.375 7.33 1.35 8.67
4/20/2023 10:00:00 PM 14.35 57.83 7.084 7.3 1.38 8.69
4/20/2023 10:15:00 PM 14.24 57.632 7.035 7.3 1.52 8.69
4/20/2023 10:30:00 PM 14.13 57.434 7.036 7.29 1.41 8.71
4/20/2023 10:45:00 PM 14.01 57.218 6.383 7.27 1.35 8.74
4/20/2023 11:00:00 PM 13.9 57.02 7.068 7.27 1.91 8.76
4/20/2023 11:15:00 PM 13.78 56.804 7.226 7.26 2.61 8.78
4/20/2023 11:30:00 PM 13.65 56.57 6.919 7.25 1.41 8.8
4/20/2023 11:45:00 PM 13.54 56.372 6.554 7.24 1.38 8.86
4/21/2023 12:00:00 AM 13.43 56.174 6.585 7.25 1.41 8.88
4/21/2023 12:15:00 AM 13.31 55.958 6.708 7.24 1.39 8.9
4/21/2023 12:30:00 AM 13.21 55.778 6.815 7.23 1.54 8.94
4/21/2023 12:45:00 AM 13.09 55.562 6.817 7.23 1.51 8.97
4/21/2023 1:00:00 AM 12.99 55.382 7.071 7.22 2.82 8.98
4/21/2023 1:15:00 AM 12.89 55.202 7.022 7.21 1.55 9.01
4/21/2023 1:30:00 AM 12.79 55.022 6.931 7.21 2.69 9.03
4/21/2023 1:45:00 AM 12.7 54.86 7.323 7.2 1.48 9.04
4/21/2023 2:00:00 AM 12.62 54.716 6.73 7.21 1.36 9.09
4/21/2023 2:15:00 AM 12.53 54.554 6.447 7.2 1.38 9.13
4/21/2023 2:30:00 AM 12.45 54.41 6.169 7.21 1.4 9.15
4/21/2023 2:45:00 AM 12.38 54.284 7.256 7.19 1.61 9.14
4/21/2023 3:00:00 AM 12.31 54.158 7.497 7.17 1.32 9.14
4/21/2023 3:15:00 AM 12.23 54.014 5.546 7.22 1.44 9.24
4/21/2023 3:30:00 AM 12.17 53.906 6.145 7.21 1.65 9.25
4/21/2023 3:45:00 AM 12.1 53.78 1.768 7.31 1.5 9.41
4/21/2023 4:00:00 AM 12.05 53.69 7.04 7.19 1.45 9.26
4/21/2023 4:15:00 AM 11.97 53.546 7.138 7.17 1.41 9.25
4/21/2023 4:30:00 AM 11.91 53.438 6.91 7.17 1.37 9.28
4/21/2023 4:45:00 AM 11.86 53.348 7.316 7.17 1.36 9.28
4/21/2023 5:00:00 AM 11.79 53.222 1.529 7.32 1.67 9.5
4/21/2023 5:15:00 AM 11.72 53.096 6.248 7.19 1.43 9.37
4/21/2023 5:30:00 AM 11.66 52.988 1.324 7.32 1.39 9.56
4/21/2023 5:45:00 AM 11.6 52.88 7.654 7.15 1.54 9.34
4/21/2023 6:00:00 AM 11.54 52.772 6.791 7.16 1.72 9.39
4/21/2023 6:15:00 AM 11.48 52.664 5.665 7.17 1.78 9.45
4/21/2023 6:30:00 AM 11.43 52.574 5.131 7.2 1.87 9.54
4/21/2023 6:45:00 AM 11.37 52.466 5.763 7.21 1.99 9.61
4/21/2023 7:00:00 AM 11.33 52.394 5.461 7.21 1.53 9.74
4/21/2023 7:15:00 AM 11.3 52.34 7.871 7.19 1.34 9.81
4/21/2023 7:30:00 AM 11.3 52.34 5.349 7.29 1.28 10.1
4/21/2023 7:45:00 AM 11.34 52.412 7.607 7.28 1.31 10.24
4/21/2023 8:00:00 AM 11.41 52.538 7.409 7.33 1.44 10.53
4/21/2023 8:15:00 AM 11.52 52.736 7.23 7.41 1.26 10.77
4/21/2023 8:30:00 AM 11.64 52.952 7.032 7.48 1.39 10.97
4/21/2023 8:45:00 AM 11.77 53.186 7.469 7.56 1.28 11.12
4/21/2023 9:00:00 AM 11.94 53.492 7.074 7.62 1.34 11.25
4/21/2023 9:15:00 AM 12.11 53.798 1.929 7.87 1.83 11.59
4/21/2023 9:30:00 AM 12.3 54.14 7.411 7.81 1.26 11.47
4/21/2023 9:45:00 AM 12.51 54.518 1.759 8.06 1.27 11.78
4/21/2023 10:00:00 AM 12.75 54.95 2.326 8.13 1.33 11.83
4/21/2023 10:15:00 AM 13 55.4 2.332 8.2 1.31 11.87
4/21/2023 10:30:00 AM 13.27 55.886 7.978 8.14 2.3 11.67
4/21/2023 10:45:00 AM 13.55 56.39 7.318 8.22 1.13 11.74
4/21/2023 11:00:00 AM 13.79 56.822 7.669 8.26 3.78 11.71
4/21/2023 11:15:00 AM 14.1 57.38 7.142 8.34 1.55 11.76
4/21/2023 11:30:00 AM 14.41 57.938 7.297 8.37 1.12 11.74
4/21/2023 11:45:00 AM 14.72 58.496 7.86 8.45 1.24 11.7
4/21/2023 12:00:00 PM 15.06 59.108 7.199 8.48 1.28 11.71
4/21/2023 12:15:00 PM 15.42 59.756 6.698 8.55 1.22 11.69
4/21/2023 12:30:00 PM 15.8 60.44 1.13 8.75 1.36 11.87
4/21/2023 12:45:00 PM 16.17 61.106 7.097 8.62 1.08 11.59
4/21/2023 1:00:00 PM 16.56 61.808 6.885 8.67 1.16 11.54
4/21/2023 1:15:00 PM 16.95 62.51 6.789 8.7 1.1 11.48
4/21/2023 1:30:00 PM 17.34 63.212 7.347 8.71 2.55 11.4
4/21/2023 1:45:00 PM 17.72 63.896 7.425 8.74 2.16 11.33
4/21/2023 2:00:00 PM 18.06 64.508 6.876 8.79 1.08 11.3
4/21/2023 2:15:00 PM 18.39 65.102 7.137 8.83 1.11 11.21
4/21/2023 2:30:00 PM 18.67 65.606 7.294 8.84 1.42 11.15
4/21/2023 2:45:00 PM 18.92 66.056 7.435 8.85 2.19 11.07
4/21/2023 3:00:00 PM 19.15 66.47 6.3 8.9 1.32 11.06
4/21/2023 3:15:00 PM 19.3 66.74 6.806 8.92 1.19 10.96
4/21/2023 3:30:00 PM 19.44 66.992 6.716 8.89 2.73 10.88
4/21/2023 3:45:00 PM 19.5 67.1 6.605 8.91 1.35 10.82
4/21/2023 4:00:00 PM 19.58 67.244 6.713 8.89 1.12 10.71
4/21/2023 4:15:00 PM 19.58 67.244 7.207 8.85 2.27 10.61
4/21/2023 4:30:00 PM 19.53 67.154 6.708 8.85 1.32 10.55
4/21/2023 4:45:00 PM 19.5 67.1 6.742 8.85 1.09 10.47
4/21/2023 5:00:00 PM 19.53 67.154 6.294 8.84 1.13 10.44
4/21/2023 5:15:00 PM 19.45 67.01 6.606 8.81 3.75 10.28
4/21/2023 5:30:00 PM 19.38 66.884 7.003 8.75 2.14 10.12
4/21/2023 5:45:00 PM 19.27 66.686 6.571 8.7 1.09 9.93
4/21/2023 6:00:00 PM 19.23 66.614 1.884 8.8 1.39 9.97
4/21/2023 6:15:00 PM 19.14 66.452 3.659 8.66 1.48 9.73
4/21/2023 6:30:00 PM 19.05 66.29 2.822 8.61 1.18 9.59
4/21/2023 6:45:00 PM 18.94 66.092 6.864 8.36 1.24 9.24
4/21/2023 7:00:00 PM 18.83 65.894 7.467 8.2 1.15 8.96
4/21/2023 7:15:00 PM 18.72 65.696 6.96 8.02 1.23 8.71
4/21/2023 7:30:00 PM 18.6 65.48 7.118 7.82 2.37 8.45
4/21/2023 7:45:00 PM 18.51 65.318 6.534 7.74 1.25 8.28
4/21/2023 8:00:00 PM 18.4 65.12 6.336 7.65 1.16 8.11
4/21/2023 8:15:00 PM 18.29 64.922 6.393 7.56 1.21 7.97
4/21/2023 8:30:00 PM 18.2 64.76 6.778 7.47 2.62 7.86
4/21/2023 8:45:00 PM 18.12 64.616 6.688 7.45 2.26 7.8
4/21/2023 9:00:00 PM 18.04 64.472 8.737 7.33 1.33 7.71
4/21/2023 9:15:00 PM 17.94 64.292 9.254 7.3 2.31 7.67
4/21/2023 9:30:00 PM 17.85 64.13 8.621 7.29 1.25 7.67
4/21/2023 9:45:00 PM 17.76 63.968 8.627 7.27 2.62 7.68
4/21/2023 10:00:00 PM 17.65 63.77 7.933 7.26 2.37 7.71
4/21/2023 10:15:00 PM 17.56 63.608 8.826 7.24 2.4 7.7
4/21/2023 10:30:00 PM 17.45 63.41 7.868 7.26 4.33 7.73
4/21/2023 10:45:00 PM 17.35 63.23 8.039 7.25 1.46 7.76
4/21/2023 11:00:00 PM 17.24 63.032 9.167 7.19 2.31 7.73
4/21/2023 11:15:00 PM 17.14 62.852 8.394 7.21 1.33 7.8
4/21/2023 11:30:00 PM 17.02 62.636 8.451 7.19 2.36 7.82
4/21/2023 11:45:00 PM 16.9 62.42 8.279 7.21 1.57 7.87
4/22/2023 12:00:00 AM 16.78 62.204 7.953 7.21 1.32 7.9
4/22/2023 12:15:00 AM 16.66 61.988 8.463 7.18 2.45 7.9
4/22/2023 12:30:00 AM 16.54 61.772 7.938 7.2 1.28 7.93
4/22/2023 12:45:00 AM 16.42 61.556 7.659 7.21 1.45 8
4/22/2023 1:00:00 AM 16.29 61.322 8.082 7.18 2.25 8.01
4/22/2023 1:15:00 AM 16.17 61.106 7.706 7.19 1.36 8.05
4/22/2023 1:30:00 AM 16.05 60.89 7.811 7.18 1.81 8.08
4/22/2023 1:45:00 AM 15.93 60.674 1.11 7.35 2.81 8.3
4/22/2023 2:00:00 AM 15.81 60.458 7.997 7.22 1.41 8.14
4/22/2023 2:15:00 AM 15.69 60.242 8.134 7.17 1.35 8.15
4/22/2023 2:30:00 AM 15.57 60.026 6.601 7.26 1.51 8.23
4/22/2023 2:45:00 AM 15.46 59.828 6.836 7.26 1.54 8.27
4/22/2023 3:00:00 AM 15.35 59.63 7.425 7.23 1.66 8.28
4/22/2023 3:15:00 AM 15.23 59.414 2.817 7.33 2.49 8.42
4/22/2023 3:30:00 AM 15.13 59.234 8.225 7.2 1.64 8.32
4/22/2023 3:45:00 AM 15.04 59.072 8.15 7.18 1.44 8.32
4/22/2023 4:00:00 AM 14.94 58.892 7.878 7.18 1.42 8.35
4/22/2023 4:15:00 AM 14.85 58.73 7.832 7.17 2.08 8.38
4/22/2023 4:30:00 AM 14.76 58.568 7.926 7.18 1.41 8.42
4/22/2023 4:45:00 AM 14.67 58.406 8.163 7.15 1.73 8.44
4/22/2023 5:00:00 AM 14.59 58.262 8.336 7.17 1.3 8.45
4/22/2023 5:15:00 AM 14.51 58.118 8.061 7.16 1.3 8.47
4/22/2023 5:30:00 AM 14.43 57.974 8.032 7.15 1.25 8.5
4/22/2023 5:45:00 AM 14.34 57.812 8.159 7.16 1.41 8.51
4/22/2023 6:00:00 AM 14.27 57.686 8.099 7.16 1.76 8.54
4/22/2023 6:15:00 AM 14.21 57.578 8.081 7.14 1.64 8.58
4/22/2023 6:30:00 AM 14.13 57.434 7.974 7.16 1.58 8.61
4/22/2023 6:45:00 AM 14.08 57.344 7.23 7.21 1.36 8.8
4/22/2023 7:00:00 AM 14.03 57.254 8.027 7.19 1.96 8.91
4/22/2023 7:15:00 AM 13.99 57.182 7.929 7.25 1.34 9.16
4/22/2023 7:30:00 AM 13.98 57.164 7.835 7.28 2.86 9.37
4/22/2023 7:45:00 AM 13.96 57.128 7.785 7.35 1.35 9.64
4/22/2023 8:00:00 AM 13.96 57.128 7.583 7.39 1.24 9.94
4/22/2023 8:15:00 AM 13.96 57.128 7.942 7.5 1.47 10.22
4/22/2023 8:30:00 AM 14 57.2 7.871 7.59 1.33 10.54
4/22/2023 8:45:00 AM 14.04 57.272 7.825 7.75 1.36 10.79
4/22/2023 9:00:00 AM 14.07 57.326 7.832 7.85 1.22 10.95
4/22/2023 9:15:00 AM 14.1 57.38 7.837 7.95 1.57 11.07
4/22/2023 9:30:00 AM 14.19 57.542 7.724 8.08 1.15 11.29
4/22/2023 9:45:00 AM 14.29 57.722 7.87 8.17 1.28 11.44
4/22/2023 10:00:00 AM 14.46 58.028 8.26 8.27 2.8 11.52
4/22/2023 10:15:00 AM 14.67 58.406 7.554 8.38 1.1 11.67
4/22/2023 10:30:00 AM 14.83 58.694 7.682 8.44 1.25 11.68
4/22/2023 10:45:00 AM 15.06 59.108 7.558 8.47 1.35 11.7
4/22/2023 11:00:00 AM 15.31 59.558 7.682 8.54 1.53 11.72
4/22/2023 11:15:00 AM 15.55 59.99 7.656 8.59 1.1 11.79
4/22/2023 11:30:00 AM 15.8 60.44 7.494 8.67 1.14 11.83
4/22/2023 11:45:00 AM 16.01 60.818 7.478 8.71 1.15 11.82
4/22/2023 12:00:00 PM 16.25 61.25 7.716 8.72 1.19 11.79
4/22/2023 12:15:00 PM 16.29 61.322 7.43 8.72 1.3 11.69
4/22/2023 12:30:00 PM 16.46 61.628 7.372 8.73 1.03 11.71
4/22/2023 12:45:00 PM 16.6 61.88 7.656 8.77 2.24 11.62
4/22/2023 1:00:00 PM 16.9 62.42 0.652 8.99 1.28 11.9
4/22/2023 1:15:00 PM 17.22 62.996 7.32 8.84 1.12 11.63
4/22/2023 1:30:00 PM 17.48 63.464 7.403 8.84 2.44 11.53
4/22/2023 1:45:00 PM 17.69 63.842 7.417 8.85 2.2 11.45
4/22/2023 2:00:00 PM 17.97 64.346 7.068 8.91 1.1 11.53
4/22/2023 2:15:00 PM 18.12 64.616 6.241 8.94 1.06 11.56
4/22/2023 2:30:00 PM 18.41 65.138 7.51 8.94 2.22 11.46
4/22/2023 2:45:00 PM 18.51 65.318 7.226 8.96 1.18 11.38
4/22/2023 3:00:00 PM 18.64 65.552 0.327 9.17 1.11 11.61
4/22/2023 3:15:00 PM 18.81 65.858 6.843 9 1.04 11.37
4/22/2023 3:30:00 PM 18.92 66.056 7.034 9.01 1.23 11.31
4/22/2023 3:45:00 PM 18.92 66.056 7.033 8.98 1.21 11.18
4/22/2023 4:00:00 PM 18.79 65.82201 7.335 8.99 2.01 11.07
4/22/2023 4:15:00 PM 18.64 65.552 7.2 8.99 1.54 10.94
4/22/2023 4:30:00 PM 18.53 65.354 7.126 8.95 2.08 10.73
4/22/2023 4:45:00 PM 18.47 65.246 7.639 8.92 1.09 10.6
4/22/2023 5:00:00 PM 18.35 65.03 7.711 8.84 1.14 10.19
4/22/2023 5:15:00 PM 18.15 64.67 7.263 8.69 1.24 9.73
4/22/2023 5:30:00 PM 17.94 64.292 8.74 8.54 1.15 9.34
4/22/2023 5:45:00 PM 17.82 64.076 8.598 8.39 1.18 9.15
4/22/2023 6:00:00 PM 17.68 63.824 9.589 8.19 2.66 8.88
4/22/2023 6:15:00 PM 17.58 63.644 9.102 7.99 1.13 8.61
4/22/2023 6:30:00 PM 17.49 63.482 9.363 7.82 1.25 8.45
4/22/2023 6:45:00 PM 17.39 63.302 9.312 7.67 1.39 8.27
4/22/2023 7:00:00 PM 17.29 63.122 9.029 7.58 2.71 8.18
4/22/2023 7:15:00 PM 17.21 62.978 9.008 7.49 1.51 8.08
4/22/2023 7:30:00 PM 17.13 62.834 8.848 7.43 1.47 7.98
4/22/2023 7:45:00 PM 17.04 62.672 8.97 7.38 1.59 7.89
4/22/2023 8:00:00 PM 16.95 62.51 8.69 7.35 1.67 7.88
4/22/2023 8:15:00 PM 16.86 62.348 8.965 7.32 1.64 7.86
4/22/2023 8:30:00 PM 16.76 62.168 8.927 7.28 1.8 7.84
4/22/2023 8:45:00 PM 16.68 62.024 9.017 7.27 1.66 7.87
4/22/2023 9:00:00 PM 16.59 61.862 8.904 7.23 2.2 7.84
4/22/2023 9:15:00 PM 16.5 61.7 8.988 7.23 2.77 7.84
4/22/2023 9:30:00 PM 16.42 61.556 9.222 7.22 3.2 7.87
4/22/2023 9:45:00 PM 16.34 61.412 9.138 7.2 2.93 7.89
4/22/2023 10:00:00 PM 16.26 61.268 8.786 7.18 2.78 7.95
4/22/2023 10:15:00 PM 16.18 61.124 9.19 7.2 2.38 7.97
4/22/2023 10:30:00 PM 16.09 60.962 9.735 7.17 3.32 7.97
4/22/2023 10:45:00 PM 16 60.8 9.592 7.16 3.17 8.02
4/22/2023 11:00:00 PM 15.91 60.638 8.877 7.18 2.07 8.06
4/22/2023 11:15:00 PM 15.82 60.476 8.966 7.17 2.26 8.08
4/22/2023 11:30:00 PM 15.74 60.332 8.907 7.17 2.09 8.12
4/22/2023 11:45:00 PM 15.65 60.17 8.965 7.19 2.27 8.16
4/23/2023 12:00:00 AM 15.55 59.99 8.853 7.2 2.54 8.2
4/23/2023 12:15:00 AM 15.46 59.828 8.943 7.2 2.42 8.23
4/23/2023 12:30:00 AM 15.36 59.648 8.927 7.19 3.14 8.26
4/23/2023 12:45:00 AM 15.26 59.468 9.112 7.2 2.94 8.28
4/23/2023 1:00:00 AM 15.15 59.27 8.395 7.22 3.73 8.34
4/23/2023 1:15:00 AM 15.04 59.072 8.61 7.23 5.69 8.36
4/23/2023 1:30:00 AM 14.93 58.874 8.238 7.23 5.36 8.4
4/23/2023 1:45:00 AM 14.82 58.676 8.359 7.23 7.61 8.43
4/23/2023 2:00:00 AM 14.72 58.496 7.777 7.24 6.15 8.47
4/23/2023 2:15:00 AM 14.63 58.334 1.836 7.35 7.53 8.68
4/23/2023 2:30:00 AM 14.54 58.172 1.673 7.37 6.17 8.73
4/23/2023 2:45:00 AM 14.46 58.028 1.813 7.39 6.18 8.77
4/23/2023 3:00:00 AM 14.38 57.884 3.444 7.37 7.21 8.75
4/23/2023 3:15:00 AM 14.29 57.722 7.69 7.24 5.79 8.65
4/23/2023 3:30:00 AM 14.22 57.596 7.75 7.21 7.29 8.67
4/23/2023 3:45:00 AM 14.14 57.452 7.812 7.23 5.68 8.69
4/23/2023 4:00:00 AM 14.08 57.344 8.141 7.22 5.92 8.73
4/23/2023 4:15:00 AM 14.03 57.254 8.086 7.23 5.97 8.75
4/23/2023 4:30:00 AM 13.97 57.146 7.022 7.25 6.17 8.8
4/23/2023 4:45:00 AM 13.91 57.038 8.745 7.23 5.77 8.76
4/23/2023 5:00:00 AM 13.84 56.912 7.876 7.23 6.16 8.81
4/23/2023 5:15:00 AM 13.77 56.786 7.68 7.24 5.84 8.84
4/23/2023 5:30:00 AM 13.71 56.678 7.786 7.24 6.65 8.84
4/23/2023 5:45:00 AM 13.64 56.552 7.843 7.24 7.44 8.86
4/23/2023 6:00:00 AM 13.57 56.426 0.739 7.38 7.87 9.09
4/23/2023 6:15:00 AM 13.5 56.3 2.494 7.31 7.51 9.06
4/23/2023 6:30:00 AM 13.44 56.192 2 7.35 8.92 9.11
4/23/2023 6:45:00 AM 13.4 56.12 1.615 7.37 12.24 9.18
4/23/2023 7:00:00 AM 13.37 56.066 1.563 7.36 12.49 9.27
4/23/2023 7:15:00 AM 13.31 55.958 1.668 7.37 10.6 9.31
4/23/2023 7:30:00 AM 13.27 55.886 1.757 7.37 11.06 9.39
4/23/2023 7:45:00 AM 13.24 55.832 2.484 7.37 8.66 9.47
4/23/2023 8:00:00 AM 13.22 55.796 2.295 7.4 7.83 9.59
4/23/2023 8:15:00 AM 13.24 55.832 2.391 7.44 7.67 9.77
4/23/2023 8:30:00 AM 13.23 55.814 2.424 7.42 11.47 9.75
4/23/2023 8:45:00 AM 13.24 55.832 2.412 7.44 25.67 9.72
4/23/2023 9:00:00 AM 13.25 55.85 2.402 7.43 41.48 9.67
4/23/2023 9:15:00 AM 13.28 55.904 2.321 7.41 56.98 9.67
4/23/2023 9:30:00 AM 13.36 56.048 1.984 7.45 53.73 9.79
4/23/2023 9:45:00 AM 13.43 56.174 2.061 7.49 45.41 9.91
4/23/2023 10:00:00 AM 13.51 56.318 2.192 7.53 34.05 10.04
4/23/2023 10:15:00 AM 13.57 56.426 2.284 7.57 26.45 10.16
4/23/2023 10:30:00 AM 13.61 56.498 7.076 7.52 20.34 10.07
4/23/2023 10:45:00 AM 13.76 56.768 9.673 7.5 16.53 10.13
4/23/2023 11:00:00 AM 13.97 57.146 9.659 7.56 13.38 10.24
4/23/2023 11:15:00 AM 14.26 57.668 9.141 7.64 11.99 10.38
4/23/2023 11:30:00 AM 14.4 57.92 9.466 7.66 9.54 10.35
4/23/2023 11:45:00 AM 14.57 58.226 8.811 7.74 7.91 10.43
4/23/2023 12:00:00 PM 14.7 58.46 7.642 7.82 7.53 10.49
4/23/2023 12:15:00 PM 14.75 58.55 7.745 7.87 9.82 10.46
4/23/2023 12:30:00 PM 14.9 58.82 9.036 7.91 7.56 10.49
4/23/2023 12:45:00 PM 14.98 58.964 9.35 7.95 7.64 10.46
4/23/2023 1:00:00 PM -99999.99 -179968 -99999.99 -99999.99 -99999.99 -99999.99
4/23/2023 1:15:00 PM -99999.99 -179968 -99999.99 -99999.99 -99999.99 -99999.99
4/23/2023 1:30:00 PM -99999.99 -179968 -99999.99 -99999.99 -99999.99 -99999.99
4/23/2023 1:45:00 PM -99999.99 -179968 -99999.99 -99999.99 -99999.99 -99999.99
4/23/2023 2:00:00 PM -99999.99 -179968 -99999.99 -99999.99 -99999.99 -99999.99
4/23/2023 2:15:00 PM -99999.99 -179968 -99999.99 -99999.99 -99999.99 -99999.99
4/23/2023 2:30:00 PM -99999.99 -179968 -99999.99 -99999.99 -99999.99 -99999.99
4/23/2023 2:45:00 PM -99999.99 -179968 -99999.99 -99999.99 -99999.99 -99999.99
4/23/2023 3:00:00 PM -99999.99 -179968 -99999.99 -99999.99 -99999.99 -99999.99
4/23/2023 3:15:00 PM -99999.99 -179968 -99999.99 -99999.99 -99999.99 -99999.99
4/23/2023 3:30:00 PM -99999.99 -179968 -99999.99 -99999.99 -99999.99 -99999.99
4/23/2023 3:45:00 PM -99999.99 -179968 -99999.99 -99999.99 -99999.99 -99999.99
4/23/2023 4:00:00 PM -99999.99 -179968 -99999.99 -99999.99 -99999.99 -99999.99
4/23/2023 4:15:00 PM -99999.99 -179968 -99999.99 -99999.99 -99999.99 -99999.99
4/23/2023 4:30:00 PM -99999.99 -179968 -99999.99 -99999.99 -99999.99 -99999.99
4/23/2023 4:45:00 PM -99999.99 -179968 -99999.99 -99999.99 -99999.99 -99999.99
4/23/2023 5:00:00 PM -99999.99 -179968 -99999.99 -99999.99 -99999.99 -99999.99
4/23/2023 5:15:00 PM 14.55 58.19 7.179 7.67 4.32 9.8
4/23/2023 5:30:00 PM 14.46 58.028 7.055 7.58 5.82 9.62
4/23/2023 5:45:00 PM 14.36 57.848 6.93 7.59 4.69 9.57
4/23/2023 6:00:00 PM 14.29 57.722 8.997 7.54 4.81 9.53
4/23/2023 6:15:00 PM 14.2 57.56 7.845 7.52 4.55 9.57
4/23/2023 6:30:00 PM 14.11 57.398 8.456 7.46 4.04 9.52
4/23/2023 6:45:00 PM 14.02 57.236 8.338 7.45 4.41 9.51
4/23/2023 7:00:00 PM 13.94 57.092 8.031 7.41 4.77 9.47
4/23/2023 7:15:00 PM 13.86 56.948 7.51 7.39 4.78 9.42
4/23/2023 7:30:00 PM 13.76 56.768 7.639 7.38 4.95 9.35
4/23/2023 7:45:00 PM 13.66 56.588 6.999 7.36 3.91 9.34
4/23/2023 8:00:00 PM 13.57 56.426 7.053 7.34 4.32 9.29
4/23/2023 8:15:00 PM 13.48 56.264 8.096 7.28 4.32 9.22
4/23/2023 8:30:00 PM 13.4 56.12 7.858 7.27 5.45 9.2
4/23/2023 8:45:00 PM 13.32 55.976 7.687 7.27 4.93 9.2
4/23/2023 9:00:00 PM 13.25 55.85 5.352 7.32 5.06 9.28
4/23/2023 9:15:00 PM 13.19 55.742 6.268 7.28 5.24 9.25
4/23/2023 9:30:00 PM 13.13 55.634 6.28 7.28 5.48 9.25
4/23/2023 9:45:00 PM 13.08 55.544 6.439 7.27 5.54 9.25
4/23/2023 10:00:00 PM 13.01 55.418 6.851 7.25 4.93 9.25
4/23/2023 10:15:00 PM 12.95 55.31 7.232 7.23 4.53 9.25
4/23/2023 10:30:00 PM 12.88 55.184 8.696 7.19 5.17 9.2
4/23/2023 10:45:00 PM 12.81 55.058 8.897 7.17 6 9.22
4/23/2023 11:00:00 PM 12.76 54.968 9.265 7.18 5.74 9.22
4/23/2023 11:15:00 PM 12.7 54.86 9.336 7.16 6.1 9.22
4/23/2023 11:30:00 PM 12.65 54.77 9.376 7.16 5.56 9.24
4/23/2023 11:45:00 PM 12.59 54.662 8.751 7.16 4.97 9.27
4/24/2023 12:00:00 AM 12.52 54.536 8.783 7.16 4.65 9.29
4/24/2023 12:15:00 AM 12.46 54.428 8.34 7.15 4.28 9.31
4/24/2023 12:30:00 AM 12.4 54.32 8.244 7.18 4.47 9.33
4/24/2023 12:45:00 AM 12.34 54.212 8.459 7.14 4.32 9.34
4/24/2023 1:00:00 AM 12.28 54.104 8.135 7.16 4.51 9.37
4/24/2023 1:15:00 AM 12.21 53.978 8.272 7.16 4.57 9.37
4/24/2023 1:30:00 AM 12.15 53.87 8.435 7.16 4.19 9.38
4/24/2023 1:45:00 AM 12.1 53.78 8.455 7.15 4.23 9.39
4/24/2023 2:00:00 AM 12.05 53.69 8.476 7.15 4.1 9.42
4/24/2023 2:15:00 AM 11.99 53.582 8.29 7.14 4.42 9.42
4/24/2023 2:30:00 AM 11.94 53.492 8.22 7.12 4.2 9.45
4/24/2023 2:45:00 AM 11.88 53.384 8.429 7.14 4.09 9.45
4/24/2023 3:00:00 AM 11.82 53.276 8.275 7.13 3.79 9.47
4/24/2023 3:15:00 AM 11.76 53.168 8.146 7.14 4.01 9.49
4/24/2023 3:30:00 AM 11.7 53.06 8.473 7.13 3.91 9.49
4/24/2023 3:45:00 AM 11.66 52.988 8.546 7.11 4.16 9.51
4/24/2023 4:00:00 AM 11.61 52.898 0.946 7.35 4.28 9.78
4/24/2023 4:15:00 AM 11.56 52.808 0.674 7.36 4.02 9.8
4/24/2023 4:30:00 AM 11.5 52.7 0.93 7.32 5.32 9.8
4/24/2023 4:45:00 AM 11.44 52.592 1.102 7.35 4.18 9.8
4/24/2023 5:00:00 AM 11.37 52.466 1.19 7.34 3.97 9.82
4/24/2023 5:15:00 AM 11.32 52.376 1.194 7.33 4.03 9.83
4/24/2023 5:30:00 AM 11.25 52.25 1.592 7.33 3.97 9.84
4/24/2023 5:45:00 AM 11.19 52.142 1.725 7.32 3.94 9.85
4/24/2023 6:00:00 AM 11.13 52.034 1.741 7.32 5.83 9.86
4/24/2023 6:15:00 AM 11.08 51.944 2.359 7.3 5.28 9.85
4/24/2023 6:30:00 AM 11.03 51.854 8.262 7.1 4.94 9.7
4/24/2023 6:45:00 AM 10.99 51.782 6.947 7.19 4.33 9.8
4/24/2023 7:00:00 AM 10.96 51.728 6.763 7.19 3.9 9.89
4/24/2023 7:15:00 AM 10.94 51.692 8.879 7.17 4.57 9.93
4/24/2023 7:30:00 AM 10.94 51.692 8.217 7.19 2.99 10.1
4/24/2023 7:45:00 AM 10.96 51.728 8.08 7.24 4.67 10.25
4/24/2023 8:00:00 AM 11.01 51.818 8.075 7.29 2.97 10.46
4/24/2023 8:15:00 AM 11.05 51.89 7.801 7.34 4.58 10.6
4/24/2023 8:30:00 AM 11.11 51.998 7.849 7.39 2.58 10.74
4/24/2023 8:45:00 AM 11.18 52.124 7.795 7.43 2.55 10.86
4/24/2023 9:00:00 AM 11.25 52.25 7.707 7.48 2.61 10.95
4/24/2023 9:15:00 AM 11.35 52.43 7.51 7.55 2.58 11.05
4/24/2023 9:30:00 AM 11.45 52.61 7.4 7.62 2.18 11.13
4/24/2023 9:45:00 AM 11.54 52.772 1.488 7.67 2.51 11.18
4/24/2023 10:00:00 AM 11.64 52.952 7.421 7.72 2.56 11.23
4/24/2023 10:15:00 AM 11.75 53.15 7.118 7.76 2.33 11.26
4/24/2023 10:30:00 AM 11.87 53.366 6.932 7.82 2.27 11.33
4/24/2023 10:45:00 AM 11.93 53.474 0.749 8.04 3.48 11.6
4/24/2023 11:00:00 AM 12.12 53.816 0.841 8.16 2.29 11.68
4/24/2023 11:15:00 AM 12.17 53.906 1.07 8.17 2.35 11.68
4/24/2023 11:30:00 AM 12.34 54.212 2.37 8.21 2.11 11.67
4/24/2023 11:45:00 AM 12.52 54.536 3.187 8.24 2.01 11.63
4/24/2023 12:00:00 PM 12.79 55.022 3.811 8.28 2.08 11.62
4/24/2023 12:15:00 PM 12.78 55.004 5.819 8.21 2.11 11.4
4/24/2023 12:30:00 PM 12.95 55.31 5.913 8.25 2.24 11.46
4/24/2023 12:45:00 PM 13.22 55.796 5.321 8.34 2.02 11.54
4/24/2023 1:00:00 PM 13.3 55.94 1.268 8.5 2.16 11.7
4/24/2023 1:15:00 PM 13.38 56.084 2.849 8.45 2.34 11.63
4/24/2023 1:30:00 PM 13.48 56.264 4.954 8.46 2.04 11.57
4/24/2023 1:45:00 PM 13.56 56.408 6.513 8.43 2.41 11.42
4/24/2023 2:00:00 PM 13.61 56.498 6.327 8.45 1.97 11.39
4/24/2023 2:15:00 PM 13.62 56.516 6.007 8.49 2.12 11.4
4/24/2023 2:30:00 PM 13.71 56.678 5.555 8.5 2.08 11.42
4/24/2023 2:45:00 PM 13.85 56.93 4.616 8.59 1.96 11.5
4/24/2023 3:00:00 PM 13.91 57.038 6.224 8.57 1.9 11.39
4/24/2023 3:15:00 PM 14.02 57.236 6.106 8.58 2.34 11.37
4/24/2023 3:30:00 PM 14.02 57.236 4.208 8.64 1.91 11.35
4/24/2023 3:45:00 PM 14.07 57.326 7.493 8.55 2.12 11.24
4/24/2023 4:00:00 PM 14.09 57.362 6.647 8.59 1.89 11.23
4/24/2023 4:15:00 PM 14.06 57.308 3.716 8.67 2.2 11.24
4/24/2023 4:30:00 PM 14.03 57.254 8.637 8.47 2.18 10.9
4/24/2023 4:45:00 PM 14.01 57.218 8.418 8.44 2.63 10.84
4/24/2023 5:00:00 PM 14.05 57.29 8.596 8.45 2.07 10.9
4/24/2023 5:15:00 PM 13.99 57.182 8.698 8.42 1.9 10.78
4/24/2023 5:30:00 PM 13.95 57.11 8.364 8.37 2.01 10.68
4/24/2023 5:45:00 PM 13.9 57.02 8.746 8.26 1.96 10.41
4/24/2023 6:00:00 PM 13.81 56.858 8.86 8.12 2.63 10.18
4/24/2023 6:15:00 PM 13.7 56.66 9.284 8 3.3 10.02
4/24/2023 6:30:00 PM 13.64 56.552 8.874 7.94 2.12 9.99
4/24/2023 6:45:00 PM 13.57 56.426 8.767 7.85 1.98 9.91
4/24/2023 7:00:00 PM 13.48 56.264 8.737 7.79 2.39 9.92
4/24/2023 7:15:00 PM 13.36 56.048 8.751 7.71 1.99 9.78
4/24/2023 7:30:00 PM 13.23 55.814 8.72 7.63 2 9.67
4/24/2023 7:45:00 PM 13.13 55.634 0.846 7.8 2.29 9.84
4/24/2023 8:00:00 PM 13.01 55.418 1.115 7.73 2.27 9.71
4/24/2023 8:15:00 PM 12.89 55.202 9.488 7.43 2.27 9.35
4/24/2023 8:30:00 PM 12.78 55.004 8.876 7.38 2.2 9.32
4/24/2023 8:45:00 PM 12.69 54.842 8.851 7.32 2.09 9.26
4/24/2023 9:00:00 PM 12.57 54.626 8.818 7.31 2.31 9.25
4/24/2023 9:15:00 PM 12.46 54.428 9.28 7.28 2.32 9.25
4/24/2023 9:30:00 PM 12.37 54.266 9.609 7.26 3.59 9.23
4/24/2023 9:45:00 PM 12.28 54.104 9.41 7.25 2.28 9.24
4/24/2023 10:00:00 PM 12.2 53.96 9.128 7.23 2.32 9.27
4/24/2023 10:15:00 PM 12.11 53.798 9.255 7.22 2.19 9.29
4/24/2023 10:30:00 PM 12.02 53.636 9.544 7.19 3.65 9.28
4/24/2023 10:45:00 PM 11.96 53.528 9.133 7.19 2.31 9.32
4/24/2023 11:00:00 PM 11.87 53.366 9.762 7.18 3.57 9.31
4/24/2023 11:15:00 PM 11.8 53.24 9.2 7.16 2.23 9.35
4/24/2023 11:30:00 PM 11.74 53.132 8.968 7.18 2.62 9.38
4/24/2023 11:45:00 PM 11.65 52.97 9.565 7.15 3.65 9.37
4/25/2023 12:00:00 AM 11.6 52.88 9.191 7.16 2.46 9.4
4/25/2023 12:15:00 AM 11.53 52.754 8.948 7.15 2.17 9.42
4/25/2023 12:30:00 AM 11.46 52.628 8.702 7.15 2.3 9.46
4/25/2023 12:45:00 AM 11.4 52.52 9.14 7.13 2.2 9.46
4/25/2023 1:00:00 AM 11.34 52.412 8.9 7.14 2.07 9.49
4/25/2023 1:15:00 AM 11.28 52.304 9.202 7.13 2.16 9.49
4/25/2023 1:30:00 AM 11.23 52.214 8.922 7.14 2.37 9.52
4/25/2023 1:45:00 AM 11.18 52.124 9.07 7.13 2.25 9.53
4/25/2023 2:00:00 AM 11.12 52.016 9.518 7.11 3.89 9.52
4/25/2023 2:15:00 AM 11.06 51.908 9.07 7.13 2.39 9.56
4/25/2023 2:30:00 AM 10.99 51.782 8.909 7.12 2.3 9.59
4/25/2023 2:45:00 AM 10.91 51.638 0.484 7.33 2.32 9.9
4/25/2023 3:00:00 AM 10.84 51.512 8.313 7.15 2.29 9.64
4/25/2023 3:15:00 AM 10.75 51.35 0.893 7.34 1.99 9.91
4/25/2023 3:30:00 AM 10.67 51.206 8.833 7.13 2.16 9.66
4/25/2023 3:45:00 AM 10.6 51.08 8.883 7.12 2.19 9.67
4/25/2023 4:00:00 AM 10.53 50.954 8.813 7.11 2.21 9.68
4/25/2023 4:15:00 AM 10.48 50.864 8.668 7.08 2.29 9.71
4/25/2023 4:30:00 AM 10.43 50.774 8.874 7.11 2.3 9.72
4/25/2023 4:45:00 AM 10.38 50.684 8.951 7.11 2.33 9.73
4/25/2023 5:00:00 AM 10.34 50.612 8.838 7.11 2.26 9.76
4/25/2023 5:15:00 AM 10.3 50.54 8.674 7.09 2.23 9.77
4/25/2023 5:30:00 AM 10.25 50.45 8.678 7.1 2.21 9.78
4/25/2023 5:45:00 AM 10.21 50.378 8.565 7.1 2.21 9.8
4/25/2023 6:00:00 AM 10.17 50.306 8.918 7.08 2.63 9.8
4/25/2023 6:15:00 AM 10.13 50.234 8.65 7.11 2.95 9.83
4/25/2023 6:30:00 AM 10.09 50.162 8.773 7.11 2.25 9.87
4/25/2023 6:45:00 AM 10.05 50.09 8.595 7.15 1.94 9.96
4/25/2023 7:00:00 AM 10.02 50.036 8.909 7.13 2.23 10.06
4/25/2023 7:15:00 AM 10 50 9.026 7.15 2.29 10.23
4/25/2023 7:30:00 AM 10 50 8.835 7.22 2.41 10.4
4/25/2023 7:45:00 AM 9.99 49.982 8.625 7.22 1.81 10.55
4/25/2023 8:00:00 AM 10.01 50.018 8.723 7.29 2.15 10.78
4/25/2023 8:15:00 AM 10.05 50.09 8.568 7.34 2.85 11
4/25/2023 8:30:00 AM 10.11 50.198 8.626 7.39 1.98 11.18
4/25/2023 8:45:00 AM 10.18 50.324 8.476 7.48 1.72 11.35
4/25/2023 9:00:00 AM 10.27 50.486 8.592 7.59 2.26 11.5
4/25/2023 9:15:00 AM 10.39 50.702 8.789 7.66 1.67 11.61
4/25/2023 9:30:00 AM 10.47 50.846 8.738 7.75 1.96 11.7
4/25/2023 9:45:00 AM 10.63 51.134 8.519 7.81 1.61 11.8
4/25/2023 10:00:00 AM 10.74 51.332 8.586 7.86 1.76 11.81
4/25/2023 10:15:00 AM 10.88 51.584 8.584 7.92 1.56 11.84
4/25/2023 10:30:00 AM 10.92 51.656 8.426 7.94 1.52 11.8
4/25/2023 10:45:00 AM 11.18 52.124 8.538 8.04 2.7 11.91
4/25/2023 11:00:00 AM 11.37 52.466 8.479 8.11 2.53 11.95
4/25/2023 11:15:00 AM 11.66 52.988 8.412 8.19 1.93 11.99
4/25/2023 11:30:00 AM 11.74 53.132 8.402 8.22 1.61 11.96
4/25/2023 11:45:00 AM 11.79 53.222 8.153 8.26 1.59 11.95
4/25/2023 12:00:00 PM 11.85 53.33 8.194 8.31 1.44 12.01
4/25/2023 12:15:00 PM 12 53.6 8.332 8.38 1.65 12
4/25/2023 12:30:00 PM 12.07 53.726 8.139 8.39 1.58 11.95
4/25/2023 12:45:00 PM 12.17 53.906 8.294 8.44 1.73 11.93
4/25/2023 1:00:00 PM 12.35 54.23 8.071 8.46 1.52 11.96
4/25/2023 1:15:00 PM 12.65 54.77 7.644 8.53 1.57 12.02
4/25/2023 1:30:00 PM 12.89 55.202 8.075 8.56 1.74 12
4/25/2023 1:45:00 PM 12.94 55.292 7.848 8.56 1.51 11.86
4/25/2023 2:00:00 PM 13.05 55.49 7.96 8.57 1.63 11.8
4/25/2023 2:15:00 PM 13.13 55.634 0.321 8.84 1.52 12.13
4/25/2023 2:30:00 PM 13.33 55.994 0.649 8.86 1.74 12.13
4/25/2023 2:45:00 PM 13.53 56.354 0.552 8.86 3.03 12.11
4/25/2023 3:00:00 PM 13.73 56.714 0.561 8.89 3.13 12.1
4/25/2023 3:15:00 PM 13.8 56.84 1.054 8.91 1.48 12.02
4/25/2023 3:30:00 PM 14.04 57.272 8.676 8.68 1.8 11.63
4/25/2023 3:45:00 PM 14.15 57.47 8.797 8.71 1.73 11.54
4/25/2023 4:00:00 PM 14.08 57.344 8.566 8.67 1.57 11.38
4/25/2023 4:15:00 PM 14.19 57.542 8.533 8.68 1.97 11.4
4/25/2023 4:30:00 PM 14.29 57.722 8.63 8.72 1.54 11.4
4/25/2023 4:45:00 PM 14.14 57.452 8.508 8.68 1.52 11.21
4/25/2023 5:00:00 PM 14.18 57.524 8.407 8.68 1.46 11.23
4/25/2023 5:15:00 PM 14.13 57.434 8.594 8.65 1.48 11.14
4/25/2023 5:30:00 PM 14.1 57.38 8.673 8.66 1.67 11.1
4/25/2023 5:45:00 PM 14.05 57.29 8.551 8.63 1.45 11
4/25/2023 6:00:00 PM 13.99 57.182 8.385 8.57 1.53 10.88
4/25/2023 6:15:00 PM 13.87 56.966 8.664 8.5 1.96 10.7
4/25/2023 6:30:00 PM 13.73 56.714 8.651 8.42 1.46 10.54
4/25/2023 6:45:00 PM 13.59 56.462 8.177 8.3 1.66 10.38
4/25/2023 7:00:00 PM 13.42 56.156 8.626 8.15 1.61 10.15
4/25/2023 7:15:00 PM 13.27 55.886 8.562 7.95 1.6 9.93
4/25/2023 7:30:00 PM 13.13 55.634 8.468 7.83 1.58 9.77
4/25/2023 7:45:00 PM 13 55.4 8.178 7.71 1.47 9.62
4/25/2023 8:00:00 PM 12.88 55.184 8.356 7.6 1.6 9.49
4/25/2023 8:15:00 PM 12.74 54.932 8.538 7.53 1.64 9.39
4/25/2023 8:30:00 PM 12.6 54.68 8.455 7.47 1.67 9.33
4/25/2023 8:45:00 PM 12.46 54.428 8.179 7.41 1.58 9.32
4/25/2023 9:00:00 PM 12.31 54.158 8.371 7.38 1.75 9.28
4/25/2023 9:15:00 PM 12.18 53.924 8.4 7.34 1.67 9.27
4/25/2023 9:30:00 PM 12.03 53.654 8.284 7.32 1.66 9.29
4/25/2023 9:45:00 PM 11.88 53.384 8.378 7.27 1.48 9.31
4/25/2023 10:00:00 PM 11.74 53.132 8.46 7.28 1.87 9.33
4/25/2023 10:15:00 PM 11.6 52.88 8.284 7.26 1.73 9.36
4/25/2023 10:30:00 PM 11.46 52.628 8.315 7.24 1.76 9.38
4/25/2023 10:45:00 PM 11.33 52.394 8.288 7.23 1.73 9.43
4/25/2023 11:00:00 PM 11.18 52.124 8.493 7.22 1.94 9.46
4/25/2023 11:15:00 PM 11.04 51.872 8.128 7.19 1.7 9.49
4/25/2023 11:30:00 PM 10.9 51.62 8.408 7.2 1.78 9.53
4/25/2023 11:45:00 PM 10.76 51.368 8.573 7.18 1.83 9.56
4/26/2023 12:00:00 AM 10.62 51.116 8.539 7.17 1.6 9.6
4/26/2023 12:15:00 AM 10.49 50.882 8.535 7.17 1.64 9.63
4/26/2023 12:30:00 AM 10.36 50.648 8.584 7.15 1.82 9.68
4/26/2023 12:45:00 AM 10.24 50.432 8.441 7.14 1.72 9.71
4/26/2023 1:00:00 AM 10.13 50.234 8.451 7.16 1.54 9.75
4/26/2023 1:15:00 AM 10 50 8.48 7.15 1.58 9.77
4/26/2023 1:30:00 AM 9.9 49.82 8.413 7.13 1.72 9.81
4/26/2023 1:45:00 AM 9.8 49.64 8.547 7.14 1.86 9.84
4/26/2023 2:00:00 AM 9.69 49.442 8.332 7.11 1.78 9.86
4/26/2023 2:15:00 AM 9.59 49.262 8.771 7.13 1.59 9.88
4/26/2023 2:30:00 AM 9.51 49.118 8.423 7.11 1.55 9.93
4/26/2023 2:45:00 AM 9.45 49.01 8.637 7.12 1.59 9.94
4/26/2023 3:00:00 AM 9.38 48.884 8.484 7.09 1.74 9.97
4/26/2023 3:15:00 AM 9.34 48.812 8.502 7.11 1.58 9.98
4/26/2023 3:30:00 AM 9.29 48.722 8.443 7.11 1.7 10
4/26/2023 3:45:00 AM 9.25 48.65 8.449 7.11 1.49 10.01
4/26/2023 4:00:00 AM 9.21 48.578 8.607 7.1 1.87 10.02
4/26/2023 4:15:00 AM 9.18 48.524 8.43 7.1 1.65 10.04
4/26/2023 4:30:00 AM 9.15 48.47 8.483 7.07 1.67 10.05
4/26/2023 4:45:00 AM 9.13 48.434 8.411 7.09 1.55 10.08
4/26/2023 5:00:00 AM 9.1 48.38 8.451 7.08 1.65 10.08
4/26/2023 5:15:00 AM 9.08 48.344 8.416 7.09 1.65 10.08
4/26/2023 5:30:00 AM 9.06 48.308 8.402 7.08 2.09 10.1
4/26/2023 5:45:00 AM 9.04 48.272 8.472 7.09 2.17 10.1
4/26/2023 6:00:00 AM 9.03 48.254 8.528 7.08 2.37 10.1
4/26/2023 6:15:00 AM 9.02 48.236 8.423 7.07 1.92 10.12
4/26/2023 6:30:00 AM 9.02 48.236 8.613 7.1 1.93 10.15
4/26/2023 6:45:00 AM 9.01 48.218 8.723 7.1 2.25 10.25
4/26/2023 7:00:00 AM 9.02 48.236 8.598 7.12 1.62 10.46
4/26/2023 7:15:00 AM 9.05 48.29 8.523 7.18 1.55 10.67
4/26/2023 7:30:00 AM 9.08 48.344 8.351 7.2 1.49 10.72
4/26/2023 7:45:00 AM 9.12 48.416 8.362 7.25 1.54 10.93
4/26/2023 8:00:00 AM 9.18 48.524 7.972 7.31 1.63 11.11
4/26/2023 8:15:00 AM 9.24 48.632 0.303 7.59 2.83 11.59
4/26/2023 8:30:00 AM 9.33 48.794 7.657 7.46 1.52 11.47
4/26/2023 8:45:00 AM 9.41 48.938 7.804 7.52 1.74 11.69
4/26/2023 9:00:00 AM 9.46 49.028 8.011 7.58 1.48 11.58
4/26/2023 9:15:00 AM 9.52 49.136 8.135 7.56 1.78 11.63
4/26/2023 9:30:00 AM 9.64 49.352 8.102 7.7 1.53 11.91
4/26/2023 9:45:00 AM 9.86 49.748 7.654 7.88 1.87 12.15
4/26/2023 10:00:00 AM 9.93 49.874 7.589 7.96 1.53 12.22
4/26/2023 10:15:00 AM 10.14 50.252 7.463 8.07 1.42 12.32
4/26/2023 10:30:00 AM 10.37 50.666 1.075 8.35 1.61 12.67
4/26/2023 10:45:00 AM 10.6 51.08 7.145 8.25 1.45 12.44
4/26/2023 11:00:00 AM 10.88 51.584 7.091 8.32 1.36 12.47
4/26/2023 11:15:00 AM 11.19 52.142 7.405 8.38 1.95 12.48
4/26/2023 11:30:00 AM 11.5 52.7 9.834 8.4 1.28 12.36
4/26/2023 11:45:00 AM 11.81 53.258 8.672 8.45 3.03 12.4
4/26/2023 12:00:00 PM 12.13 53.834 7.91 8.52 1.27 12.42
4/26/2023 12:15:00 PM 12.37 54.266 7.86 8.54 1.45 12.36
4/26/2023 12:30:00 PM 12.72 54.896 6.297 8.64 1.36 12.39
4/26/2023 12:45:00 PM 13.04 55.472 6.588 8.68 1.27 12.34
4/26/2023 1:00:00 PM 13.28 55.904 7.671 8.68 1.27 12.21
4/26/2023 1:15:00 PM 13.46 56.228 7.839 8.7 1.54 12.09
4/26/2023 1:30:00 PM 13.74 56.732 7.488 8.73 1.33 12.12
4/26/2023 1:45:00 PM 14.11 57.398 0.328 8.99 1.43 12.43
4/26/2023 2:00:00 PM 14.24 57.632 7.526 8.8 1.4 12.03
4/26/2023 2:15:00 PM 14.49 58.082 0.388 9.04 1.44 12.34
4/26/2023 2:30:00 PM 14.72 58.496 7.366 8.89 3.01 12.01
4/26/2023 2:45:00 PM 14.72 58.496 7.57 8.87 1.6 11.81
4/26/2023 3:00:00 PM 14.66 58.388 7.56 8.82 1.4 11.48
4/26/2023 3:15:00 PM 14.57 58.226 7.707 8.7 1.78 11.02
4/26/2023 3:30:00 PM 14.44 57.992 7.327 8.62 1.79 10.68
4/26/2023 3:45:00 PM 14.38 57.884 7.83 8.6 1.46 10.74
4/26/2023 4:00:00 PM 14.26 57.668 6.985 8.54 6.96 10.6
4/26/2023 4:15:00 PM 14.2 57.56 7.256 8.49 1.38 10.61
4/26/2023 4:30:00 PM 14.15 57.47 0.48 8.68 1.4 10.89
4/26/2023 4:45:00 PM 14.21 57.578 9.96 8.47 2.93 11.11
4/26/2023 5:00:00 PM 14.29 57.722 9.545 8.55 3.11 10.87
4/26/2023 5:15:00 PM 14.3 57.74 8.519 8.58 1.25 10.99
4/26/2023 5:30:00 PM 14.34 57.812 8.715 8.61 1.25 11.04
4/26/2023 5:45:00 PM 14.39 57.902 8.916 8.61 1.5 10.95
4/26/2023 6:00:00 PM 14.34 57.812 8.447 8.57 1.38 10.84
4/26/2023 6:15:00 PM 14.23 57.614 8.793 8.44 1.35 10.46
4/26/2023 6:30:00 PM 14.26 57.668 8.877 8.46 1.37 10.49
4/26/2023 6:45:00 PM 14.19 57.542 8.916 8.29 1.43 10.17
4/26/2023 7:00:00 PM 14.13 57.434 9.381 8.08 3.24 9.81
4/26/2023 7:15:00 PM 14.08 57.344 8.841 7.92 1.52 9.61
4/26/2023 7:30:00 PM 14 57.2 8.919 7.79 1.47 9.52
4/26/2023 7:45:00 PM 13.88 56.984 8.803 7.69 1.38 9.37
4/26/2023 8:00:00 PM 13.75 56.75 8.9 7.6 1.33 9.22
4/26/2023 8:15:00 PM 13.61 56.498 0.327 7.75 3.45 9.4
4/26/2023 8:30:00 PM 13.47 56.246 9.433 7.51 1.46 9.03
4/26/2023 8:45:00 PM 13.33 55.994 9.727 7.41 3.51 8.99
4/26/2023 9:00:00 PM 13.18 55.724 8.963 7.37 1.72 8.99
4/26/2023 9:15:00 PM 13.04 55.472 8.885 7.32 1.55 9
4/26/2023 9:30:00 PM 12.91 55.238 8.682 7.33 1.56 9.02
4/26/2023 9:45:00 PM 12.78 55.004 8.807 7.3 1.45 9.02
4/26/2023 10:00:00 PM 12.68 54.824 8.582 7.29 1.41 9.03
4/26/2023 10:15:00 PM 12.56 54.608 0.335 7.47 3.94 9.32
4/26/2023 10:30:00 PM 12.44 54.392 0.358 7.5 1.45 9.35
4/26/2023 10:45:00 PM 12.33 54.194 0.369 7.45 1.68 9.38
4/26/2023 11:00:00 PM 12.21 53.978 0.361 7.47 1.47 9.4
4/26/2023 11:15:00 PM 12.12 53.816 0.424 7.43 1.38 9.44
4/26/2023 11:30:00 PM 12.02 53.636 0.442 7.44 1.52 9.45
4/26/2023 11:45:00 PM 11.93 53.474 7.85 7.23 1.46 9.22
4/27/2023 12:00:00 AM 11.85 53.33 8.232 7.18 1.39 9.25
4/27/2023 12:15:00 AM 11.76 53.168 7.797 7.21 1.44 9.29
4/27/2023 12:30:00 AM 11.67 53.006 7.569 7.21 1.48 9.32
4/27/2023 12:45:00 AM 11.59 52.862 7.152 7.21 1.47 9.35
4/27/2023 1:00:00 AM 11.51 52.718 0.466 7.38 1.61 9.6
4/27/2023 1:15:00 AM 11.42 52.556 0.714 7.39 1.58 9.63
4/27/2023 1:30:00 AM 11.33 52.394 0.792 7.37 1.49 9.66
4/27/2023 1:45:00 AM 11.24 52.232 7.978 7.2 1.4 9.43
4/27/2023 2:00:00 AM 11.18 52.124 8.955 7.14 1.44 9.42
4/27/2023 2:15:00 AM 11.1 51.98 8.771 7.13 1.61 9.43
4/27/2023 2:30:00 AM 11.03 51.854 8.781 7.13 1.55 9.45
4/27/2023 2:45:00 AM 10.99 51.782 8.544 7.13 1.41 9.49
4/27/2023 3:00:00 AM 10.91 51.638 8.97 7.11 1.47 9.5
4/27/2023 3:15:00 AM 10.86 51.548 9.013 7.12 1.58 9.52
4/27/2023 3:30:00 AM 10.82 51.476 9.158 7.1 1.5 9.52
4/27/2023 3:45:00 AM 10.54 50.972 9.138 7.12 1.95 9.58
4/27/2023 4:00:00 AM 10.53 50.954 9.996 7.08 3.29 9.55
4/27/2023 4:15:00 AM 10.49 50.882 9.08 7.09 2.28 9.59
4/27/2023 4:30:00 AM 10.42 50.756 9.014 7.09 3.56 9.62
4/27/2023 4:45:00 AM 10.36 50.648 9.057 7.09 8.67 9.63
4/27/2023 5:00:00 AM 10.34 50.612 9.058 7.09 7.31 9.62
4/27/2023 5:15:00 AM 10.33 50.594 9.919 7.07 7.25 9.61
4/27/2023 5:30:00 AM 10.32 50.576 9.123 7.09 4 9.65
4/27/2023 5:45:00 AM 10.32 50.576 9.02 7.09 3.42 9.66
4/27/2023 6:00:00 AM 10.32 50.576 9.879 7.07 4.73 9.64
4/27/2023 6:15:00 AM 10.3 50.54 9.422 7.12 3.79 9.69
4/27/2023 6:30:00 AM 10.3 50.54 9.099 7.13 2.51 9.73
4/27/2023 6:45:00 AM 10.3 50.54 0.34 7.36 2.73 10.12
4/27/2023 7:00:00 AM 10.32 50.576 0.754 7.37 3.18 10.15
4/27/2023 7:15:00 AM 10.34 50.612 1.453 7.36 2.97 10.18
4/27/2023 7:30:00 AM 10.36 50.648 1.976 7.36 3.37 10.22
4/27/2023 7:45:00 AM 10.37 50.666 2.122 7.36 2.74 10.19
4/27/2023 8:00:00 AM 10.4 50.72 1.691 7.39 2.7 10.38
4/27/2023 8:15:00 AM 10.4 50.72 2.099 7.4 2.48 10.37
4/27/2023 8:30:00 AM 10.42 50.756 1.693 7.42 3.02 10.37
4/27/2023 8:45:00 AM 10.47 50.846 1.542 7.48 2.73 10.72
4/27/2023 9:00:00 AM 10.5 50.9 1.448 7.51 3.12 10.84
4/27/2023 9:15:00 AM 10.6 51.08 1.583 7.57 3.2 11.24
4/27/2023 9:30:00 AM 10.71 51.278 1.585 7.71 4.01 11.5
4/27/2023 9:45:00 AM 10.73 51.314 1.47 7.72 3.12 11.44
4/27/2023 10:00:00 AM 10.79 51.422 1.418 7.78 3.02 11.57
4/27/2023 10:15:00 AM 10.81 51.458 1.507 7.79 3.2 11.53
4/27/2023 10:30:00 AM 10.85 51.53 1.602 7.83 2.71 11.57
4/27/2023 10:45:00 AM 10.91 51.638 1.525 7.89 2.42 11.63
4/27/2023 11:00:00 AM 10.96 51.728 1.495 7.92 2.36 11.62
4/27/2023 11:15:00 AM 11.05 51.89 1.633 8.02 2.51 11.78
4/27/2023 11:30:00 AM 11.1 51.98 1.526 8.03 2.26 11.74
4/27/2023 11:45:00 AM 11.24 52.232 1.531 8.14 2.01 12.02
4/27/2023 12:00:00 PM 11.4 52.52 1.53 8.31 2.26 12.19
4/27/2023 12:15:00 PM 11.63 52.934 1.599 8.43 1.93 12.34
4/27/2023 12:30:00 PM 11.85 53.33 1.603 8.48 2.13 12.41
4/27/2023 12:45:00 PM 12.01 53.618 1.63 8.58 1.96 12.38
4/27/2023 1:00:00 PM 12.14 53.852 1.597 8.6 1.87 12.32
4/27/2023 1:15:00 PM 12.2 53.96 1.445 8.62 1.98 12.27
4/27/2023 1:30:00 PM 12.27 54.086 1.227 8.67 1.92 12.3
4/27/2023 1:45:00 PM 12.31 54.158 1.326 8.68 1.94 12.24
4/27/2023 2:00:00 PM 12.73 54.914 1.337 8.74 2.12 12.36
4/27/2023 2:15:00 PM 12.91 55.238 1.28 8.78 2.34 12.34
4/27/2023 2:30:00 PM 13.27 55.886 1.237 8.8 1.93 12.32
4/27/2023 2:45:00 PM 13.42 56.156 1.339 8.8 2.22 12.16
4/27/2023 3:00:00 PM 13.84 56.912 1.361 8.86 1.74 12.21
4/27/2023 3:15:00 PM 14.1 57.38 1.357 8.9 1.81 12.18
4/27/2023 3:30:00 PM 14.27 57.686 1.37 8.9 1.74 12.06
4/27/2023 3:45:00 PM 14.28 57.704 1.43 8.88 2 11.8
4/27/2023 4:00:00 PM 14.52 58.136 1.479 8.89 2.56 11.8
4/27/2023 4:15:00 PM 14.47 58.046 1.545 8.84 2.16 11.5
4/27/2023 4:30:00 PM 14.54 58.172 1.668 8.85 1.92 11.47
4/27/2023 4:45:00 PM 14.52 58.136 1.926 8.8 1.89 11.3
4/27/2023 5:00:00 PM 14.56 58.208 1.976 8.82 4.26 11.32
4/27/2023 5:15:00 PM 14.55 58.19 2.017 8.8 2.36 11.23
4/27/2023 5:30:00 PM 14.55 58.19 2.136 8.78 2 11.17
4/27/2023 5:45:00 PM 14.49 58.082 2.215 8.76 1.85 11.07
4/27/2023 6:00:00 PM 14.46 58.028 2.078 8.72 2.13 10.96
4/27/2023 6:15:00 PM 14.41 57.938 2.075 8.66 1.92 10.81
4/27/2023 6:30:00 PM 14.38 57.884 2.053 8.55 1.93 10.59
4/27/2023 6:45:00 PM 14.37 57.866 1.986 8.47 1.91 10.44
4/27/2023 7:00:00 PM 14.34 57.812 2.247 8.34 1.93 10.21
4/27/2023 7:15:00 PM 14.3 57.74 2.399 8.17 2.37 10.01
4/27/2023 7:30:00 PM 14.25 57.65 2.496 8.06 2.12 9.82
4/27/2023 7:45:00 PM 14.19 57.542 2.943 7.9 2.02 9.62
4/27/2023 8:00:00 PM 14.1 57.38 3.615 7.8 2.43 9.44
4/27/2023 8:15:00 PM 14.01 57.218 3.868 7.71 2.19 9.32
4/27/2023 8:30:00 PM 13.9 57.02 3.929 7.64 2.38 9.26
4/27/2023 8:45:00 PM 13.79 56.822 4.156 7.59 2.3 9.2
4/27/2023 9:00:00 PM 13.67 56.606 7.688 7.45 2.5 9.05
4/27/2023 9:15:00 PM 13.55 56.39 7.747 7.41 2.43 9.05
4/27/2023 9:30:00 PM 13.44 56.192 3.676 7.5 2.33 9.19
4/27/2023 9:45:00 PM 13.34 56.012 3.525 7.47 2.22 9.19
4/27/2023 10:00:00 PM 13.25 55.85 3.575 7.43 2.46 9.21
4/27/2023 10:15:00 PM 13.15 55.67 3.658 7.43 2.48 9.22
4/27/2023 10:30:00 PM 13.06 55.508 3.631 7.42 2.46 9.24
4/27/2023 10:45:00 PM 12.96 55.328 3.618 7.4 2.3 9.24
4/27/2023 11:00:00 PM 12.88 55.184 3.579 7.39 2.46 9.27
4/27/2023 11:15:00 PM 12.79 55.022 3.602 7.38 3.75 9.29
4/27/2023 11:30:00 PM 12.7 54.86 3.706 7.37 3.78 9.29
4/27/2023 11:45:00 PM 12.63 54.734 3.738 7.35 3.95 9.31
4/28/2023 12:00:00 AM 12.55 54.59 3.696 7.35 2.37 9.34
4/28/2023 12:15:00 AM 12.48 54.464 3.761 7.35 2.29 9.35
4/28/2023 12:30:00 AM 12.42 54.356 3.762 7.34 2.12 9.37
4/28/2023 12:45:00 AM 12.36 54.248 4.076 7.33 2.29 9.37
4/28/2023 1:00:00 AM 12.3 54.14 4.21 7.32 2.51 9.38
4/28/2023 1:15:00 AM 12.25 54.05 4.369 7.31 98.1 9.38
4/28/2023 1:30:00 AM 12.2 53.96 4.435 7.27 2.32 9.41
4/28/2023 1:45:00 AM 12.16 53.888 4.484 7.3 2.34 9.41
4/28/2023 2:00:00 AM 12.11 53.798 4.414 7.3 2.28 9.43
4/28/2023 2:15:00 AM 12.06 53.708 4.442 7.27 2.48 9.43
4/28/2023 2:30:00 AM 12 53.6 4.485 7.28 2.42 9.47
4/28/2023 2:45:00 AM 11.95 53.51 4.634 7.28 2.4 9.47
4/28/2023 3:00:00 AM 11.89 53.402 4.834 7.26 2.44 9.48
4/28/2023 3:15:00 AM 11.82 53.276 4.888 7.27 2.23 9.5
4/28/2023 3:30:00 AM 11.76 53.168 4.77 7.27 2.39 9.52
4/28/2023 3:45:00 AM 11.7 53.06 4.831 7.23 2.32 9.54
4/28/2023 4:00:00 AM 11.64 52.952 4.876 7.26 2.42 9.54
4/28/2023 4:15:00 AM 11.58 52.844 4.915 7.26 2.31 9.56
4/28/2023 4:30:00 AM 11.52 52.736 4.815 7.25 2.32 9.59
4/28/2023 4:45:00 AM 11.46 52.628 4.827 7.26 2.38 9.6
4/28/2023 5:00:00 AM 11.41 52.538 4.844 7.25 2.36 9.62
4/28/2023 5:15:00 AM 11.36 52.448 4.846 7.24 2.14 9.63
4/28/2023 5:30:00 AM 11.32 52.376 4.798 7.26 2.47 9.65
4/28/2023 5:45:00 AM 11.29 52.322 4.852 7.26 2.32 9.66
4/28/2023 6:00:00 AM 11.24 52.232 4.76 7.22 3.07 9.66
4/28/2023 6:15:00 AM 11.22 52.196 4.821 7.24 2.59 9.7
4/28/2023 6:30:00 AM 11.2 52.16 4.891 7.27 2.11 9.74
4/28/2023 6:45:00 AM 11.17 52.106 4.849 7.27 2.27 9.82
4/28/2023 7:00:00 AM 11.16 52.088 4.941 7.29 5.67 9.88
4/28/2023 7:15:00 AM 11.16 52.088 4.989 7.33 2.29 10.14
4/28/2023 7:30:00 AM 11.18 52.124 4.917 7.37 2.79 10.3
4/28/2023 7:45:00 AM 11.21 52.178 4.863 7.39 1.97 10.52
4/28/2023 8:00:00 AM 11.27 52.286 4.906 7.49 1.9 10.77
4/28/2023 8:15:00 AM 11.34 52.412 4.862 7.54 2.2 10.99
4/28/2023 8:30:00 AM 11.43 52.574 4.919 7.67 1.71 11.21
4/28/2023 8:45:00 AM 11.53 52.754 4.924 7.78 1.81 11.39
4/28/2023 9:00:00 AM 11.62 52.916 4.86 7.87 1.94 11.55
4/28/2023 9:15:00 AM 11.72 53.096 4.803 8 1.55 11.66
4/28/2023 9:30:00 AM 11.82 53.276 4.795 8.06 1.65 11.75
4/28/2023 9:45:00 AM 11.94 53.492 4.791 8.19 1.77 11.85
4/28/2023 10:00:00 AM 12.05 53.69 4.797 8.28 1.65 11.93
4/28/2023 10:15:00 AM 12.14 53.852 4.793 8.34 1.47 11.94
4/28/2023 10:30:00 AM 12.23 54.014 4.761 8.36 1.67 11.94
4/28/2023 10:45:00 AM 12.31 54.158 4.806 8.43 1.63 11.94
4/28/2023 11:00:00 AM 12.39 54.302 4.707 8.44 1.73 11.91
4/28/2023 11:15:00 AM 12.46 54.428 4.639 8.48 1.72 11.91
4/28/2023 11:30:00 AM 12.52 54.536 4.572 8.51 1.7 11.88
4/28/2023 11:45:00 AM 12.59 54.662 4.569 8.53 1.59 11.87
4/28/2023 12:00:00 PM 12.64 54.752 4.438 8.54 1.75 11.81
4/28/2023 12:15:00 PM 12.71 54.878 4.541 8.52 1.75 11.77
4/28/2023 12:30:00 PM 12.76 54.968 4.553 8.58 2.36 11.79
4/28/2023 12:45:00 PM 12.82 55.076 4.553 8.61 1.47 11.8
4/28/2023 1:00:00 PM 12.86 55.148 4.544 8.62 1.47 11.76
4/28/2023 1:15:00 PM 12.9 55.22 4.595 8.63 1.55 11.75
4/28/2023 1:30:00 PM 12.94 55.292 4.521 8.64 1.69 11.71
4/28/2023 1:45:00 PM 12.96 55.328 4.578 8.67 1.78 11.69
4/28/2023 2:00:00 PM 13 55.4 4.61 8.68 1.93 11.69
4/28/2023 2:15:00 PM 13.02 55.436 4.583 8.68 1.77 11.64
4/28/2023 2:30:00 PM 13.03 55.454 4.53 8.65 1.65 11.56
4/28/2023 2:45:00 PM 13.03 55.454 4.443 8.64 1.72 11.45
4/28/2023 3:00:00 PM 13.01 55.418 4.534 8.62 1.96 11.34
4/28/2023 3:15:00 PM 13 55.4 4.487 8.54 1.68 11.18
4/28/2023 3:30:00 PM 12.96 55.328 4.517 8.5 1.94 11.06
4/28/2023 3:45:00 PM 12.93 55.274 4.503 8.45 1.69 10.97
4/28/2023 4:00:00 PM 12.89 55.202 4.52 8.38 1.79 10.84
4/28/2023 4:15:00 PM 12.87 55.166 4.441 8.3 1.57 10.79
4/28/2023 4:30:00 PM 12.81 55.058 4.459 8.29 1.74 10.76
4/28/2023 4:45:00 PM 12.8 55.04 4.423 8.27 1.68 10.74
4/28/2023 5:00:00 PM 12.78 55.004 4.432 8.24 1.58 10.72
4/28/2023 5:15:00 PM 12.75 54.95 4.418 8.16 1.85 10.66
4/28/2023 5:30:00 PM 12.72 54.896 4.62 8.09 1.57 10.51
4/28/2023 5:45:00 PM 12.69 54.842 4.666 8.03 1.75 10.43
4/28/2023 6:00:00 PM 12.66 54.788 4.702 7.96 1.55 10.36
4/28/2023 6:15:00 PM 12.62 54.716 4.644 7.93 1.55 10.31
4/28/2023 6:30:00 PM 12.59 54.662 4.586 7.89 1.56 10.27
4/28/2023 6:45:00 PM 12.55 54.59 4.477 7.8 1.55 10.18
4/28/2023 7:00:00 PM 12.5 54.5 4.542 7.79 1.62 10.16
4/28/2023 7:15:00 PM 12.45 54.41 4.506 7.72 1.76 10.12
4/28/2023 7:30:00 PM 12.39 54.302 4.578 7.68 1.64 9.97
4/28/2023 7:45:00 PM 12.32 54.176 4.592 7.62 1.75 9.85
4/28/2023 8:00:00 PM 12.24 54.032 4.65 7.57 1.6 9.75
4/28/2023 8:15:00 PM 12.18 53.924 4.694 7.52 1.88 9.66
4/28/2023 8:30:00 PM 12.12 53.816 4.54 7.48 1.96 9.59
4/28/2023 8:45:00 PM 12.06 53.708 4.615 7.46 1.83 9.56
4/28/2023 9:00:00 PM 12.01 53.618 4.471 7.41 1.97 9.53
4/28/2023 9:15:00 PM 11.96 53.528 4.759 7.4 1.84 9.51
4/28/2023 9:30:00 PM 11.9 53.42 7.262 7.34 1.84 9.41
4/28/2023 9:45:00 PM 11.87 53.366 7.72 7.29 1.87 9.39
4/28/2023 10:00:00 PM 11.8 53.24 8.066 7.29 1.93 9.38
4/28/2023 10:15:00 PM 11.76 53.168 7.899 7.28 1.77 9.39
4/28/2023 10:30:00 PM 11.71 53.078 8.061 7.27 1.78 9.4
4/28/2023 10:45:00 PM 11.67 53.006 8.119 7.24 1.89 9.39
4/28/2023 11:00:00 PM 11.61 52.898 8.183 7.26 2.16 9.39
4/28/2023 11:15:00 PM 11.57 52.826 8.183 7.25 2.22 9.41
4/28/2023 11:30:00 PM 11.52 52.736 8.173 7.21 1.86 9.43
4/28/2023 11:45:00 PM 11.46 52.628 8.303 7.24 1.85 9.43
4/29/2023 12:00:00 AM 11.41 52.538 8.429 7.23 1.88 9.45
4/29/2023 12:15:00 AM 11.37 52.466 8.411 7.22 1.99 9.46
4/29/2023 12:30:00 AM 11.32 52.376 8.445 7.22 1.92 9.47
4/29/2023 12:45:00 AM 11.28 52.304 8.562 7.18 2.1 9.47
4/29/2023 1:00:00 AM 11.21 52.178 8.613 7.2 2.24 9.49
4/29/2023 1:15:00 AM 11.18 52.124 8.486 7.2 2.34 9.5
4/29/2023 1:30:00 AM 11.14 52.052 8.982 7.16 2.47 9.48
4/29/2023 1:45:00 AM 11.1 51.98 8.877 7.19 2.57 9.5
4/29/2023 2:00:00 AM 11.06 51.908 8.933 7.18 2.59 9.49
4/29/2023 2:15:00 AM 11.02 51.836 8.99 7.14 2.52 9.5
4/29/2023 2:30:00 AM 10.98 51.764 9.038 7.17 2.38 9.5
4/29/2023 2:45:00 AM 10.95 51.71 9.079 7.18 2.46 9.51
4/29/2023 3:00:00 AM 10.91 51.638 9.127 7.18 2.21 9.52
4/29/2023 3:15:00 AM 10.88 51.584 9.107 7.18 2.12 9.53
4/29/2023 3:30:00 AM 10.85 51.53 9.123 7.14 2.35 9.53
4/29/2023 3:45:00 AM 10.82 51.476 9.259 7.17 3.22 9.54
4/29/2023 4:00:00 AM 10.78 51.404 9.285 7.18 2.84 9.55
4/29/2023 4:15:00 AM 10.75 51.35 9.2 7.18 2.84 9.57
4/29/2023 4:30:00 AM 10.72 51.296 9 7.18 2.9 9.58
4/29/2023 4:45:00 AM 10.7 51.26 8.961 7.14 2.8 9.59
4/29/2023 5:00:00 AM 10.66 51.188 9.285 7.16 3.22 9.59
4/29/2023 5:15:00 AM 10.62 51.116 9.149 7.17 2.99 9.61
4/29/2023 5:30:00 AM 10.6 51.08 9.638 7.17 4.75 9.59
4/29/2023 5:45:00 AM 10.57 51.026 9.089 7.17 3.69 9.64
4/29/2023 6:00:00 AM 10.54 50.972 9.055 7.15 3.84 9.65
4/29/2023 6:15:00 AM 10.5 50.9 9.721 7.18 5.25 9.64
4/29/2023 6:30:00 AM 10.45 50.81 9.244 7.18 4.71 9.68
4/29/2023 6:45:00 AM 10.42 50.756 9.277 7.18 3.59 9.7
4/29/2023 7:00:00 AM 10.41 50.738 9.372 7.19 3.97 9.72
4/29/2023 7:15:00 AM 10.4 50.72 9.138 7.19 3.56 9.76
4/29/2023 7:30:00 AM 10.4 50.72 9.154 7.2 3.82 9.81
4/29/2023 7:45:00 AM 10.44 50.792 9.133 7.2 3.6 9.95
4/29/2023 8:00:00 AM 10.47 50.846 9.72 7.26 5.3 10.06
4/29/2023 8:15:00 AM 10.5 50.9 9.263 7.27 3.96 10.12
4/29/2023 8:30:00 AM 10.53 50.954 9.313 7.26 3.78 10.12
4/29/2023 8:45:00 AM 10.56 51.008 9.38 7.3 3.48 10.2
4/29/2023 9:00:00 AM 10.6 51.08 9.218 7.31 3.53 10.29
4/29/2023 9:15:00 AM 10.64 51.152 9.598 7.34 4.69 10.35
4/29/2023 9:30:00 AM 10.69 51.242 9.174 7.39 3.26 10.48
4/29/2023 9:45:00 AM 10.75 51.35 9.066 7.43 3.74 10.61
4/29/2023 10:00:00 AM 10.81 51.458 9.183 7.47 3.03 10.73
4/29/2023 10:15:00 AM 10.85 51.53 9.007 7.5 2.77 10.73
4/29/2023 10:30:00 AM 10.92 51.656 9.196 7.55 2.71 10.85
4/29/2023 10:45:00 AM 10.97 51.746 9.777 7.59 4.51 10.88
4/29/2023 11:00:00 AM 11.02 51.836 9.13 7.64 3.22 10.93
4/29/2023 11:15:00 AM 11.07 51.926 9.515 7.64 4.09 10.95
4/29/2023 11:30:00 AM 11.1 51.98 9.009 7.68 2.72 10.94
4/29/2023 11:45:00 AM 11.13 52.034 8.788 7.64 2.7 10.86
4/29/2023 12:00:00 PM 11.17 52.106 9.19 7.68 2.56 10.85
4/29/2023 12:15:00 PM 11.21 52.178 8.906 7.68 2.29 10.84
4/29/2023 12:30:00 PM 11.25 52.25 0.615 7.89 2.69 11.19
4/29/2023 12:45:00 PM 11.3 52.34 2.733 7.83 2.58 11.1
4/29/2023 1:00:00 PM 11.34 52.412 6.118 7.8 2.65 10.99
4/29/2023 1:15:00 PM 11.39 52.502 6.719 7.82 4.96 10.98
4/29/2023 1:30:00 PM 11.43 52.574 6.171 7.83 3.11 10.98
4/29/2023 1:45:00 PM 11.49 52.682 6.613 7.87 2.63 11.04
4/29/2023 2:00:00 PM 11.53 52.754 6.166 7.88 2.52 11.02
4/29/2023 2:15:00 PM 11.57 52.826 6.152 7.87 2.96 10.97
4/29/2023 2:30:00 PM 11.61 52.898 9.717 7.81 2.83 10.83
4/29/2023 2:45:00 PM 11.66 52.988 9.429 7.83 3.02 10.86
4/29/2023 3:00:00 PM 11.71 53.078 9.293 7.85 2.66 10.88
4/29/2023 3:15:00 PM 11.76 53.168 9.759 7.86 4.53 10.86
4/29/2023 3:30:00 PM 11.81 53.258 9.842 7.89 4.42 10.87
4/29/2023 3:45:00 PM 11.88 53.384 9.812 7.93 4.1 10.96
4/29/2023 4:00:00 PM 11.95 53.51 9.215 8 6.35 11.05
4/29/2023 4:15:00 PM 11.99 53.582 9.704 7.97 4.2 10.91
4/29/2023 4:30:00 PM 12.01 53.618 9.144 7.92 2.29 10.82
4/29/2023 4:45:00 PM 12.03 53.654 8.989 7.84 2.27 10.69
4/29/2023 5:00:00 PM 12.05 53.69 9.242 7.81 2.53 10.56
4/29/2023 5:15:00 PM 12.06 53.708 9.047 7.75 2.8 10.46
4/29/2023 5:30:00 PM 12.08 53.744 8.784 7.7 2.49 10.39
4/29/2023 5:45:00 PM 12.09 53.762 8.911 7.66 2.4 10.3
4/29/2023 6:00:00 PM 12.11 53.798 8.989 7.65 2.47 10.27
4/29/2023 6:15:00 PM 12.13 53.834 9.447 7.62 4.45 10.2
4/29/2023 6:30:00 PM 12.14 53.852 9.069 7.58 2.59 10.13
4/29/2023 6:45:00 PM 12.15 53.87 9.424 7.53 4.55 10.01
4/29/2023 7:00:00 PM 12.15 53.87 8.905 7.5 2.38 9.91
4/29/2023 7:15:00 PM 12.15 53.87 9.016 7.47 2.53 9.82
4/29/2023 7:30:00 PM 12.14 53.852 9.159 7.43 2.75 9.72
4/29/2023 7:45:00 PM 12.14 53.852 9.101 7.4 2.7 9.62
4/29/2023 8:00:00 PM 12.13 53.834 8.873 7.37 3.1 9.56
4/29/2023 8:15:00 PM 12.11 53.798 8.757 7.34 2.96 9.5
4/29/2023 8:30:00 PM 12.09 53.762 8.992 7.31 2.98 9.45
4/29/2023 8:45:00 PM 12.06 53.708 9.392 7.3 4.93 9.41
4/29/2023 9:00:00 PM 12.03 53.654 9.013 7.28 2.88 9.4
4/29/2023 9:15:00 PM 12 53.6 8.944 7.28 2.87 9.39
4/29/2023 9:30:00 PM 11.96 53.528 0.296 7.44 5.79 9.66
4/29/2023 9:45:00 PM 11.93 53.474 0.43 7.47 2.74 9.67
4/29/2023 10:00:00 PM 11.9 53.42 0.767 7.45 3.2 9.65
4/29/2023 10:15:00 PM 11.87 53.366 0.568 7.45 2.68 9.67
4/29/2023 10:30:00 PM 11.83 53.294 0.781 7.44 3.03 9.66
4/29/2023 10:45:00 PM 11.8 53.24 0.65 7.43 8.93 9.64
4/29/2023 11:00:00 PM 11.78 53.204 0.838 7.41 3.61 9.66
4/29/2023 11:15:00 PM 11.76 53.168 0.89 7.41 2.88 9.67
4/29/2023 11:30:00 PM 11.74 53.132 0.748 7.42 2.92 9.67
4/29/2023 11:45:00 PM 11.71 53.078 0.654 7.42 3.09 9.68
4/30/2023 12:00:00 AM 11.69 53.042 0.848 7.41 3.21 9.68
4/30/2023 12:15:00 AM 11.65 52.97 0.911 7.41 2.68 9.67
4/30/2023 12:30:00 AM 11.63 52.934 0.981 7.36 2.75 9.69
4/30/2023 12:45:00 AM 11.6 52.88 1.002 7.4 2.9 9.68
4/30/2023 1:00:00 AM 11.58 52.844 1.095 7.4 2.96 9.69
4/30/2023 1:15:00 AM 11.57 52.826 1.133 7.37 2.88 9.7
4/30/2023 1:30:00 AM 11.55 52.79 0.855 7.4 2.58 9.7
4/30/2023 1:45:00 AM 11.54 52.772 1.122 7.37 2.96 9.7
4/30/2023 2:00:00 AM 11.52 52.736 1.122 7.38 2.74 9.69
4/30/2023 2:15:00 AM 11.5 52.7 1.176 7.38 2.71 9.71
4/30/2023 2:30:00 AM 11.49 52.682 1.201 7.38 2.85 9.7
4/30/2023 2:45:00 AM 11.47 52.646 1.268 7.37 3.3 9.71
4/30/2023 3:00:00 AM 11.46 52.628 1.279 7.38 2.72 9.72
4/30/2023 3:15:00 AM 11.43 52.574 1.275 7.38 3.09 9.72
4/30/2023 3:30:00 AM 11.42 52.556 10.024 7.12 2.92 9.45
4/30/2023 3:45:00 AM 11.4 52.52 9.971 7.16 3.77 9.46
4/30/2023 4:00:00 AM 11.37 52.466 9.677 7.15 6.13 9.48
4/30/2023 4:15:00 AM 11.34 52.412 9.727 7.16 5.83 9.49
4/30/2023 4:30:00 AM 11.3 52.34 9.898 7.13 8.17 9.5
4/30/2023 4:45:00 AM 11.26 52.268 10.083 7.14 12.19 9.5
4/30/2023 5:00:00 AM 11.22 52.196 9.667 7.15 12.44 9.52
4/30/2023 5:15:00 AM 11.17 52.106 10.326 7.12 11.45 9.5
4/30/2023 5:30:00 AM 11.13 52.034 10.139 7.15 10.1 9.52
4/30/2023 5:45:00 AM 11.1 51.98 9.813 7.15 11.77 9.54
4/30/2023 6:00:00 AM 11.07 51.926 10.138 7.15 15.55 9.53
4/30/2023 6:15:00 AM 11.03 51.854 10.506 7.14 4.62 9.54
4/30/2023 6:30:00 AM 10.98 51.764 9.891 7.15 27.08 9.6
4/30/2023 6:45:00 AM 10.93 51.674 10.395 7.16 42.22 9.59
4/30/2023 7:00:00 AM 10.87 51.566 9.919 7.15 35.4 9.63
4/30/2023 7:15:00 AM 10.8 51.44 9.717 7.14 38.66 9.67
4/30/2023 7:30:00 AM 10.73 51.314 9.729 7.14 46.56 9.7
4/30/2023 7:45:00 AM 10.64 51.152 9.653 7.1 53.57 9.74
4/30/2023 8:00:00 AM 10.57 51.026 9.757 7.12 70.05 9.76
4/30/2023 8:15:00 AM 10.55 50.99 8.791 7.14 70.92 9.81
4/30/2023 8:30:00 AM 10.59 51.062 10.063 7.12 73.36 9.79
4/30/2023 8:45:00 AM 10.62 51.116 10.012 7.14 56.81 9.81
4/30/2023 9:00:00 AM 10.67 51.206 10.494 7.14 49.2 9.82
4/30/2023 9:15:00 AM 10.73 51.314 6.395 7.25 50.93 9.99
4/30/2023 9:30:00 AM 10.78 51.404 6.006 7.26 43.2 10.02
4/30/2023 9:45:00 AM 10.84 51.512 6.653 7.26 39.54 10.01
4/30/2023 10:00:00 AM 10.89 51.602 6.29 7.27 37.36 10.02
4/30/2023 10:15:00 AM 10.97 51.746 5.965 7.28 34.99 10.04
4/30/2023 10:30:00 AM 11.06 51.908 7.893 7.24 31.92 9.97
4/30/2023 10:45:00 AM 11.13 52.034 5.492 7.3 34.98 10.05
4/30/2023 11:00:00 AM 11.21 52.178 5.229 7.3 28.61 10.05
4/30/2023 11:15:00 AM 11.28 52.304 8.402 7.23 25.59 9.92
4/30/2023 11:30:00 AM 11.34 52.412 8.238 7.26 24.8 9.91
4/30/2023 11:45:00 AM 11.4 52.52 8.247 7.26 19.59 9.9
4/30/2023 12:00:00 PM 11.47 52.646 8.242 7.24 24.2 9.89
4/30/2023 12:15:00 PM 11.52 52.736 8.276 7.27 30.88 9.88
4/30/2023 12:30:00 PM 11.56 52.808 7.923 7.27 23.48 9.88
4/30/2023 12:45:00 PM 11.6 52.88 8.033 7.24 25.78 9.86
4/30/2023 1:00:00 PM 11.64 52.952 7.134 7.28 25.79 9.88
4/30/2023 1:15:00 PM 11.67 53.006 1.451 7.43 20.12 10.07
4/30/2023 1:30:00 PM 11.71 53.078 2.026 7.4 28.16 10.06
4/30/2023 1:45:00 PM 11.74 53.132 5.18 7.31 28.23 9.93
4/30/2023 2:00:00 PM 11.77 53.186 5.152 7.34 38.23 9.94
4/30/2023 2:15:00 PM 11.8 53.24 5.169 7.32 24.17 9.92
4/30/2023 2:30:00 PM 11.81 53.258 5.423 7.33 28.92 9.9
4/30/2023 2:45:00 PM 11.82 53.276 5.313 7.33 26.45 9.9
4/30/2023 3:00:00 PM 11.83 53.294 5.286 7.32 22.06 9.89
4/30/2023 3:15:00 PM 11.84 53.312 5.105 7.34 27.21 9.89
4/30/2023 3:30:00 PM 11.85 53.33 5.092 7.33 21.57 9.88
4/30/2023 3:45:00 PM 11.87 53.366 4.45 7.35 25.55 9.9
4/30/2023 4:00:00 PM 11.88 53.384 6.715 7.27 23.71 9.81
4/30/2023 4:15:00 PM 11.9 53.42 6.499 7.3 23.49 9.81
4/30/2023 4:30:00 PM 11.93 53.474 6.288 7.3 23.34 9.8
4/30/2023 4:45:00 PM 11.96 53.528 6.318 7.3 23.87 9.8
4/30/2023 5:00:00 PM 11.99 53.582 5.64 7.32 17.27 9.82
4/30/2023 5:15:00 PM 12.03 53.654 7.904 7.25 32 9.74
4/30/2023 5:30:00 PM 12.06 53.708 7.957 7.25 18.6 9.72
4/30/2023 5:45:00 PM 12.08 53.744 7.58 7.27 20.67 9.71
4/30/2023 6:00:00 PM 12.1 53.78 5.712 7.32 19.5 9.76
4/30/2023 6:15:00 PM 12.11 53.798 6.338 7.31 18.65 9.72
4/30/2023 6:30:00 PM 12.12 53.816 0.387 7.48 19.22 9.92
4/30/2023 6:45:00 PM 12.12 53.816 1.922 7.43 19.14 9.85
4/30/2023 7:00:00 PM 12.12 53.816 2.065 7.42 18.1 9.82
4/30/2023 7:15:00 PM 12.11 53.798 2.453 7.4 17.3 9.8
4/30/2023 7:30:00 PM 12.1 53.78 2.293 7.36 17.7 9.79
4/30/2023 7:45:00 PM 12.1 53.78 2.135 7.39 21.98 9.79
4/30/2023 8:00:00 PM 12.08 53.744 2.185 7.39 26.62 9.79
4/30/2023 8:15:00 PM 12.04 53.672 1.9 7.37 50.05 9.81
4/30/2023 8:30:00 PM 11.97 53.546 1.995 7.34 67.84 9.82
4/30/2023 8:45:00 PM 11.9 53.42 2.496 7.27 73.83 9.81
4/30/2023 9:00:00 PM 11.8 53.24 2.709 7.23 111.66 9.82
4/30/2023 9:15:00 PM 11.7 53.06 2.381 7.21 170.12 9.84
4/30/2023 9:30:00 PM 11.6 52.88 2.386 7.16 217.93 9.86
4/30/2023 9:45:00 PM 11.51 52.718 2.196 7.11 270.93 9.9
4/30/2023 10:00:00 PM 11.45 52.61 2.19 7.05 294.38 9.93
4/30/2023 10:15:00 PM 11.39 52.502 2.155 7.06 426.43 9.95
4/30/2023 10:30:00 PM 11.36 52.448 2.122 7.06 7392.49 9.99
4/30/2023 10:45:00 PM 11.31 52.358 2.201 7.01 239.67 10.02
4/30/2023 11:00:00 PM 11.23 52.214 2.231 7.01 221.16 10.04
4/30/2023 11:15:00 PM 11.13 52.034 2.139 7 223.6 10.08
4/30/2023 11:30:00 PM 11.02 51.836 2.225 7.01 211.12 10.11
4/30/2023 11:45:00 PM 10.93 51.674 2.062 7.01 190.93 10.14
5/1/2023 12:00:00 AM 10.86 51.548 1.953 7.01 181.15 10.17
5/1/2023 12:15:00 AM 10.8 51.44 3.063 6.93 158.42 10.15
5/1/2023 12:30:00 AM 10.74 51.332 3.376 6.95 150.32 10.17
5/1/2023 12:45:00 AM 10.67 51.206 2.686 6.98 131.61 10.23
5/1/2023 1:00:00 AM 10.61 51.098 3.773 6.94 125.82 10.21
5/1/2023 1:15:00 AM 10.52 50.936 3.111 6.96 116.83 10.27
5/1/2023 1:30:00 AM 10.44 50.792 3.576 6.92 104.52 10.28
5/1/2023 1:45:00 AM 10.38 50.684 1.605 7.02 101.22 10.39
5/1/2023 2:00:00 AM 10.33 50.594 2.951 6.97 93.41 10.36
5/1/2023 2:15:00 AM 10.29 50.522 3.199 6.97 91.53 10.36
5/1/2023 2:30:00 AM 10.26 50.468 3.508 6.95 84.46 10.36
5/1/2023 2:45:00 AM 10.26 50.468 3.563 6.94 76.89 10.36
5/1/2023 3:00:00 AM 10.29 50.522 3.568 6.96 74.39 10.36
5/1/2023 3:15:00 AM 10.34 50.612 1.504 7.03 68.5 10.44
5/1/2023 3:30:00 AM 10.39 50.702 1.439 7.05 64.77 10.44
5/1/2023 3:45:00 AM 10.43 50.774 1.506 7.06 63 10.43
5/1/2023 4:00:00 AM 10.45 50.81 1.63 7.06 59.33 10.42
5/1/2023 4:15:00 AM 10.48 50.864 4.721 6.97 55.43 10.3
5/1/2023 4:30:00 AM 10.5 50.9 3.98 7.02 53.4 10.33
5/1/2023 4:45:00 AM 10.52 50.936 3.732 7.02 48.38 10.34
5/1/2023 5:00:00 AM 10.54 50.972 3.543 7.02 45.49 10.34
5/1/2023 5:15:00 AM 10.56 51.008 3.396 7.03 43.95 10.34
5/1/2023 5:30:00 AM 10.58 51.044 1.01 7.12 40.24 10.42
5/1/2023 5:45:00 AM 10.58 51.044 2.582 7.06 40.05 10.37
5/1/2023 6:00:00 AM 10.58 51.044 3.336 7.05 34.54 10.35
5/1/2023 6:15:00 AM 10.57 51.026 3.019 7.07 35.45 10.36
5/1/2023 6:30:00 AM 10.57 51.026 2.947 7.08 33.73 10.37
5/1/2023 6:45:00 AM 10.57 51.026 4.621 7.01 34.52 10.31
5/1/2023 7:00:00 AM 10.57 51.026 4.568 7.02 34.47 10.31
5/1/2023 7:15:00 AM 10.57 51.026 4.972 7.03 33.59 10.3
5/1/2023 7:30:00 AM 10.58 51.044 4.863 7.03 33.22 10.31
5/1/2023 7:45:00 AM 10.58 51.044 4.87 7.03 32.73 10.31
5/1/2023 8:00:00 AM 10.6 51.08 4.901 7.03 32.03 10.32
5/1/2023 8:15:00 AM 10.61 51.098 4.839 7.03 35.81 10.32
5/1/2023 8:30:00 AM 10.64 51.152 4.871 7.04 32.84 10.32
5/1/2023 8:45:00 AM 10.65 51.17 4.652 7.04 30.72 10.33
5/1/2023 9:00:00 AM 10.68 51.224 4.652 7.05 31.47 10.33
5/1/2023 9:15:00 AM 10.71 51.278 4.445 7.05 30.26 10.34
5/1/2023 9:30:00 AM 10.75 51.35 4.245 7.06 29.21 10.34
5/1/2023 9:45:00 AM 10.78 51.404 4.084 7.07 29.07 10.35
5/1/2023 10:00:00 AM 10.82 51.476 4.09 7.08 28.08 10.36
5/1/2023 10:15:00 AM 10.88 51.584 4.026 7.08 28.43 10.36
5/1/2023 10:30:00 AM 10.87 51.566 3.902 7.08 27.42 10.36
5/1/2023 10:45:00 AM 10.89 51.602 3.86 7.09 26.94 10.36
5/1/2023 11:00:00 AM 10.89 51.602 3.825 7.09 26.56 10.35
5/1/2023 11:15:00 AM 10.93 51.674 3.943 7.08 25.97 10.34
5/1/2023 11:30:00 AM 10.99 51.782 3.996 7.1 22.64 10.34
5/1/2023 11:45:00 AM 10.97 51.746 3.835 7.1 24.98 10.34
5/1/2023 12:00:00 PM 11.04 51.872 3.719 7.12 25.55 10.34
5/1/2023 12:15:00 PM 11.11 51.998 3.788 7.12 24.04 10.33
5/1/2023 12:30:00 PM 11.1 51.98 3.893 7.13 24.62 10.32
5/1/2023 12:45:00 PM 11.09 51.962 3.869 7.12 24.22 10.32
5/1/2023 1:00:00 PM 11.11 51.998 3.671 7.15 24.82 10.32
5/1/2023 1:15:00 PM 11.15 52.07 3.77 7.14 22.94 10.31
5/1/2023 1:30:00 PM 11.15 52.07 3.722 7.15 23.36 10.31
5/1/2023 1:45:00 PM 11.15 52.07 3.827 7.15 23.19 10.31
5/1/2023 2:00:00 PM 11.15 52.07 3.799 7.12 22.08 10.31
5/1/2023 2:15:00 PM 11.18 52.124 3.809 7.13 23 10.3
5/1/2023 2:30:00 PM 11.21 52.178 4.005 7.12 21.49 10.27
5/1/2023 2:45:00 PM 11.19 52.142 4.271 7.12 21.5 10.26
5/1/2023 3:00:00 PM 11.24 52.232 4.387 7.11 21.74 10.26
5/1/2023 3:15:00 PM 11.27 52.286 4.319 7.12 21.02 10.24
5/1/2023 3:30:00 PM 11.25 52.25 4.32 7.12 22.08 10.23
5/1/2023 3:45:00 PM 11.15 52.07 4.318 7.13 21.53 10.22
5/1/2023 4:00:00 PM 11.13 52.034 4.355 7.1 22.43 10.21
5/1/2023 4:15:00 PM 11.13 52.034 4.322 7.11 22.64 10.21
5/1/2023 4:30:00 PM 11.13 52.034 4.337 7.11 21.75 10.22
5/1/2023 4:45:00 PM 11.1 51.98 4.261 7.12 22.54 10.23
5/1/2023 5:00:00 PM 11.09 51.962 3.983 7.12 21.58 10.24
5/1/2023 5:15:00 PM 11.1 51.98 3.958 7.13 21.7 10.24
5/1/2023 5:30:00 PM 11.13 52.034 3.977 7.12 22.49 10.24
5/1/2023 5:45:00 PM 11.12 52.016 3.946 7.11 21.04 10.24
5/1/2023 6:00:00 PM 11.09 51.962 3.937 7.12 22 10.23
5/1/2023 6:15:00 PM 11.06 51.908 3.881 7.09 22.45 10.24
5/1/2023 6:30:00 PM 11.04 51.872 3.818 7.12 21.95 10.24
5/1/2023 6:45:00 PM 11.01 51.818 3.762 7.12 22.51 10.23
5/1/2023 7:00:00 PM 10.98 51.764 3.815 7.1 22.35 10.23
5/1/2023 7:15:00 PM 10.95 51.71 3.782 7.1 21.28 10.22
5/1/2023 7:30:00 PM 10.93 51.674 3.81 7.11 21.4 10.22
5/1/2023 7:45:00 PM 10.92 51.656 3.816 7.11 21.86 10.22
5/1/2023 8:00:00 PM 10.9 51.62 3.823 7.1 21.26 10.21
5/1/2023 8:15:00 PM 10.89 51.602 3.807 7.1 21.75 10.21
5/1/2023 8:30:00 PM 10.88 51.584 3.741 7.09 21.21 10.22
5/1/2023 8:45:00 PM 10.87 51.566 3.729 7.11 21.54 10.22
5/1/2023 9:00:00 PM 10.86 51.548 3.697 7.09 22.15 10.22
5/1/2023 9:15:00 PM 10.85 51.53 3.639 7.1 22.09 10.23
5/1/2023 9:30:00 PM 10.84 51.512 3.677 7.1 21.62 10.23
5/1/2023 9:45:00 PM 10.82 51.476 3.701 7.1 20.91 10.23
5/1/2023 10:00:00 PM 10.81 51.458 3.736 7.1 21.16 10.23
5/1/2023 10:15:00 PM 10.8 51.44 3.688 7.08 20.71 10.24
5/1/2023 10:30:00 PM 10.78 51.404 3.661 7.11 20.54 10.24
5/1/2023 10:45:00 PM 10.75 51.35 3.631 7.1 21.57 10.25
5/1/2023 11:00:00 PM 10.72 51.296 3.587 7.1 20.76 10.26
5/1/2023 11:15:00 PM 10.69 51.242 3.563 7.1 17.88 10.26
5/1/2023 11:30:00 PM 10.67 51.206 3.511 7.11 20.55 10.27
5/1/2023 11:45:00 PM 10.65 51.17 3.409 7.11 20.61 10.28
5/2/2023 12:00:00 AM 10.64 51.152 3.511 7.1 20.14 10.27
5/2/2023 12:15:00 AM 10.62 51.116 3.379 7.1 20.3 10.28
5/2/2023 12:30:00 AM 10.59 51.062 3.39 7.1 20.39 10.28
5/2/2023 12:45:00 AM 10.57 51.026 3.471 7.1 20.62 10.28
5/2/2023 1:00:00 AM 10.56 51.008 3.432 7.1 20.93 10.29
5/2/2023 1:15:00 AM 10.54 50.972 3.466 7.11 21.1 10.28
5/2/2023 1:30:00 AM 10.53 50.954 3.504 7.11 18.45 10.28
5/2/2023 1:45:00 AM 10.52 50.936 3.47 7.1 21.37 10.28
5/2/2023 2:00:00 AM 10.51 50.918 3.466 7.11 20.35 10.29
5/2/2023 2:15:00 AM 10.5 50.9 3.434 7.08 19.73 10.29
5/2/2023 2:30:00 AM 10.49 50.882 3.708 7.1 19.73 10.28
5/2/2023 2:45:00 AM 10.48 50.864 3.662 7.07 20.4 10.29
5/2/2023 3:00:00 AM 10.45 50.81 3.679 7.09 20.31 10.29
5/2/2023 3:15:00 AM 10.44 50.792 3.62 7.1 21.05 10.29
5/2/2023 3:30:00 AM 10.42 50.756 3.598 7.11 20.22 10.3
5/2/2023 3:45:00 AM 10.4 50.72 3.521 7.11 20.22 10.3
5/2/2023 4:00:00 AM 10.39 50.702 3.629 7.11 20.07 10.3
5/2/2023 4:15:00 AM 10.38 50.684 3.572 7.09 19.55 10.31
5/2/2023 4:30:00 AM 10.37 50.666 3.56 7.11 19.95 10.31
5/2/2023 4:45:00 AM 10.36 50.648 3.528 7.1 19.39 10.32
5/2/2023 5:00:00 AM 10.34 50.612 3.498 7.1 21.38 10.32
5/2/2023 5:15:00 AM 10.33 50.594 3.591 7.11 18.88 10.32
5/2/2023 5:30:00 AM 10.31 50.558 3.525 7.08 19.19 10.33
5/2/2023 5:45:00 AM 10.29 50.522 3.485 7.11 19.76 10.33
5/2/2023 6:00:00 AM 10.28 50.504 3.459 7.1 19.2 10.33
5/2/2023 6:15:00 AM 10.26 50.468 3.469 7.1 19.6 10.34
5/2/2023 6:30:00 AM 10.24 50.432 3.456 7.1 19.73 10.35
5/2/2023 6:45:00 AM 10.23 50.414 3.446 7.09 21.02 10.36
5/2/2023 7:00:00 AM 10.21 50.378 3.416 7.11 19.3 10.37
5/2/2023 7:15:00 AM 10.21 50.378 3.415 7.09 19.39 10.37
5/2/2023 7:30:00 AM 10.21 50.378 3.438 7.1 19.16 10.38
5/2/2023 7:45:00 AM 10.21 50.378 3.43 7.1 19.01 10.38
5/2/2023 8:00:00 AM 10.21 50.378 3.396 7.12 19.09 10.4
5/2/2023 8:15:00 AM 10.22 50.396 3.418 7.12 19.66 10.4
5/2/2023 8:30:00 AM 10.24 50.432 3.412 7.12 18.64 10.41
5/2/2023 8:45:00 AM 10.25 50.45 3.372 7.12 18.83 10.42
5/2/2023 9:00:00 AM 10.27 50.486 3.412 7.1 17.98 10.42
5/2/2023 9:15:00 AM 10.29 50.522 3.397 7.12 18.91 10.43
5/2/2023 9:30:00 AM 10.31 50.558 3.395 7.13 18.65 10.43
5/2/2023 9:45:00 AM 10.34 50.612 3.363 7.13 18.42 10.43
5/2/2023 10:00:00 AM 10.35 50.63 3.354 7.13 18.5 10.43
5/2/2023 10:15:00 AM 10.39 50.702 3.402 7.13 17.72 10.43
5/2/2023 10:30:00 AM 10.45 50.81 3.397 7.12 17.85 10.42
5/2/2023 10:45:00 AM 10.57 51.026 3.364 7.14 18.59 10.42
5/2/2023 11:00:00 AM 10.65 51.17 3.354 7.15 18.48 10.42
5/2/2023 11:15:00 AM 10.69 51.242 3.434 7.15 18.46 10.41
5/2/2023 11:30:00 AM 10.76 51.368 3.388 7.15 18.02 10.4
5/2/2023 11:45:00 AM 10.81 51.458 3.42 7.15 18.13 10.4
5/2/2023 12:00:00 PM 10.8 51.44 3.428 7.14 17.56 10.38
5/2/2023 12:15:00 PM 10.86 51.548 3.404 7.15 18.36 10.38
5/2/2023 12:30:00 PM 10.92 51.656 3.409 7.16 18.37 10.36
5/2/2023 12:45:00 PM 10.89 51.602 3.401 7.16 18.7 10.34
5/2/2023 1:00:00 PM 10.95 51.71 3.406 7.16 18.32 10.34
5/2/2023 1:15:00 PM 10.95 51.71 3.396 7.15 18.6 10.34
5/2/2023 1:30:00 PM 10.92 51.656 3.387 7.16 17.97 10.34
5/2/2023 1:45:00 PM 10.92 51.656 3.387 7.15 18.91 10.34
5/2/2023 2:00:00 PM 10.96 51.728 3.41 7.16 17.87 10.33
5/2/2023 2:15:00 PM 10.94 51.692 3.421 7.17 18.33 10.33
5/2/2023 2:30:00 PM 10.92 51.656 3.402 7.15 18.12 10.32
5/2/2023 2:45:00 PM 10.91 51.638 3.418 7.16 18.75 10.32
5/2/2023 3:00:00 PM 10.92 51.656 3.421 7.16 17.7 10.32
5/2/2023 3:15:00 PM 10.89 51.602 3.418 7.15 18.85 10.33
5/2/2023 3:30:00 PM 10.83 51.494 3.426 7.16 18.45 10.33
5/2/2023 3:45:00 PM 10.79 51.422 3.437 7.16 18.79 10.31
5/2/2023 4:00:00 PM 10.75 51.35 3.421 7.12 17.89 10.31
5/2/2023 4:15:00 PM 10.74 51.332 3.414 7.14 18.1 10.32
5/2/2023 4:30:00 PM 10.73 51.314 3.414 7.14 17.65 10.32
5/2/2023 4:45:00 PM 10.7 51.26 3.427 7.15 18.16 10.32
5/2/2023 5:00:00 PM 10.67 51.206 3.431 7.14 17.58 10.32
5/2/2023 5:15:00 PM 10.66 51.188 3.453 7.14 17.33 10.31
5/2/2023 5:30:00 PM 10.67 51.206 3.455 7.15 17.25 10.32
5/2/2023 5:45:00 PM 10.65 51.17 3.467 7.13 17.25 10.33
5/2/2023 6:00:00 PM 10.63 51.134 3.459 7.13 17.19 10.32
5/2/2023 6:15:00 PM 10.61 51.098 3.424 7.13 17.77 10.32
5/2/2023 6:30:00 PM 10.6 51.08 3.434 7.14 17.34 10.31
5/2/2023 6:45:00 PM 10.6 51.08 3.433 7.12 17.21 10.31
5/2/2023 7:00:00 PM 10.58 51.044 3.359 7.14 17.55 10.32
5/2/2023 7:15:00 PM 10.56 51.008 2.774 7.13 17.22 10.34
5/2/2023 7:30:00 PM 10.54 50.972 2.925 7.16 16.76 10.33
5/2/2023 7:45:00 PM 10.51 50.918 3.216 7.13 16.8 10.31
5/2/2023 8:00:00 PM 10.49 50.882 3.072 7.15 17.45 10.31
5/2/2023 8:15:00 PM 10.46 50.828 2.989 7.13 17.84 10.32
5/2/2023 8:30:00 PM 10.43 50.774 3.005 7.15 17.6 10.32
5/2/2023 8:45:00 PM 10.4 50.72 3.038 7.12 17.1 10.33
5/2/2023 9:00:00 PM 10.38 50.684 3.102 7.13 17.39 10.33
5/2/2023 9:15:00 PM 10.35 50.63 3.062 7.14 17.77 10.33
5/2/2023 9:30:00 PM 10.34 50.612 2.964 7.12 17.32 10.34
5/2/2023 9:45:00 PM 10.34 50.612 3.056 7.13 16.83 10.34
5/2/2023 10:00:00 PM 10.33 50.594 3.068 7.13 17.01 10.34
5/2/2023 10:15:00 PM 10.32 50.576 3.077 7.13 17.38 10.34
5/2/2023 10:30:00 PM 10.3 50.54 3.063 7.14 17.09 10.35
5/2/2023 10:45:00 PM 10.29 50.522 3.073 7.14 16.13 10.34
5/2/2023 11:00:00 PM 10.29 50.522 3.089 7.14 16.66 10.34
5/2/2023 11:15:00 PM 10.28 50.504 3.078 7.13 16.16 10.35
5/2/2023 11:30:00 PM 10.27 50.486 3.036 7.14 16.88 10.36
5/2/2023 11:45:00 PM 10.25 50.45 3.027 7.14 16.21 10.35
5/3/2023 12:00:00 AM 10.24 50.432 3.022 7.14 16.33 10.36
5/3/2023 12:15:00 AM 10.22 50.396 3.001 7.14 16.22 10.36
5/3/2023 12:30:00 AM 10.21 50.378 2.987 7.12 16.67 10.37
5/3/2023 12:45:00 AM 10.19 50.342 3.08 7.14 16.05 10.36
5/3/2023 1:00:00 AM 10.17 50.306 3.025 7.14 15.92 10.37
5/3/2023 1:15:00 AM 10.16 50.288 2.968 7.14 15.59 10.37
5/3/2023 1:30:00 AM 10.15 50.27 3.013 7.11 16.6 10.37
5/3/2023 1:45:00 AM 10.13 50.234 3.012 7.15 16.17 10.38
5/3/2023 2:00:00 AM 10.12 50.216 3.023 7.12 15.98 10.38
5/3/2023 2:15:00 AM 10.11 50.198 2.99 7.14 16.12 10.38
5/3/2023 2:30:00 AM 10.1 50.18 2.956 7.14 15.53 10.38
5/3/2023 2:45:00 AM 10.1 50.18 2.969 7.15 16.26 10.38
5/3/2023 3:00:00 AM 10.09 50.162 2.962 7.14 15.96 10.38
5/3/2023 3:15:00 AM 10.08 50.144 2.913 7.13 16.14 10.39
5/3/2023 3:30:00 AM 10.08 50.144 2.924 7.15 15.35 10.38
5/3/2023 3:45:00 AM 10.07 50.126 2.939 7.13 15.95 10.39
5/3/2023 4:00:00 AM 10.06 50.108 2.932 7.15 16.73 10.39
5/3/2023 4:15:00 AM 10.05 50.09 2.918 7.16 15.77 10.39
5/3/2023 4:30:00 AM 10.04 50.072 2.915 7.12 16.07 10.39
5/3/2023 4:45:00 AM 10.02 50.036 2.845 7.16 15.18 10.39
5/3/2023 5:00:00 AM 10.01 50.018 2.836 7.13 16 10.4
5/3/2023 5:15:00 AM 10 50 2.824 7.15 15.27 10.4
5/3/2023 5:30:00 AM 9.99 49.982 2.808 7.15 15.33 10.41
5/3/2023 5:45:00 AM 9.98 49.964 2.802 7.13 15.2 10.41
5/3/2023 6:00:00 AM 9.97 49.946 2.774 7.15 15.45 10.42
5/3/2023 6:15:00 AM 9.96 49.928 2.75 7.16 14.97 10.42
5/3/2023 6:30:00 AM 9.96 49.928 2.673 7.14 15.1 10.43
5/3/2023 6:45:00 AM 9.95 49.91 2.572 7.16 15.46 10.44
5/3/2023 7:00:00 AM 9.94 49.892 2.179 7.18 15.5 10.46
5/3/2023 7:15:00 AM 9.93 49.874 1.989 7.2 15.4 10.48
5/3/2023 7:30:00 AM 9.93 49.874 2.168 7.18 14.85 10.49
5/3/2023 7:45:00 AM 9.93 49.874 2.251 7.18 14.01 10.5
5/3/2023 8:00:00 AM 9.94 49.892 2.207 7.19 13.8 10.51
5/3/2023 8:15:00 AM 9.96 49.928 2.239 7.19 14.19 10.52
5/3/2023 8:30:00 AM 9.98 49.964 2.207 7.2 14.89 10.54
5/3/2023 8:45:00 AM 10.02 50.036 2.251 7.21 14.32 10.54
5/3/2023 9:00:00 AM 10.07 50.126 2.251 7.2 15.03 10.55
5/3/2023 9:15:00 AM 10.09 50.162 2.259 7.22 14.57 10.55
5/3/2023 9:30:00 AM 10.16 50.288 1.533 7.26 14.55 10.58
5/3/2023 9:45:00 AM 10.23 50.414 1.497 7.24 14.21 10.59
5/3/2023 10:00:00 AM 10.32 50.576 1.514 7.27 13.94 10.6
5/3/2023 10:15:00 AM 10.41 50.738 1.568 7.25 13.95 10.59
5/3/2023 10:30:00 AM 10.44 50.792 1.557 7.27 13.76 10.59
5/3/2023 10:45:00 AM 10.51 50.918 1.446 7.29 14.03 10.58
5/3/2023 11:00:00 AM 10.64 51.152 1.498 7.28 13.65 10.56
5/3/2023 11:15:00 AM 10.74 51.332 1.41 7.3 14.56 10.56
5/3/2023 11:30:00 AM 10.75 51.35 1.351 7.29 13.44 10.54
5/3/2023 11:45:00 AM 10.74 51.332 1.279 7.29 13.03 10.53
5/3/2023 12:00:00 PM 10.76 51.368 1.309 7.31 13.1 10.52
5/3/2023 12:15:00 PM 10.81 51.458 1.344 7.27 13.23 10.5
5/3/2023 12:30:00 PM 10.84 51.512 1.347 7.29 12.92 10.49
5/3/2023 12:45:00 PM 10.84 51.512 1.321 7.31 12.93 10.48
5/3/2023 1:00:00 PM 10.84 51.512 1.363 7.3 13.91 10.48
5/3/2023 1:15:00 PM 10.91 51.638 1.36 7.31 12.95 10.49
5/3/2023 1:30:00 PM 10.88 51.584 1.361 7.32 13.02 10.49
5/3/2023 1:45:00 PM 10.8 51.44 1.35 7.32 12.9 10.49
5/3/2023 2:00:00 PM 10.74 51.332 1.36 7.29 12.48 10.49
5/3/2023 2:15:00 PM 10.58 51.044 1.394 7.3 13.08 10.47
5/3/2023 2:30:00 PM 10.53 50.954 1.405 7.3 12.29 10.47
5/3/2023 2:45:00 PM 10.56 51.008 1.407 7.29 13.79 10.47
5/3/2023 3:00:00 PM 10.59 51.062 1.401 7.29 12.9 10.47
5/3/2023 3:15:00 PM 10.6 51.08 1.4 7.26 12.02 10.48
5/3/2023 3:30:00 PM 10.61 51.098 1.406 7.29 12.35 10.49
5/3/2023 3:45:00 PM 10.63 51.134 1.402 7.29 12.6 10.49
5/3/2023 4:00:00 PM 10.67 51.206 1.39 7.3 12.79 10.5
5/3/2023 4:15:00 PM 10.7 51.26 1.383 7.26 12.58 10.5
5/3/2023 4:30:00 PM 10.66 51.188 1.387 7.29 12.77 10.48
5/3/2023 4:45:00 PM 10.64 51.152 1.399 7.29 12.64 10.47
5/3/2023 5:00:00 PM 10.65 51.17 1.407 7.29 12.66 10.47
5/3/2023 5:15:00 PM 10.66 51.188 1.407 7.26 13.55 10.47
5/3/2023 5:30:00 PM 10.67 51.206 1.349 7.29 12.8 10.47
5/3/2023 5:45:00 PM 10.68 51.224 1.373 7.3 12.98 10.46
5/3/2023 6:00:00 PM 10.69 51.242 1.349 7.26 12.59 10.46
5/3/2023 6:15:00 PM 10.67 51.206 1.406 7.29 12.52 10.46
5/3/2023 6:30:00 PM 10.65 51.17 1.443 7.27 12.54 10.45
5/3/2023 6:45:00 PM 10.61 51.098 1.448 7.28 11.88 10.44
5/3/2023 7:00:00 PM 10.58 51.044 1.423 7.25 13.05 10.44
5/3/2023 7:15:00 PM 10.54 50.972 1.444 7.27 11.78 10.43
5/3/2023 7:30:00 PM 10.49 50.882 1.429 7.25 12.82 10.43
5/3/2023 7:45:00 PM 10.45 50.81 1.432 7.27 11.96 10.42
5/3/2023 8:00:00 PM 10.43 50.774 1.433 7.26 11.9 10.42
5/3/2023 8:15:00 PM 10.41 50.738 1.392 7.22 12.05 10.42
5/3/2023 8:30:00 PM 10.39 50.702 1.421 7.23 12.1 10.41
5/3/2023 8:45:00 PM 10.38 50.684 1.432 7.25 12.67 10.41
5/3/2023 9:00:00 PM 10.36 50.648 1.435 7.24 12.91 10.41
5/3/2023 9:15:00 PM 10.35 50.63 1.444 7.25 12.74 10.41
5/3/2023 9:30:00 PM 10.34 50.612 1.432 7.24 12.82 10.41
5/3/2023 9:45:00 PM 10.34 50.612 1.449 7.24 12.71 10.41
5/3/2023 10:00:00 PM 10.33 50.594 1.469 7.24 13.03 10.41
5/3/2023 10:15:00 PM 10.33 50.594 1.463 7.21 13.85 10.41
5/3/2023 10:30:00 PM 10.32 50.576 1.472 7.23 12.92 10.42
5/3/2023 10:45:00 PM 10.31 50.558 1.477 7.21 13.08 10.42
5/3/2023 11:00:00 PM 10.3 50.54 1.47 7.23 12.11 10.42
5/3/2023 11:15:00 PM 10.3 50.54 1.401 7.24 12.04 10.42
5/3/2023 11:30:00 PM 10.29 50.522 1.445 7.2 12.69 10.43
5/3/2023 11:45:00 PM 10.28 50.504 1.447 7.22 12.44 10.43
5/4/2023 12:00:00 AM 10.26 50.468 1.438 7.23 12.2 10.44
5/4/2023 12:15:00 AM 10.25 50.45 1.439 7.23 12.43 10.44
5/4/2023 12:30:00 AM 10.24 50.432 1.433 7.23 11.97 10.44
5/4/2023 12:45:00 AM 10.22 50.396 1.433 7.23 11.9 10.45
5/4/2023 1:00:00 AM 10.21 50.378 1.433 7.23 12.51 10.45
5/4/2023 1:15:00 AM 10.2 50.36 1.417 7.23 11.83 10.45
5/4/2023 1:30:00 AM 10.19 50.342 1.422 7.22 12.21 10.46
5/4/2023 1:45:00 AM 10.17 50.306 1.418 7.23 12.84 10.47
5/4/2023 2:00:00 AM 10.16 50.288 1.425 7.22 11.8 10.47
5/4/2023 2:15:00 AM 10.14 50.252 1.516 7.23 11.46 10.47
5/4/2023 2:30:00 AM 10.13 50.234 1.523 7.22 11.6 10.48
5/4/2023 2:45:00 AM 10.12 50.216 1.486 7.23 12.18 10.49
5/4/2023 3:00:00 AM 10.1 50.18 1.503 7.21 11.85 10.49
5/4/2023 3:15:00 AM 10.09 50.162 1.531 7.22 11.57 10.49
5/4/2023 3:30:00 AM 10.08 50.144 1.535 7.22 12.35 10.5
5/4/2023 3:45:00 AM 10.06 50.108 1.548 7.21 11.58 10.5
5/4/2023 4:00:00 AM 10.05 50.09 1.548 7.22 12.18 10.51
5/4/2023 4:15:00 AM 10.03 50.054 1.547 7.19 11.35 10.52
5/4/2023 4:30:00 AM 10.02 50.036 1.522 7.2 11.72 10.52
5/4/2023 4:45:00 AM 10.01 50.018 1.51 7.22 11.48 10.53
5/4/2023 5:00:00 AM 9.99 49.982 1.528 7.22 11.56 10.53
5/4/2023 5:15:00 AM 9.98 49.964 1.525 7.21 11.49 10.54
5/4/2023 5:30:00 AM 9.96 49.928 1.531 7.21 11.25 10.54
5/4/2023 5:45:00 AM 9.95 49.91 1.523 7.19 11.55 10.55
5/4/2023 6:00:00 AM 9.94 49.892 1.528 7.19 11.65 10.55
5/4/2023 6:15:00 AM 9.92 49.856 1.542 7.2 11.29 10.56
5/4/2023 6:30:00 AM 9.91 49.838 1.544 7.21 11.47 10.56
5/4/2023 6:45:00 AM 9.9 49.82 1.554 7.21 11.55 10.57
5/4/2023 7:00:00 AM 9.9 49.82 1.546 7.2 11.46 10.59
5/4/2023 7:15:00 AM 9.9 49.82 1.555 7.2 11.15 10.59
5/4/2023 7:30:00 AM 9.9 49.82 1.56 7.22 11.15 10.61
5/4/2023 7:45:00 AM 9.9 49.82 1.567 7.19 10.6 10.61
5/4/2023 8:00:00 AM 9.9 49.82 1.573 7.21 10.97 10.62
5/4/2023 8:15:00 AM 9.91 49.838 1.575 7.21 10.8 10.63
5/4/2023 8:30:00 AM 9.94 49.892 1.584 7.21 10.97 10.66
5/4/2023 8:45:00 AM 9.96 49.928 1.599 7.24 10.75 10.68
5/4/2023 9:00:00 AM 10 50 1.61 7.24 11.14 10.7
5/4/2023 9:15:00 AM 10.02 50.036 1.607 7.22 10.42 10.71
5/4/2023 9:30:00 AM 10.05 50.09 1.615 7.23 11 10.71
5/4/2023 9:45:00 AM 10.1 50.18 1.622 7.24 10.36 10.73
5/4/2023 10:00:00 AM 10.16 50.288 1.62 7.25 10.19 10.74
5/4/2023 10:15:00 AM 10.22 50.396 1.619 7.26 9.99 10.75
5/4/2023 10:30:00 AM 10.25 50.45 1.625 7.25 10.49 10.74
5/4/2023 10:45:00 AM 10.3 50.54 1.615 7.28 10.23 10.75
5/4/2023 11:00:00 AM 10.33 50.594 1.626 7.28 10.36 10.73
5/4/2023 11:15:00 AM 10.37 50.666 1.623 7.28 10.18 10.74
5/4/2023 11:30:00 AM 10.44 50.792 1.629 7.29 10.44 10.74
5/4/2023 11:45:00 AM 10.52 50.936 1.634 7.28 10.29 10.75
5/4/2023 12:00:00 PM 10.62 51.116 1.633 7.3 10.08 10.74
5/4/2023 12:15:00 PM 10.66 51.188 1.618 7.3 10.28 10.71
5/4/2023 12:30:00 PM 10.66 51.188 1.637 7.3 10.44 10.67
5/4/2023 12:45:00 PM 10.65 51.17 1.64 7.29 10.38 10.64
5/4/2023 1:00:00 PM 10.71 51.278 1.633 7.28 10.35 10.64
5/4/2023 1:15:00 PM 10.87 51.566 1.623 7.28 10.24 10.65
5/4/2023 1:30:00 PM 11.02 51.836 1.626 7.31 9.97 10.66
5/4/2023 1:45:00 PM 10.99 51.782 1.625 7.29 9.89 10.65
5/4/2023 2:00:00 PM 11.01 51.818 1.635 7.32 10.67 10.64
5/4/2023 2:15:00 PM 11.06 51.908 1.658 7.32 10.23 10.63
5/4/2023 2:30:00 PM 11.16 52.088 1.764 7.29 9.74 10.62
5/4/2023 2:45:00 PM 11.38 52.484 1.833 7.33 9.99 10.62
5/4/2023 3:00:00 PM 11.6 52.88 1.916 7.32 9.67 10.59
5/4/2023 3:15:00 PM 11.58 52.844 2.139 7.33 9.78 10.56
5/4/2023 3:30:00 PM 11.5 52.7 2.535 7.32 10.14 10.53
5/4/2023 3:45:00 PM 11.54 52.772 3.176 7.27 13.59 10.49
5/4/2023 4:00:00 PM 11.57 52.826 3.133 7.3 10.15 10.47
5/4/2023 4:15:00 PM 11.63 52.934 3.275 7.3 9.73 10.46
5/4/2023 4:30:00 PM 11.69 53.042 3.445 7.28 9.86 10.45
5/4/2023 4:45:00 PM 11.63 52.934 3.514 7.28 10.13 10.42
5/4/2023 5:00:00 PM 11.59 52.862 3.532 7.28 10.4 10.41
5/4/2023 5:15:00 PM 11.58 52.844 3.669 7.28 9.49 10.39
5/4/2023 5:30:00 PM 11.6 52.88 3.761 7.26 9.69 10.38
5/4/2023 5:45:00 PM 11.57 52.826 3.776 7.26 10.2 10.37
5/4/2023 6:00:00 PM 11.54 52.772 3.728 7.27 9.8 10.36
5/4/2023 6:15:00 PM 11.43 52.574 3.735 7.24 10.11 10.33
5/4/2023 6:30:00 PM 11.36 52.448 3.713 7.24 10.11 10.33
5/4/2023 6:45:00 PM 11.31 52.358 3.61 7.24 9.81 10.32
5/4/2023 7:00:00 PM 11.25 52.25 3.666 7.23 10.45 10.32
5/4/2023 7:15:00 PM 11.21 52.178 3.694 7.23 9.71 10.31
5/4/2023 7:30:00 PM 11.17 52.106 3.705 7.22 9.49 10.3
5/4/2023 7:45:00 PM 11.13 52.034 3.662 7.21 9.77 10.29
5/4/2023 8:00:00 PM 11.07 51.926 3.338 7.22 9.89 10.29
5/4/2023 8:15:00 PM 11.03 51.854 3.452 7.21 10.3 10.28
5/4/2023 8:30:00 PM 10.99 51.782 3.465 7.19 10.09 10.28
5/4/2023 8:45:00 PM 10.95 51.71 3.486 7.2 10.26 10.29
5/4/2023 9:00:00 PM 10.91 51.638 3.476 7.19 9.63 10.29
5/4/2023 9:15:00 PM 10.87 51.566 3.452 7.15 9.82 10.3
5/4/2023 9:30:00 PM 10.81 51.458 3.471 7.17 10.09 10.31
5/4/2023 9:45:00 PM 10.76 51.368 3.519 7.17 10.26 10.31
5/4/2023 10:00:00 PM 10.72 51.296 3.541 7.15 9.92 10.32
5/4/2023 10:15:00 PM 10.69 51.242 3.503 7.15 10.17 10.32
5/4/2023 10:30:00 PM 10.66 51.188 3.461 7.16 9.9 10.33
5/4/2023 10:45:00 PM 10.64 51.152 3.501 7.12 9.65 10.34
5/4/2023 11:00:00 PM 10.62 51.116 3.489 7.15 9.98 10.34
5/4/2023 11:15:00 PM 10.6 51.08 3.508 7.14 10.26 10.34
5/4/2023 11:30:00 PM 10.58 51.044 3.508 7.15 11.25 10.35
5/4/2023 11:45:00 PM 10.55 50.99 3.455 7.11 9.97 10.35
5/5/2023 12:00:00 AM 10.52 50.936 3.467 7.14 9.7 10.36
5/5/2023 12:15:00 AM 10.51 50.918 3.467 7.12 9.77 10.37
5/5/2023 12:30:00 AM 10.53 50.954 3.472 7.12 9.21 10.36
5/5/2023 12:45:00 AM 10.57 51.026 3.396 7.14 9.16 10.35
5/5/2023 1:00:00 AM 10.59 51.062 3.425 7.14 8.83 10.33
5/5/2023 1:15:00 AM 10.59 51.062 3.341 7.12 8.91 10.34
5/5/2023 1:30:00 AM 10.57 51.026 3.335 7.12 9.46 10.35
5/5/2023 1:45:00 AM 10.53 50.954 3.352 7.12 9.31 10.36
5/5/2023 2:00:00 AM 10.48 50.864 3.36 7.12 9.41 10.38
5/5/2023 2:15:00 AM 10.43 50.774 3.355 7.12 9 10.39
5/5/2023 2:30:00 AM 10.37 50.666 3.362 7.13 8.94 10.4
5/5/2023 2:45:00 AM 10.32 50.576 3.341 7.13 9.16 10.41
5/5/2023 3:00:00 AM 10.29 50.522 3.32 7.12 9.14 10.42
5/5/2023 3:15:00 AM 10.27 50.486 3.251 7.12 8.87 10.43
5/5/2023 3:30:00 AM 10.25 50.45 3.291 7.13 8.53 10.44
5/5/2023 3:45:00 AM 10.23 50.414 3.261 7.14 8.78 10.45
5/5/2023 4:00:00 AM 10.21 50.378 3.221 7.1 8.65 10.46
5/5/2023 4:15:00 AM 10.18 50.324 3.234 7.12 8.69 10.46
5/5/2023 4:30:00 AM 10.15 50.27 3.229 7.13 8.99 10.47
5/5/2023 4:45:00 AM 10.12 50.216 3.22 7.13 8.98 10.48
5/5/2023 5:00:00 AM 10.09 50.162 3.236 7.09 8.73 10.49
5/5/2023 5:15:00 AM 10.06 50.108 3.226 7.12 9.36 10.5
5/5/2023 5:30:00 AM 10.05 50.09 3.185 7.11 8.82 10.51
5/5/2023 5:45:00 AM 10.03 50.054 3.155 7.11 8.3 10.52
5/5/2023 6:00:00 AM 10.01 50.018 3.15 7.13 8.68 10.53
5/5/2023 6:15:00 AM 10 50 3.153 7.11 8.8 10.54
5/5/2023 6:30:00 AM 9.99 49.982 3.149 7.13 8.63 10.55
5/5/2023 6:45:00 AM 9.98 49.964 3.11 7.13 8.41 10.56
5/5/2023 7:00:00 AM 10 50 3.087 7.14 8.32 10.58
5/5/2023 7:15:00 AM 10.02 50.036 3.099 7.14 8.16 10.6
5/5/2023 7:30:00 AM 10.04 50.072 3.054 7.15 8.35 10.63
5/5/2023 7:45:00 AM 10.07 50.126 3.086 7.16 7.8 10.65
5/5/2023 8:00:00 AM 10.09 50.162 3.008 7.16 8.25 10.67
5/5/2023 8:15:00 AM 10.13 50.234 2.927 7.18 8.1 10.69
5/5/2023 8:30:00 AM 10.1 50.18 2.826 7.17 8.26 10.69
5/5/2023 8:45:00 AM 10.13 50.234 2.83 7.18 7.65 10.71
5/5/2023 9:00:00 AM 10.23 50.414 2.838 7.18 8.16 10.73
5/5/2023 9:15:00 AM 10.34 50.612 2.835 7.2 8.01 10.75
5/5/2023 9:30:00 AM 10.46 50.828 2.784 7.22 7.66 10.77
5/5/2023 9:45:00 AM 10.61 51.098 2.818 7.23 7.41 10.77
5/5/2023 10:00:00 AM 10.74 51.332 2.823 7.22 7.41 10.76
5/5/2023 10:15:00 AM 10.96 51.728 2.807 7.25 7.37 10.75
5/5/2023 10:30:00 AM 11.01 51.818 2.802 7.27 7.29 10.74
5/5/2023 10:45:00 AM 11.09 51.962 2.789 7.28 8.09 10.72
5/5/2023 11:00:00 AM 11.2 52.16 2.669 7.28 7.63 10.71
5/5/2023 11:15:00 AM 11.28 52.304 2.73 7.28 7.35 10.68
5/5/2023 11:30:00 AM 11.33 52.394 2.781 7.3 7.33 10.67
5/5/2023 11:45:00 AM 11.38 52.484 2.751 7.31 7.46 10.67
5/5/2023 12:00:00 PM 11.47 52.646 2.735 7.29 7.73 10.67
5/5/2023 12:15:00 PM 11.57 52.826 2.68 7.33 7.44 10.66
5/5/2023 12:30:00 PM 11.71 53.078 2.752 7.33 7.24 10.66
5/5/2023 12:45:00 PM 11.81 53.258 2.748 7.32 7.16 10.65
5/5/2023 1:00:00 PM 11.85 53.33 2.726 7.32 7.45 10.62
5/5/2023 1:15:00 PM 11.9 53.42 2.757 7.33 7.5 10.58
5/5/2023 1:30:00 PM 11.93 53.474 2.743 7.35 7.67 10.56
5/5/2023 1:45:00 PM 12 53.6 2.745 7.32 7.21 10.56
5/5/2023 2:00:00 PM 12.04 53.672 2.731 7.36 7.17 10.56
5/5/2023 2:15:00 PM 12.07 53.726 2.715 7.36 7.21 10.57
5/5/2023 2:30:00 PM 12.11 53.798 2.736 7.34 7.48 10.57
5/5/2023 2:45:00 PM 12.14 53.852 2.716 7.37 7.75 10.56
5/5/2023 3:00:00 PM 12.17 53.906 2.658 7.35 7.43 10.55
5/5/2023 3:15:00 PM 12.19 53.942 2.657 7.38 7 10.53
5/5/2023 3:30:00 PM 12.28 54.104 2.65 7.38 7.24 10.51
5/5/2023 3:45:00 PM 12.36 54.248 2.657 7.38 7.21 10.49
5/5/2023 4:00:00 PM 12.47 54.446 2.759 7.35 7.4 10.47
5/5/2023 4:15:00 PM 12.52 54.536 2.697 7.38 7.48 10.45
5/5/2023 4:30:00 PM 12.44 54.392 2.747 7.38 7.2 10.42
5/5/2023 4:45:00 PM 12.46 54.428 2.693 7.37 7.43 10.41
5/5/2023 5:00:00 PM 12.49 54.482 2.673 7.35 7.66 10.4
5/5/2023 5:15:00 PM 12.43 54.374 2.658 7.37 7.29 10.37
5/5/2023 5:30:00 PM 12.38 54.284 2.52 7.33 7.11 10.36
5/5/2023 5:45:00 PM 12.39 54.302 2.532 7.36 7.14 10.35
5/5/2023 6:00:00 PM 12.3 54.14 2.501 7.34 7.58 10.33
5/5/2023 6:15:00 PM 12.22 53.996 2.515 7.33 10.87 10.31
5/5/2023 6:30:00 PM 12.14 53.852 2.357 7.34 7.03 10.3
5/5/2023 6:45:00 PM 12.06 53.708 2.486 7.33 7.25 10.28
5/5/2023 7:00:00 PM 12 53.6 2.461 7.32 7.16 10.28
5/5/2023 7:15:00 PM 11.96 53.528 2.625 7.3 6.82 10.25
5/5/2023 7:30:00 PM 11.96 53.528 2.664 7.28 6.71 10.22
5/5/2023 7:45:00 PM 11.98 53.564 2.661 7.28 6.81 10.17
5/5/2023 8:00:00 PM 11.99 53.582 2.654 7.26 6.91 10.14
5/5/2023 8:15:00 PM 11.99 53.582 2.695 7.27 6.65 10.11
5/5/2023 8:30:00 PM 11.96 53.528 2.684 7.26 7.05 10.1
5/5/2023 8:45:00 PM 11.9 53.42 2.688 7.21 6.8 10.09
5/5/2023 9:00:00 PM 11.81 53.258 2.696 7.24 6.71 10.1
5/5/2023 9:15:00 PM 11.73 53.114 2.687 7.23 6.72 10.11
5/5/2023 9:30:00 PM 11.66 52.988 2.65 7.23 6.97 10.12
5/5/2023 9:45:00 PM 11.63 52.934 2.633 7.22 6.59 10.13
5/5/2023 10:00:00 PM 11.65 52.97 2.598 7.2 6.45 10.1
5/5/2023 10:15:00 PM 11.69 53.042 2.61 7.2 6.79 10.09
5/5/2023 10:30:00 PM 11.74 53.132 2.601 7.19 6.36 10.07
5/5/2023 10:45:00 PM 11.81 53.258 2.546 7.21 6.97 10.05
5/5/2023 11:00:00 PM 11.86 53.348 2.519 7.18 6.43 10.03
5/5/2023 11:15:00 PM 11.91 53.438 2.469 7.2 6.4 10.01
5/5/2023 11:30:00 PM 11.93 53.474 2.512 7.2 6.45 10
5/5/2023 11:45:00 PM 11.92 53.456 2.522 7.2 6.65 10.01
5/6/2023 12:00:00 AM 11.9 53.42 2.559 7.2 6.19 10.02
5/6/2023 12:15:00 AM 11.87 53.366 2.578 7.19 7.09 10.02
5/6/2023 12:30:00 AM 11.82 53.276 2.567 7.16 6.14 10.03
5/6/2023 12:45:00 AM 11.77 53.186 2.504 7.18 6.29 10.05
5/6/2023 1:00:00 AM 11.71 53.078 2.425 7.2 6.42 10.07
5/6/2023 1:15:00 AM 11.65 52.97 2.607 7.19 6.15 10.09
5/6/2023 1:30:00 AM 11.57 52.826 0.766 7.24 6.71 10.17
5/6/2023 1:45:00 AM 11.49 52.682 0.818 7.23 6.12 10.2
5/6/2023 2:00:00 AM 11.42 52.556 1.045 7.23 5.98 10.19
5/6/2023 2:15:00 AM 11.33 52.394 1.23 7.23 6.24 10.22
5/6/2023 2:30:00 AM 11.25 52.25 1.724 7.21 6.24 10.24
5/6/2023 2:45:00 AM 11.17 52.106 2.998 7.16 6.22 10.21
5/6/2023 3:00:00 AM 11.08 51.944 3.163 7.16 6.31 10.23
5/6/2023 3:15:00 AM 11.01 51.818 3.245 7.16 6.51 10.24
5/6/2023 3:30:00 AM 10.94 51.692 3.248 7.15 6.06 10.25
5/6/2023 3:45:00 AM 10.88 51.584 3.312 7.13 6.11 10.28
5/6/2023 4:00:00 AM 10.82 51.476 3.351 7.15 6.2 10.3
5/6/2023 4:15:00 AM 10.77 51.386 3.374 7.14 6.18 10.31
5/6/2023 4:30:00 AM 10.72 51.296 3.4 7.11 5.89 10.33
5/6/2023 4:45:00 AM 10.68 51.224 3.418 7.14 6.05 10.34
5/6/2023 5:00:00 AM 10.64 51.152 3.448 7.14 5.88 10.34
5/6/2023 5:15:00 AM 10.61 51.098 3.411 7.1 5.98 10.35
5/6/2023 5:30:00 AM 10.58 51.044 3.454 7.13 6.08 10.36
5/6/2023 5:45:00 AM 10.53 50.954 3.471 7.1 6.07 10.37
5/6/2023 6:00:00 AM 10.5 50.9 3.46 7.12 5.89 10.38
5/6/2023 6:15:00 AM 10.47 50.846 3.533 7.12 6.01 10.4
5/6/2023 6:30:00 AM 10.44 50.792 3.567 7.13 5.77 10.42
5/6/2023 6:45:00 AM 10.42 50.756 3.597 7.1 6.3 10.44
5/6/2023 7:00:00 AM 10.4 50.72 3.591 7.12 5.73 10.48
5/6/2023 7:15:00 AM 10.39 50.702 3.602 7.13 5.72 10.52
5/6/2023 7:30:00 AM 10.39 50.702 3.545 7.14 5.73 10.56
5/6/2023 7:45:00 AM 10.39 50.702 3.635 7.13 5.53 10.59
5/6/2023 8:00:00 AM 10.42 50.756 3.646 7.15 5.51 10.63
5/6/2023 8:15:00 AM 10.48 50.864 3.654 7.17 5.56 10.66
5/6/2023 8:30:00 AM 10.54 50.972 3.653 7.15 5.14 10.67
5/6/2023 8:45:00 AM 10.62 51.116 3.623 7.17 5.41 10.68
5/6/2023 9:00:00 AM 10.71 51.278 3.659 7.2 5.23 10.68
5/6/2023 9:15:00 AM 10.82 51.476 3.645 7.2 5.21 10.7
5/6/2023 9:30:00 AM 10.94 51.692 3.784 7.21 5.12 10.7
5/6/2023 9:45:00 AM 11.07 51.926 3.831 7.2 4.98 10.68
5/6/2023 10:00:00 AM 11.23 52.214 3.819 7.23 5.06 10.68
5/6/2023 10:15:00 AM 11.41 52.538 3.868 7.23 4.9 10.66
5/6/2023 10:30:00 AM 11.61 52.898 3.876 7.25 4.74 10.64
5/6/2023 10:45:00 AM 11.82 53.276 3.9 7.25 4.83 10.63
5/6/2023 11:00:00 AM 12.04 53.672 3.91 7.26 4.76 10.59
5/6/2023 11:15:00 AM 12.21 53.978 3.918 7.27 4.68 10.56
5/6/2023 11:30:00 AM 12.37 54.266 4.084 7.3 4.96 10.51
5/6/2023 11:45:00 AM 12.6 54.68 4.068 7.3 4.85 10.49
5/6/2023 12:00:00 PM 12.71 54.878 4.072 7.31 4.65 10.44
5/6/2023 12:15:00 PM 12.94 55.292 4.065 7.31 4.63 10.43
5/6/2023 12:30:00 PM 13.22 55.796 4.057 7.34 4.75 10.39
5/6/2023 12:45:00 PM 13.41 56.138 4.035 7.35 4.59 10.32
5/6/2023 1:00:00 PM 13.69 56.642 4.085 7.38 4.93 10.3
5/6/2023 1:15:00 PM 13.86 56.948 4.179 7.35 4.68 10.25
5/6/2023 1:30:00 PM 13.97 57.146 4.257 7.39 4.75 10.2
5/6/2023 1:45:00 PM 14.17 57.506 4.11 7.4 4.87 10.18
5/6/2023 2:00:00 PM 14.31 57.758 4.208 7.4 4.68 10.14
5/6/2023 2:15:00 PM 14.4 57.92 4.185 7.4 4.85 10.11
5/6/2023 2:30:00 PM 14.58 58.244 4.245 7.42 4.81 10.1
5/6/2023 2:45:00 PM 14.77 58.586 4.231 7.43 4.64 10.07
5/6/2023 3:00:00 PM 14.83 58.694 4.224 7.43 4.78 10.05
5/6/2023 3:15:00 PM 14.71 58.478 4.227 7.42 4.81 10.02
5/6/2023 3:30:00 PM 14.56 58.208 4.288 7.42 5.25 9.99
5/6/2023 3:45:00 PM 14.58 58.244 4.263 7.42 4.68 10
5/6/2023 4:00:00 PM 14.63 58.334 4.249 7.41 4.89 9.98
5/6/2023 4:15:00 PM 14.66 58.388 4.235 7.43 4.93 9.96
5/6/2023 4:30:00 PM 14.68 58.424 4.18 7.43 4.78 9.95
5/6/2023 4:45:00 PM 14.66 58.388 4.29 7.42 4.74 9.91
5/6/2023 5:00:00 PM 14.65 58.37 4.265 7.42 4.63 9.88
5/6/2023 5:15:00 PM 14.56 58.208 4.278 7.41 4.68 9.82
5/6/2023 5:30:00 PM 14.57 58.226 4.283 7.39 4.57 9.79
5/6/2023 5:45:00 PM 14.53 58.154 4.274 7.37 4.6 9.77
5/6/2023 6:00:00 PM 14.46 58.028 4.266 7.36 4.69 9.74
5/6/2023 6:15:00 PM 14.38 57.884 4.244 7.36 4.8 9.74
5/6/2023 6:30:00 PM 14.29 57.722 4.314 7.35 4.6 9.71
5/6/2023 6:45:00 PM 14.21 57.578 4.281 7.33 4.77 9.7
5/6/2023 7:00:00 PM 14.08 57.344 4.343 7.31 4.71 9.69
5/6/2023 7:15:00 PM 13.93 57.074 4.297 7.28 4.86 9.69
5/6/2023 7:30:00 PM 13.77 56.786 4.339 7.27 4.78 9.69
5/6/2023 7:45:00 PM 13.61 56.498 4.38 7.27 4.85 9.7
5/6/2023 8:00:00 PM 13.47 56.246 4.374 7.26 4.7 9.69
5/6/2023 8:15:00 PM 13.35 56.03 4.44 7.21 8.18 9.68
5/6/2023 8:30:00 PM 13.25 55.85 4.343 7.22 4.85 9.67
5/6/2023 8:45:00 PM 13.18 55.724 4.392 7.22 4.65 9.67
5/6/2023 9:00:00 PM 13.12 55.616 4.405 7.21 4.58 9.65
5/6/2023 9:15:00 PM 13.07 55.526 4.427 7.2 4.74 9.64
5/6/2023 9:30:00 PM 13.03 55.454 4.388 7.15 4.74 9.65
5/6/2023 9:45:00 PM 13 55.4 4.4 7.18 4.48 9.65
5/6/2023 10:00:00 PM 12.96 55.328 4.445 7.17 4.53 9.64
5/6/2023 10:15:00 PM 12.92 55.256 4.43 7.13 4.76 9.65
5/6/2023 10:30:00 PM 12.89 55.202 4.464 7.15 4.53 9.65
5/6/2023 10:45:00 PM 12.86 55.148 4.37 7.16 4.56 9.66
5/6/2023 11:00:00 PM 12.83 55.094 4.456 7.13 4.43 9.66
5/6/2023 11:15:00 PM 12.78 55.004 4.41 7.15 4.53 9.66
5/6/2023 11:30:00 PM 12.73 54.914 4.441 7.15 4.54 9.67
5/6/2023 11:45:00 PM 12.67 54.806 4.455 7.14 4.61 9.68
5/7/2023 12:00:00 AM 12.63 54.734 4.482 7.14 5.05 9.69
5/7/2023 12:15:00 AM 12.59 54.662 4.438 7.11 4.55 9.71
5/7/2023 12:30:00 AM 12.55 54.59 4.434 7.12 4.35 9.71
5/7/2023 12:45:00 AM 12.51 54.518 4.427 7.14 4.43 9.72
5/7/2023 1:00:00 AM 12.46 54.428 4.457 7.13 4.41 9.73
5/7/2023 1:15:00 AM 12.4 54.32 4.433 7.13 4.42 9.75
5/7/2023 1:30:00 AM 12.35 54.23 4.429 7.1 4.36 9.76
5/7/2023 1:45:00 AM 12.3 54.14 4.448 7.13 4.44 9.77
5/7/2023 2:00:00 AM 12.25 54.05 4.433 7.12 4.45 9.78
5/7/2023 2:15:00 AM 12.2 53.96 4.479 7.12 4.3 9.78
5/7/2023 2:30:00 AM 12.16 53.888 4.526 7.1 4.23 9.8
5/7/2023 2:45:00 AM 12.12 53.816 4.52 7.12 4.27 9.81
5/7/2023 3:00:00 AM 12.08 53.744 4.483 7.1 4.34 9.82
5/7/2023 3:15:00 AM 12.03 53.654 4.483 7.1 3.98 9.83
5/7/2023 3:30:00 AM 11.97 53.546 4.48 7.1 3.96 9.84
5/7/2023 3:45:00 AM 11.92 53.456 4.482 7.1 4.34 9.86
5/7/2023 4:00:00 AM 11.86 53.348 4.516 7.11 4.21 9.87
5/7/2023 4:15:00 AM 11.8 53.24 4.503 7.1 4.19 9.89
5/7/2023 4:30:00 AM 11.74 53.132 4.453 7.1 4.16 9.9
5/7/2023 4:45:00 AM 11.67 53.006 4.447 7.1 3.93 9.93
5/7/2023 5:00:00 AM 11.61 52.898 4.424 7.09 4.01 9.94
5/7/2023 5:15:00 AM 11.54 52.772 4.382 7.09 4.35 9.96
5/7/2023 5:30:00 AM 11.47 52.646 4.453 7.09 4.28 9.97
5/7/2023 5:45:00 AM 11.41 52.538 4.458 7.1 4.09 9.98
5/7/2023 6:00:00 AM 11.35 52.43 4.483 7.1 4.09 10.01
5/7/2023 6:15:00 AM 11.3 52.34 4.443 7.1 4.12 10.03
5/7/2023 6:30:00 AM 11.25 52.25 4.429 7.1 4 10.06
5/7/2023 6:45:00 AM 11.21 52.178 4.38 7.08 3.82 10.09
5/7/2023 7:00:00 AM 11.18 52.124 4.465 7.11 3.78 10.13
5/7/2023 7:15:00 AM 11.17 52.106 4.47 7.11 4.13 10.17
5/7/2023 7:30:00 AM 11.17 52.106 4.336 7.13 3.79 10.22
5/7/2023 7:45:00 AM 11.18 52.124 4.429 7.11 3.77 10.26
5/7/2023 8:00:00 AM 11.23 52.214 4.449 7.15 3.59 10.31
5/7/2023 8:15:00 AM 11.28 52.304 4.476 7.16 3.8 10.34
5/7/2023 8:30:00 AM 11.36 52.448 4.466 7.16 3.72 10.37
5/7/2023 8:45:00 AM 11.45 52.61 4.438 7.17 3.74 10.39
5/7/2023 9:00:00 AM 11.56 52.808 4.45 7.16 3.67 10.41
5/7/2023 9:15:00 AM 11.68 53.024 4.424 7.21 3.75 10.43
5/7/2023 9:30:00 AM 11.82 53.276 4.416 7.22 3.63 10.44
5/7/2023 9:45:00 AM 11.98 53.564 4.482 7.24 3.49 10.43
5/7/2023 10:00:00 AM 12.16 53.888 4.418 7.26 3.5 10.43
5/7/2023 10:15:00 AM 12.33 54.194 4.388 7.28 3.36 10.44
5/7/2023 10:30:00 AM 12.55 54.59 4.4 7.29 3.46 10.42
5/7/2023 10:45:00 AM 12.78 55.004 4.422 7.31 3.43 10.41
5/7/2023 11:00:00 AM 13.01 55.418 4.422 7.33 3.55 10.39
5/7/2023 11:15:00 AM 13.25 55.85 4.388 7.31 3.44 10.36
5/7/2023 11:30:00 AM 13.47 56.246 4.366 7.36 3.47 10.34
5/7/2023 11:45:00 AM 13.71 56.678 4.389 7.35 3.38 10.31
5/7/2023 12:00:00 PM 14 57.2 4.342 7.38 3.41 10.26
5/7/2023 12:15:00 PM 14.24 57.632 4.352 7.41 3.19 10.21
5/7/2023 12:30:00 PM 14.51 58.118 4.29 7.42 3.35 10.18
5/7/2023 12:45:00 PM 14.76 58.568 4.36 7.44 3.37 10.14
5/7/2023 1:00:00 PM 15.03 59.054 4.325 7.45 3.29 10.09
5/7/2023 1:15:00 PM 15.28 59.504 4.32 7.46 3.44 10.04
5/7/2023 1:30:00 PM 15.52 59.936 4.323 7.47 3.39 10
5/7/2023 1:45:00 PM 15.73 60.314 4.346 7.49 3.25 9.96
5/7/2023 2:00:00 PM 15.91 60.638 4.317 7.51 3.29 9.92
5/7/2023 2:15:00 PM 16.06 60.908 4.167 7.52 3.25 9.89
5/7/2023 2:30:00 PM 16.12 61.016 4.24 7.51 3.38 9.84
5/7/2023 2:45:00 PM 16.2 61.16 4.324 7.52 7.46 9.8
5/7/2023 3:00:00 PM 16.28 61.304 4.211 7.57 3.23 9.79
5/7/2023 3:15:00 PM 16.31 61.358 4.304 7.56 3.32 9.77
5/7/2023 3:30:00 PM 16.34 61.412 4.269 7.56 3.17 9.74
5/7/2023 3:45:00 PM 16.34 61.412 4.422 7.53 8.28 9.72
5/7/2023 4:00:00 PM 16.3 61.34 4.445 7.53 7.67 9.69
5/7/2023 4:15:00 PM 16.2 61.16 4.363 7.5 3.47 9.63
5/7/2023 4:30:00 PM 16.07 60.926 4.504 7.46 7.4 9.56
5/7/2023 4:45:00 PM 15.94 60.692 4.489 7.43 7.87 9.53
5/7/2023 5:00:00 PM 15.8 60.44 4.385 7.45 3.28 9.47
5/7/2023 5:15:00 PM 15.63 60.134 4.383 7.38 3.43 9.43
5/7/2023 5:30:00 PM 15.46 59.828 4.386 7.35 3.48 9.4
5/7/2023 5:45:00 PM 15.28 59.504 4.408 7.35 3.76 9.38
5/7/2023 6:00:00 PM 15.1 59.18 4.401 7.33 3.61 9.38
5/7/2023 6:15:00 PM 14.94 58.892 4.419 7.3 3.49 9.38
5/7/2023 6:30:00 PM 14.8 58.64 4.351 7.31 3.4 9.4
5/7/2023 6:45:00 PM 14.68 58.424 4.337 7.31 3.44 9.39
5/7/2023 7:00:00 PM 14.57 58.226 4.41 7.3 3.41 9.38
5/7/2023 7:15:00 PM 14.47 58.046 4.419 7.29 3.41 9.39
5/7/2023 7:30:00 PM 14.38 57.884 4.496 7.29 3.3 9.37
5/7/2023 7:45:00 PM 14.28 57.704 4.427 7.28 3.41 9.36
5/7/2023 8:00:00 PM 14.17 57.506 4.554 7.22 3.43 9.35
5/7/2023 8:15:00 PM 14.07 57.326 4.502 7.24 3.67 9.34
5/7/2023 8:30:00 PM 13.98 57.164 4.445 7.25 3.42 9.35
5/7/2023 8:45:00 PM 13.9 57.02 4.396 7.22 3.55 9.34
5/7/2023 9:00:00 PM 13.81 56.858 4.492 7.22 3.47 9.35
5/7/2023 9:15:00 PM 13.72 56.696 4.594 7.18 7.23 9.36
5/7/2023 9:30:00 PM 13.63 56.534 4.512 7.2 3.79 9.38
5/7/2023 9:45:00 PM 13.53 56.354 4.468 7.16 3.72 9.4
5/7/2023 10:00:00 PM 13.44 56.192 4.409 7.17 3.76 9.42
5/7/2023 10:15:00 PM 13.36 56.048 4.477 7.19 3.8 9.44
5/7/2023 10:30:00 PM 13.27 55.886 4.474 7.16 3.94 9.46
5/7/2023 10:45:00 PM 13.19 55.742 4.512 7.17 3.74 9.47
5/7/2023 11:00:00 PM 13.11 55.598 4.494 7.15 3.73 9.49
5/7/2023 11:15:00 PM 13.04 55.472 4.51 7.15 3.88 9.5
5/7/2023 11:30:00 PM 12.98 55.364 4.465 7.14 3.85 9.52
5/7/2023 11:45:00 PM 12.92 55.256 4.459 7.15 3.93 9.53
5/8/2023 12:00:00 AM 12.87 55.166 4.518 7.15 3.89 9.54
5/8/2023 12:15:00 AM 12.82 55.076 4.547 7.12 3.87 9.55
5/8/2023 12:30:00 AM 12.77 54.986 4.558 7.14 3.8 9.56
5/8/2023 12:45:00 AM 12.73 54.914 4.573 7.11 3.74 9.57
5/8/2023 1:00:00 AM 12.7 54.86 4.554 7.13 3.78 9.58
5/8/2023 1:15:00 AM 12.67 54.806 4.551 7.12 3.95 9.59
5/8/2023 1:30:00 AM 12.65 54.77 4.59 7.12 3.83 9.59
5/8/2023 1:45:00 AM 12.64 54.752 4.548 7.11 3.86 9.58
5/8/2023 2:00:00 AM 12.67 54.806 4.548 7.11 3.73 9.57
5/8/2023 2:15:00 AM 12.71 54.878 4.535 7.11 3.46 9.56
5/8/2023 2:30:00 AM 12.78 55.004 4.585 7.12 3.5 9.54
5/8/2023 2:45:00 AM 12.85 55.13 4.627 7.13 3.51 9.53
5/8/2023 3:00:00 AM 12.92 55.256 4.484 7.11 3.48 9.5
5/8/2023 3:15:00 AM 12.99 55.382 4.536 7.12 3.27 9.49
5/8/2023 3:30:00 AM 13.05 55.49 4.544 7.13 3.35 9.46
5/8/2023 3:45:00 AM 13.1 55.58 4.54 7.13 3.23 9.46
5/8/2023 4:00:00 AM 13.15 55.67 4.549 7.14 3.38 9.44
5/8/2023 4:15:00 AM 13.19 55.742 4.546 7.15 3.5 9.43
5/8/2023 4:30:00 AM 13.22 55.796 4.614 7.15 3.45 9.43
5/8/2023 4:45:00 AM 13.25 55.85 4.556 7.15 3.25 9.42
5/8/2023 5:00:00 AM 13.27 55.886 4.536 7.15 3.22 9.42
5/8/2023 5:15:00 AM 13.29 55.922 4.522 7.13 3.2 9.42
5/8/2023 5:30:00 AM 13.3 55.94 4.533 7.15 3.31 9.42
5/8/2023 5:45:00 AM 13.3 55.94 4.525 7.14 3.12 9.41
5/8/2023 6:00:00 AM 13.3 55.94 4.505 7.14 3.21 9.42
5/8/2023 6:15:00 AM 13.3 55.94 4.526 7.14 3.2 9.44
5/8/2023 6:30:00 AM 13.3 55.94 4.505 7.16 3.03 9.46
5/8/2023 6:45:00 AM 13.29 55.922 4.393 7.18 3.12 9.49
5/8/2023 7:00:00 AM 13.29 55.922 4.381 7.16 3.22 9.55
5/8/2023 7:15:00 AM 13.29 55.922 4.417 7.2 3.19 9.63
5/8/2023 7:30:00 AM 13.28 55.904 4.359 7.19 2.87 9.7
5/8/2023 7:45:00 AM 13.28 55.904 4.229 7.24 3.07 9.79
5/8/2023 8:00:00 AM 13.29 55.922 4.255 7.25 3.01 9.84
5/8/2023 8:15:00 AM 13.27 55.886 4.292 7.24 2.95 9.86
5/8/2023 8:30:00 AM 13.29 55.922 4.214 7.28 2.93 9.92
5/8/2023 8:45:00 AM 13.3 55.94 4.24 7.29 2.94 9.93
5/8/2023 9:00:00 AM 13.38 56.084 4.202 7.27 2.81 9.99
5/8/2023 9:15:00 AM 13.44 56.192 4.268 7.33 2.8 10.02
5/8/2023 9:30:00 AM 13.5 56.3 4.189 7.34 2.84 10.06
5/8/2023 9:45:00 AM 13.58 56.444 4.271 7.35 2.83 10.08
5/8/2023 10:00:00 AM 13.68 56.624 4.256 7.36 2.87 10.12
5/8/2023 10:15:00 AM 13.82 56.876 4.22 7.4 2.77 10.15
5/8/2023 10:30:00 AM 13.96 57.128 4.187 7.41 2.73 10.15
5/8/2023 10:45:00 AM 14.15 57.47 4.208 7.44 2.83 10.17
5/8/2023 11:00:00 AM 14.33 57.794 4.143 7.46 2.56 10.16
5/8/2023 11:15:00 AM 14.58 58.244 4.119 7.47 2.58 10.15
5/8/2023 11:30:00 AM 14.8 58.64 4.123 7.48 2.61 10.14
5/8/2023 11:45:00 AM 15.04 59.072 4.146 7.5 2.59 10.11
5/8/2023 12:00:00 PM 0 32 0 7.56 2.73 9.66
5/8/2023 12:15:00 PM 0 32 0 7.59 2.62 9.66
5/8/2023 12:30:00 PM 0 32 0 7.62 2.99 9.65
5/8/2023 12:45:00 PM 15.99 60.782 6.341 7.6 7.24 10.01
5/8/2023 1:00:00 PM 16.23 61.214 6.14 7.64 2.79 9.99
5/8/2023 1:15:00 PM 16.43 61.574 6.143 7.64 2.52 9.95
5/8/2023 1:30:00 PM 16.62 61.916 5.982 7.67 2.68 9.93
5/8/2023 1:45:00 PM 16.83 62.294 5.889 7.69 2.56 9.92
5/8/2023 2:00:00 PM 16.96 62.528 5.567 7.69 2.68 9.89
5/8/2023 2:15:00 PM 17.08 62.744 4.892 7.74 2.62 9.87
5/8/2023 2:30:00 PM 17.21 62.978 4.816 7.74 6.93 9.85
5/8/2023 2:45:00 PM 17.32 63.176 1.35 7.82 2.56 9.94
5/8/2023 3:00:00 PM 17.4 63.32 1.401 7.8 6.77 9.9
5/8/2023 3:15:00 PM 17.47 63.446 1.984 7.81 2.53 9.85
5/8/2023 3:30:00 PM 17.54 63.572 2.297 7.8 2.47 9.79
5/8/2023 3:45:00 PM 17.58 63.644 2.233 7.82 7.33 9.74
5/8/2023 4:00:00 PM 17.61 63.698 4.678 7.72 2.46 9.62
5/8/2023 4:15:00 PM 17.61 63.698 4.224 7.73 7.15 9.59
5/8/2023 4:30:00 PM 17.58 63.644 4.328 7.71 7.43 9.54
5/8/2023 4:45:00 PM 17.55 63.59 4.292 7.7 7.17 9.5
5/8/2023 5:00:00 PM 17.47 63.446 5.315 7.69 2.47 9.44
5/8/2023 5:15:00 PM 17.37 63.266 5.391 7.65 2.54 9.41
5/8/2023 5:30:00 PM 17.24 63.032 2.839 7.7 2.44 9.46
5/8/2023 5:45:00 PM 17.08 62.744 3.17 7.62 6.76 9.43
5/8/2023 6:00:00 PM 16.91 62.438 3.038 7.69 2.63 9.41
5/8/2023 6:15:00 PM 16.71 62.078 3.228 7.59 2.76 9.38
5/8/2023 6:30:00 PM 16.51 61.718 3.363 7.62 6.73 9.34
5/8/2023 6:45:00 PM 16.32 61.376 3.744 7.52 7.22 9.31
5/8/2023 7:00:00 PM 16.1 60.98 3.788 7.57 2.58 9.3
5/8/2023 7:15:00 PM 15.92 60.656 3.815 7.46 2.77 9.27
5/8/2023 7:30:00 PM 15.73 60.314 3.212 7.46 2.74 9.26
5/8/2023 7:45:00 PM 15.56 60.008 3.319 7.43 2.56 9.23
5/8/2023 8:00:00 PM 15.4 59.72 3.591 7.4 2.64 9.2
5/8/2023 8:15:00 PM 15.27 59.486 3.892 7.35 2.54 9.16
5/8/2023 8:30:00 PM 15.13 59.234 3.686 7.36 2.67 9.15
5/8/2023 8:45:00 PM 15.01 59.018 3.98 7.33 2.67 9.14
5/8/2023 9:00:00 PM 14.89 58.802 4.023 7.31 2.68 9.13
5/8/2023 9:15:00 PM 14.78 58.604 4.055 7.31 2.66 9.14
5/8/2023 9:30:00 PM 14.66 58.388 4.07 7.33 2.77 9.15
5/8/2023 9:45:00 PM 14.55 58.19 3.971 7.31 2.72 9.17
5/8/2023 10:00:00 PM 14.46 58.028 3.95 7.32 2.72 9.18
5/8/2023 10:15:00 PM 14.38 57.884 3.775 7.32 2.87 9.19
5/8/2023 10:30:00 PM 14.31 57.758 4.093 7.29 7.62 9.2
5/8/2023 10:45:00 PM 14.26 57.668 4.204 7.3 2.78 9.19
5/8/2023 11:00:00 PM 14.24 57.632 4.363 7.29 2.63 9.18
5/8/2023 11:15:00 PM 14.22 57.596 4.291 7.29 2.6 9.18
5/8/2023 11:30:00 PM 14.2 57.56 4.331 7.25 3.05 9.19
5/8/2023 11:45:00 PM 14.17 57.506 4.429 7.27 2.6 9.18
5/9/2023 12:00:00 AM 14.15 57.47 4.401 7.24 7.83 9.2
5/9/2023 12:15:00 AM 14.11 57.398 4.342 7.27 2.56 9.2
5/9/2023 12:30:00 AM 14.08 57.344 4.084 7.25 2.61 9.21
5/9/2023 12:45:00 AM 14.06 57.308 4.18 7.27 2.62 9.22
5/9/2023 1:00:00 AM 14.02 57.236 4.243 7.26 2.55 9.22
5/9/2023 1:15:00 AM 13.99 57.182 4.252 7.24 7.18 9.24
5/9/2023 1:30:00 AM 13.95 57.11 4.26 7.26 2.64 9.23
5/9/2023 1:45:00 AM 13.9 57.02 4.255 7.23 2.67 9.24
5/9/2023 2:00:00 AM 13.86 56.948 4.299 7.26 2.74 9.25
5/9/2023 2:15:00 AM 13.81 56.858 4.296 7.25 2.66 9.26
5/9/2023 2:30:00 AM 13.76 56.768 4.27 7.23 2.49 9.27
5/9/2023 2:45:00 AM 13.71 56.678 4.275 7.25 2.83 9.28
5/9/2023 3:00:00 AM 13.66 56.588 4.451 7.22 2.66 9.29
5/9/2023 3:15:00 AM 13.62 56.516 4.384 7.24 2.63 9.31
5/9/2023 3:30:00 AM 13.57 56.426 4.514 7.24 2.56 9.32
5/9/2023 3:45:00 AM 13.53 56.354 4.626 7.24 2.65 9.33
5/9/2023 4:00:00 AM 13.49 56.282 4.596 7.23 2.5 9.34
5/9/2023 4:15:00 AM 13.44 56.192 4.542 7.21 2.67 9.35
5/9/2023 4:30:00 AM 13.39 56.102 4.337 7.24 2.51 9.37
5/9/2023 4:45:00 AM 13.33 55.994 4.131 7.22 2.57 9.4
5/9/2023 5:00:00 AM 13.29 55.922 4.043 7.23 2.4 9.41
5/9/2023 5:15:00 AM 13.24 55.832 3.666 7.24 2.57 9.44
5/9/2023 5:30:00 AM 13.2 55.76 3.787 7.24 2.5 9.45
5/9/2023 5:45:00 AM 13.16 55.688 3.767 7.22 2.52 9.46
5/9/2023 6:00:00 AM 13.12 55.616 3.715 7.24 2.53 9.47
5/9/2023 6:15:00 AM 13.09 55.562 3.543 7.22 2.61 9.5
5/9/2023 6:30:00 AM 13.07 55.526 2.371 7.26 2.44 9.58
5/9/2023 6:45:00 AM 13.06 55.508 2.778 7.27 2.49 9.62
5/9/2023 7:00:00 AM 13.05 55.49 2.712 7.25 7.88 9.68
5/9/2023 7:15:00 AM 13.04 55.472 2.627 7.29 2.51 9.75
5/9/2023 7:30:00 AM 13.04 55.472 2.524 7.31 2.38 9.81
5/9/2023 7:45:00 AM 13.05 55.49 2.217 7.33 2.47 9.9
5/9/2023 8:00:00 AM 13.05 55.49 2.28 7.34 2.22 9.98
5/9/2023 8:15:00 AM 13.06 55.508 2.311 7.36 2.19 10.04
5/9/2023 8:30:00 AM 13.12 55.616 2.362 7.39 2.21 10.16
5/9/2023 8:45:00 AM 13.19 55.742 2.383 7.42 4.52 10.25
5/9/2023 9:00:00 AM 13.23 55.814 2.317 7.45 2.09 10.33
5/9/2023 9:15:00 AM 13.3 55.94 2.324 7.48 2.18 10.4
5/9/2023 9:30:00 AM 13.37 56.066 2.357 7.48 2.07 10.46
5/9/2023 9:45:00 AM 13.48 56.264 2.38 7.54 2.1 10.51
5/9/2023 10:00:00 AM 13.61 56.498 2.262 7.56 6.66 10.55
5/9/2023 10:15:00 AM 13.79 56.822 2.154 7.61 2.09 10.57
5/9/2023 10:30:00 AM 13.94 57.092 2.692 7.62 2.14 10.56
5/9/2023 10:45:00 AM 14.12 57.416 2.967 7.65 1.95 10.56
5/9/2023 11:00:00 AM 14.31 57.758 3.075 7.66 2 10.56
5/9/2023 11:15:00 AM 14.54 58.172 3.24 7.7 2.08 10.54
5/9/2023 11:30:00 AM 14.76 58.568 3.23 7.73 1.93 10.53
5/9/2023 11:45:00 AM 14.99 58.982 3.235 7.71 2.18 10.51
5/9/2023 12:00:00 PM 15.24 59.432 2.738 7.76 1.91 10.5
5/9/2023 12:15:00 PM 15.51 59.918 2.777 7.78 1.86 10.46
5/9/2023 12:30:00 PM 15.78 60.404 2.819 7.8 1.92 10.42
5/9/2023 12:45:00 PM 16.05 60.89 2.732 7.83 1.79 10.39
5/9/2023 1:00:00 PM 16.31 61.358 2.693 7.83 5.57 10.35
5/9/2023 1:15:00 PM 16.55 61.79 2.62 7.87 1.86 10.31
5/9/2023 1:30:00 PM 16.8 62.24 2.396 7.9 1.78 10.28
5/9/2023 1:45:00 PM 17 62.6 2.546 7.9 1.79 10.24
5/9/2023 2:00:00 PM 17.25 63.05 2.691 7.94 5.91 10.21
5/9/2023 2:15:00 PM 17.34 63.212 2.703 7.95 6.07 10.16
5/9/2023 2:30:00 PM 17.5 63.5 2.544 8 1.8 10.14
5/9/2023 2:45:00 PM 17.61 63.698 2.384 8.01 1.86 10.13
5/9/2023 3:00:00 PM 17.72 63.896 2.302 8.05 6.35 10.1
5/9/2023 3:15:00 PM 17.73 63.914 2.342 8.07 1.88 10.07
5/9/2023 3:30:00 PM 17.75 63.95 2.316 8.08 1.96 10.04
5/9/2023 3:45:00 PM 17.72 63.896 2.147 8.16 2.02 10.01
5/9/2023 4:00:00 PM 17.71 63.878 2.32 8.1 6.24 10
5/9/2023 4:15:00 PM 17.65 63.77 2.311 8.1 6.74 9.98
5/9/2023 4:30:00 PM 17.61 63.698 2.312 8.1 6.76 9.97
5/9/2023 4:45:00 PM 17.54 63.572 2.44 8.12 1.93 9.94
5/9/2023 5:00:00 PM 17.46 63.428 2.42 8.09 1.87 9.92
5/9/2023 5:15:00 PM 17.38 63.284 2.488 8.08 6.24 9.88
5/9/2023 5:30:00 PM 17.26 63.068 2.43 8.06 1.81 9.84
5/9/2023 5:45:00 PM 17.15 62.87 2.337 8.01 6.37 9.81
5/9/2023 6:00:00 PM 17 62.6 2.343 7.98 1.84 9.76
5/9/2023 6:15:00 PM 16.84 62.312 2.395 7.93 6.38 9.71
5/9/2023 6:30:00 PM 16.69 62.042 2.398 7.89 1.86 9.64
5/9/2023 6:45:00 PM 16.54 61.772 2.501 7.82 1.83 9.58
5/9/2023 7:00:00 PM 16.39 61.502 2.372 7.76 1.94 9.53
5/9/2023 7:15:00 PM 16.24 61.232 2.424 7.7 1.96 9.45
5/9/2023 7:30:00 PM 16.09 60.962 2.173 7.66 1.99 9.38
5/9/2023 7:45:00 PM 15.93 60.674 2.834 7.59 5.47 9.29
5/9/2023 8:00:00 PM 15.77 60.386 1.555 7.59 1.87 9.27
5/9/2023 8:15:00 PM 15.6 60.08 1.505 7.54 1.96 9.23
5/9/2023 8:30:00 PM 15.43 59.774 2.655 7.48 1.99 9.16
5/9/2023 8:45:00 PM 15.25 59.45 2.833 7.5 2.04 9.14
5/9/2023 9:00:00 PM 15.09 59.162 2.598 7.43 2.2 9.15
5/9/2023 9:15:00 PM 14.95 58.91 2.757 7.43 2.18 9.15
5/9/2023 9:30:00 PM 14.82 58.676 2.768 7.39 2.1 9.16
5/9/2023 9:45:00 PM 14.71 58.478 2.172 7.39 2.22 9.18
5/9/2023 10:00:00 PM 14.6 58.28 2.179 7.36 2.16 9.2
5/9/2023 10:15:00 PM 14.49 58.082 2.091 7.37 5.71 9.2
5/9/2023 10:30:00 PM 14.39 57.902 2.074 7.35 2.23 9.23
5/9/2023 10:45:00 PM 14.31 57.758 2.151 7.36 2.09 9.22
5/9/2023 11:00:00 PM 14.27 57.686 2.104 7.35 2.12 9.23
5/9/2023 11:15:00 PM 14.23 57.614 2.148 7.31 2.17 9.23
5/9/2023 11:30:00 PM 14.21 57.578 2.173 7.33 2.14 9.23
5/9/2023 11:45:00 PM 14.15 57.47 2.291 7.33 2.31 9.24
5/10/2023 12:00:00 AM 14 57.2 3.009 7.36 2.3 9.22
5/10/2023 12:15:00 AM 13.89 57.002 3.12 7.36 2.64 9.25
5/10/2023 12:30:00 AM 13.8 56.84 2.992 7.35 2.6 9.29
5/10/2023 12:45:00 AM 13.72 56.696 2.905 7.37 2.59 9.32
5/10/2023 1:00:00 AM 13.66 56.588 2.754 7.37 2.31 9.35
5/10/2023 1:15:00 AM 13.61 56.498 2.842 7.33 2.36 9.36
5/10/2023 1:30:00 AM 13.56 56.408 2.929 7.35 2.32 9.37
5/10/2023 1:45:00 AM 13.52 56.336 3.3 7.33 6.21 9.37
5/10/2023 2:00:00 AM 13.46 56.228 2.873 7.32 2.28 9.4
5/10/2023 2:15:00 AM 13.4 56.12 2.979 7.31 2.46 9.42
5/10/2023 2:30:00 AM 13.31 55.958 2.886 7.33 2.24 9.44
5/10/2023 2:45:00 AM 13.2 55.76 2.909 7.31 2.37 9.47
5/10/2023 3:00:00 AM 13.1 55.58 2.865 7.32 2.34 9.5
5/10/2023 3:15:00 AM 12.99 55.382 2.785 7.32 2.29 9.53
5/10/2023 3:30:00 AM 12.9 55.22 2.663 7.32 2.2 9.56
5/10/2023 3:45:00 AM 12.8 55.04 2.811 7.27 2.41 9.58
5/10/2023 4:00:00 AM 12.7 54.86 2.881 7.29 2.28 9.6
5/10/2023 4:15:00 AM 12.61 54.698 2.853 7.29 2.44 9.62
5/10/2023 4:30:00 AM 12.52 54.536 2.669 7.29 2.43 9.66
5/10/2023 4:45:00 AM 12.43 54.374 2.665 7.29 2.29 9.68
5/10/2023 5:00:00 AM 12.34 54.212 2.677 7.25 2.38 9.7
5/10/2023 5:15:00 AM 12.26 54.068 2.843 7.26 2.31 9.71
5/10/2023 5:30:00 AM 12.18 53.924 2.807 7.26 2.48 9.74
5/10/2023 5:45:00 AM 12.1 53.78 2.814 7.27 2.4 9.76
5/10/2023 6:00:00 AM 12.04 53.672 2.817 7.25 2.3 9.79
5/10/2023 6:15:00 AM 11.98 53.564 2.57 7.27 2.38 9.84
5/10/2023 6:30:00 AM 11.93 53.474 2.585 7.28 2.21 9.91
5/10/2023 6:45:00 AM 11.88 53.384 2.647 7.25 5.64 9.98
5/10/2023 7:00:00 AM 11.85 53.33 2.5 7.3 2.55 10.07
5/10/2023 7:15:00 AM 11.83 53.294 2.525 7.31 2.08 10.18
5/10/2023 7:30:00 AM 11.83 53.294 2.523 7.31 2.13 10.3
5/10/2023 7:45:00 AM 11.84 53.312 2.536 7.35 1.99 10.4
5/10/2023 8:00:00 AM 11.89 53.402 2.571 7.37 2.09 10.52
5/10/2023 8:15:00 AM 11.94 53.492 2.575 7.39 2.03 10.6
5/10/2023 8:30:00 AM 12.01 53.618 2.559 7.42 1.95 10.68
5/10/2023 8:45:00 AM 12.09 53.762 2.56 7.44 1.92 10.75
5/10/2023 9:00:00 AM 12.19 53.942 2.57 7.47 2 10.81
5/10/2023 9:15:00 AM 12.31 54.158 2.561 7.52 1.91 10.86
5/10/2023 9:30:00 AM 12.44 54.392 2.579 7.53 1.91 10.9
5/10/2023 9:45:00 AM 12.58 54.644 2.559 7.57 2.05 10.94
5/10/2023 10:00:00 AM 12.74 54.932 2.574 7.62 1.9 10.97
5/10/2023 10:15:00 AM 12.93 55.274 2.528 7.63 1.91 11
5/10/2023 10:30:00 AM 13.14 55.652 2.682 7.68 1.94 11
5/10/2023 10:45:00 AM 13.37 56.066 2.801 7.71 5.73 11
5/10/2023 11:00:00 AM 13.63 56.534 2.917 7.76 1.79 10.98
5/10/2023 11:15:00 AM 13.9 57.02 2.875 7.8 1.81 10.97
5/10/2023 11:30:00 AM 14.18 57.524 2.897 7.84 1.69 10.96
5/10/2023 11:45:00 AM 14.49 58.082 2.861 7.88 1.78 10.94
5/10/2023 12:00:00 PM 14.79 58.622 3.076 7.89 5.88 10.9
5/10/2023 12:15:00 PM 15.11 59.198 3.034 7.96 1.8 10.88
5/10/2023 12:30:00 PM 15.41 59.738 3.201 7.97 1.74 10.82
5/10/2023 12:45:00 PM 15.72 60.296 3.396 7.98 1.77 10.79
5/10/2023 1:00:00 PM 16.03 60.854 3.38 8.04 1.69 10.74
5/10/2023 1:15:00 PM 16.32 61.376 3.4 8.08 1.68 10.7
5/10/2023 1:30:00 PM 16.6 61.88 3.173 8.14 1.77 10.67
5/10/2023 1:45:00 PM 16.87 62.366 5.282 8.14 1.7 10.55
5/10/2023 2:00:00 PM 17.14 62.852 5.044 8.19 1.68 10.49
5/10/2023 2:15:00 PM 17.36 63.248 4.995 8.22 5.54 10.44
5/10/2023 2:30:00 PM 17.57 63.626 5.003 8.25 1.67 10.4
5/10/2023 2:45:00 PM 17.75 63.95 4.766 8.27 1.77 10.34
5/10/2023 3:00:00 PM 17.91 64.238 4.789 8.29 5.72 10.29
5/10/2023 3:15:00 PM 18.05 64.49 4.738 8.31 5.54 10.23
5/10/2023 3:30:00 PM 18.13 64.634 4.646 8.33 1.63 10.18
5/10/2023 3:45:00 PM 18.19 64.742 4.423 8.32 5.37 10.12
5/10/2023 4:00:00 PM 18.23 64.814 4.568 8.33 5.77 10.06
5/10/2023 4:15:00 PM 18.26 64.868 4.383 8.32 1.58 10.01
5/10/2023 4:30:00 PM 18.27 64.886 3.658 8.34 1.58 9.99
5/10/2023 4:45:00 PM 18.23 64.814 4.575 8.31 1.67 9.92
5/10/2023 5:00:00 PM 18.2 64.76 4.514 8.29 5.97 9.87
5/10/2023 5:15:00 PM 18.12 64.616 4.214 8.27 5.69 9.84
5/10/2023 5:30:00 PM 18.05 64.49 4.172 8.24 5.38 9.78
5/10/2023 5:45:00 PM 17.95 64.31 4.506 8.2 5.85 9.72
5/10/2023 6:00:00 PM 17.85 64.13 4.018 8.17 6.25 9.69
5/10/2023 6:15:00 PM 17.73 63.914 3.877 8.11 5.35 9.63
5/10/2023 6:30:00 PM 17.59 63.662 3.996 8.04 1.43 9.55
5/10/2023 6:45:00 PM 17.45 63.41 3.994 7.94 4.66 9.46
5/10/2023 7:00:00 PM 17.31 63.158 3.835 7.88 1.52 9.4
5/10/2023 7:15:00 PM 17.17 62.906 3.349 7.81 5.21 9.34
5/10/2023 7:30:00 PM 17.03 62.654 2.189 7.76 5.05 9.28
5/10/2023 7:45:00 PM 16.87 62.366 1.964 7.68 4.97 9.18
5/10/2023 8:00:00 PM 16.69 62.042 2.242 7.63 1.63 9.09
5/10/2023 8:15:00 PM 16.52 61.736 2.428 7.6 5.87 9.01
5/10/2023 8:30:00 PM 16.34 61.412 2.761 7.52 1.66 8.95
5/10/2023 8:45:00 PM 16.16 61.088 2.593 7.46 5.21 8.94
5/10/2023 9:00:00 PM 15.97 60.746 2.781 7.45 1.57 8.92
5/10/2023 9:15:00 PM 15.79 60.422 2.592 7.41 5.3 8.93
5/10/2023 9:30:00 PM 15.61 60.098 2.518 7.41 1.62 8.95
5/10/2023 9:45:00 PM 15.43 59.774 2.592 7.36 1.62 8.97
5/10/2023 10:00:00 PM 15.25 59.45 2.269 7.44 1.7 9.01
5/10/2023 10:15:00 PM 15.08 59.144 2.326 7.44 1.74 9.04
5/10/2023 10:30:00 PM 14.91 58.838 2.363 7.38 1.76 9.07
5/10/2023 10:45:00 PM 14.75 58.55 2.38 7.4 1.81 9.1
5/10/2023 11:00:00 PM 14.6 58.28 2.365 7.38 1.7 9.13
5/10/2023 11:15:00 PM 14.46 58.028 2.259 7.34 1.73 9.15
5/10/2023 11:30:00 PM 14.34 57.812 2.227 7.35 1.79 9.2
5/10/2023 11:45:00 PM 14.21 57.578 2.996 7.34 1.68 9.18
5/11/2023 12:00:00 AM 14.09 57.362 2.991 7.33 1.87 9.22
5/11/2023 12:15:00 AM 13.98 57.164 3.182 7.29 1.74 9.23
5/11/2023 12:30:00 AM 13.87 56.966 3.129 7.31 1.89 9.26
5/11/2023 12:45:00 AM 13.77 56.786 3.211 7.3 1.74 9.28
5/11/2023 1:00:00 AM 13.66 56.588 3.324 7.29 1.66 9.3
5/11/2023 1:15:00 AM 13.57 56.426 3.266 7.27 1.86 9.33
5/11/2023 1:30:00 AM 13.49 56.282 3.233 7.26 1.77 9.35
5/11/2023 1:45:00 AM 13.41 56.138 3.142 7.26 1.84 9.37
5/11/2023 2:00:00 AM 13.35 56.03 3.041 7.26 1.72 9.39
5/11/2023 2:15:00 AM 13.31 55.958 3.035 7.25 1.72 9.4
5/11/2023 2:30:00 AM 13.26 55.868 3.004 7.25 1.74 9.41
5/11/2023 2:45:00 AM 13.25 55.85 2.98 7.25 1.66 9.42
5/11/2023 3:00:00 AM 13.2 55.76 2.991 7.22 1.71 9.42
5/11/2023 3:15:00 AM 13.19 55.742 2.936 7.24 1.62 9.42
5/11/2023 3:30:00 AM 13.15 55.67 2.768 7.24 1.62 9.44
5/11/2023 3:45:00 AM 13.12 55.616 2.889 7.24 1.61 9.44
5/11/2023 4:00:00 AM 13.08 55.544 2.963 7.22 1.79 9.44
5/11/2023 4:15:00 AM 13.05 55.49 2.992 7.24 1.93 9.45
5/11/2023 4:30:00 AM 13.02 55.436 4.13 7.21 1.82 9.42
5/11/2023 4:45:00 AM 12.98 55.364 4.935 7.2 1.72 9.41
5/11/2023 5:00:00 AM 12.93 55.274 5.126 7.19 1.76 9.41
5/11/2023 5:15:00 AM 12.9 55.22 5.208 7.18 1.76 9.42
5/11/2023 5:30:00 AM 12.85 55.13 5.177 7.2 1.66 9.43
5/11/2023 5:45:00 AM 12.82 55.076 5.31 7.18 1.98 9.44
5/11/2023 6:00:00 AM 12.77 54.986 5.294 7.2 1.7 9.46
5/11/2023 6:15:00 AM 12.73 54.914 5.305 7.2 1.56 9.52
5/11/2023 6:30:00 AM 12.7 54.86 5.223 7.19 1.71 9.6
5/11/2023 6:45:00 AM 12.68 54.824 5.215 7.23 1.52 9.71
5/11/2023 7:00:00 AM 12.68 54.824 5.13 7.25 1.62 9.83
5/11/2023 7:15:00 AM 12.68 54.824 5.219 7.24 1.53 9.96
5/11/2023 7:30:00 AM 12.7 54.86 5.172 7.31 1.49 10.12
5/11/2023 7:45:00 AM 12.73 54.914 5.19 7.34 1.52 10.26
5/11/2023 8:00:00 AM 12.79 55.022 5.172 7.36 1.6 10.41
5/11/2023 8:15:00 AM 12.87 55.166 5.158 7.42 1.37 10.53
5/11/2023 8:30:00 AM 12.96 55.328 5.19 7.47 1.47 10.64
5/11/2023 8:45:00 AM 13.06 55.508 5.21 7.53 1.48 10.73
5/11/2023 9:00:00 AM 13.18 55.724 5.166 7.56 1.38 10.82
5/11/2023 9:15:00 AM 13.3 55.94 5.148 7.62 1.41 10.88
5/11/2023 9:30:00 AM 13.44 56.192 5.152 7.68 1.41 10.95
5/11/2023 9:45:00 AM 13.6 56.48 5.077 7.75 1.51 11.01
5/11/2023 10:00:00 AM 13.78 56.804 4.765 7.81 1.36 11.07
5/11/2023 10:15:00 AM 13.97 57.146 4.816 7.87 1.52 11.11
5/11/2023 10:30:00 AM 14.19 57.542 4.293 7.92 1.36 11.14
5/11/2023 10:45:00 AM 14.42 57.956 4.387 8.01 1.4 11.13
5/11/2023 11:00:00 AM 14.66 58.388 4.353 8.06 1.4 11.16
5/11/2023 11:15:00 AM 14.93 58.874 4.288 8.13 1.4 11.17
5/11/2023 11:30:00 AM 15.2 59.36 0.899 8.23 1.41 11.26
5/11/2023 11:45:00 AM 15.48 59.864 1.157 8.26 1.42 11.24
5/11/2023 12:00:00 PM 15.78 60.404 4.498 8.27 1.34 11.08
5/11/2023 12:15:00 PM 16.1 60.98 4.308 8.32 1.39 11.04
5/11/2023 12:30:00 PM 16.41 61.538 4.092 8.39 1.31 11.01
5/11/2023 12:45:00 PM 16.74 62.132 4.266 8.44 1.49 10.97
5/11/2023 1:00:00 PM 17.06 62.708 4.2 8.46 5.03 10.92
5/11/2023 1:15:00 PM 17.38 63.284 4.142 8.52 1.35 10.87
5/11/2023 1:30:00 PM 17.7 63.86 4.142 8.56 1.35 10.81
5/11/2023 1:45:00 PM 17.98 64.364 4.136 8.6 5.16 10.78
5/11/2023 2:00:00 PM 18.24 64.832 4.15 8.63 5.14 10.74
5/11/2023 2:15:00 PM 18.46 65.228 2.002 8.71 1.21 10.74
5/11/2023 2:30:00 PM 18.63 65.534 2.621 8.73 1.32 10.66
5/11/2023 2:45:00 PM 18.81 65.858 2.815 8.74 1.62 10.6
5/11/2023 3:00:00 PM 18.98 66.164 5.191 8.72 1.19 10.45
5/11/2023 3:15:00 PM 19.13 66.434 4.576 8.73 1.22 10.42
5/11/2023 3:30:00 PM 19.27 66.686 3.702 8.75 1.2 10.37
5/11/2023 3:45:00 PM 19.36 66.848 2.402 8.78 1.38 10.33
5/11/2023 4:00:00 PM 19.4 66.92 1.37 8.77 1.24 10.22
5/11/2023 4:15:00 PM 19.48 67.064 1.635 8.76 1.27 10.19
5/11/2023 4:30:00 PM 19.49 67.082 1.678 8.74 1.25 10.1
5/11/2023 4:45:00 PM 19.54 67.172 1.771 8.73 1.22 10.07
5/11/2023 5:00:00 PM 19.44 66.992 1.835 8.69 1.26 9.85
5/11/2023 5:15:00 PM 19.37 66.866 1.894 8.59 1.24 9.7
5/11/2023 5:30:00 PM 19.32 66.776 1.86 8.57 1.52 9.68
5/11/2023 5:45:00 PM 19.24 66.632 1.846 8.52 1.31 9.63
5/11/2023 6:00:00 PM 19.19 66.542 1.942 8.45 1.66 9.56
5/11/2023 6:15:00 PM 19.1 66.38 2.224 8.41 1.26 9.48
5/11/2023 6:30:00 PM 18.97 66.146 2.295 8.33 1.23 9.4
5/11/2023 6:45:00 PM 18.83 65.894 2.268 8.23 1.42 9.29
5/11/2023 7:00:00 PM 18.72 65.696 2.117 8.12 1.42 9.17
5/11/2023 7:15:00 PM 18.58 65.444 2.257 8 1.24 9.04
5/11/2023 7:30:00 PM 18.42 65.156 2.599 7.85 4.83 8.91
5/11/2023 7:45:00 PM 18.27 64.886 2.564 7.76 4.62 8.81
5/11/2023 8:00:00 PM 18.11 64.598 2.592 7.67 4.89 8.72
5/11/2023 8:15:00 PM 17.94 64.292 2.663 7.64 1.29 8.65
5/11/2023 8:30:00 PM 17.76 63.968 2.639 7.57 1.41 8.58
5/11/2023 8:45:00 PM 17.59 63.662 2.581 7.51 5.54 8.56
5/11/2023 9:00:00 PM 17.41 63.338 2.641 7.49 1.28 8.55
5/11/2023 9:15:00 PM 17.23 63.014 2.005 7.45 5.04 8.56
5/11/2023 9:30:00 PM 17.05 62.69 2.286 7.44 1.38 8.57
5/11/2023 9:45:00 PM 16.87 62.366 2.168 7.38 5.51 8.59
5/11/2023 10:00:00 PM 16.69 62.042 2.12 7.38 4.81 8.61
5/11/2023 10:15:00 PM 16.51 61.718 2.216 7.37 5.04 8.65
5/11/2023 10:30:00 PM 16.34 61.412 2.315 7.35 5.17 8.68
5/11/2023 10:45:00 PM 16.17 61.106 1.76 7.39 1.41 8.73
5/11/2023 11:00:00 PM 16.01 60.818 2.175 7.32 1.42 8.74
5/11/2023 11:15:00 PM 15.86 60.548 2.134 7.34 1.82 8.77
5/11/2023 11:30:00 PM 15.71 60.278 2.191 7.29 5.12 8.8
5/11/2023 11:45:00 PM 15.57 60.026 2.019 7.29 5.42 8.84
5/12/2023 12:00:00 AM 15.44 59.792 1.999 7.32 1.47 8.88
5/12/2023 12:15:00 AM 15.31 59.558 2.006 7.32 1.39 8.9
5/12/2023 12:30:00 AM 15.19 59.342 2.004 7.34 1.52 8.94
5/12/2023 12:45:00 AM 15.08 59.144 1.889 7.34 1.62 8.97
5/12/2023 1:00:00 AM 14.96 58.928 1.836 7.26 1.69 8.99
5/12/2023 1:15:00 AM 14.85 58.73 1.724 7.34 1.57 9.02
5/12/2023 1:30:00 AM 14.75 58.55 1.653 7.29 1.48 9.04
5/12/2023 1:45:00 AM 14.66 58.388 1.721 7.32 1.49 9.07
5/12/2023 2:00:00 AM 14.58 58.244 1.632 7.33 1.47 9.09
5/12/2023 2:15:00 AM 14.5 58.1 1.764 7.31 1.48 9.1
5/12/2023 2:30:00 AM 14.43 57.974 1.736 7.29 1.57 9.12
5/12/2023 2:45:00 AM 14.37 57.866 1.706 7.27 1.55 9.13
5/12/2023 3:00:00 AM 14.32 57.776 1.602 7.27 5.18 9.15
5/12/2023 3:15:00 AM 14.28 57.704 1.797 7.27 1.55 9.15
5/12/2023 3:30:00 AM 14.26 57.668 1.657 7.25 3.7 9.16
5/12/2023 3:45:00 AM 14.21 57.578 1.237 7.27 1.43 9.18
5/12/2023 4:00:00 AM 14.18 57.524 1.248 7.27 1.52 9.18
5/12/2023 4:15:00 AM 14.16 57.488 1.33 7.27 1.52 9.19
5/12/2023 4:30:00 AM 14.14 57.452 1.305 7.25 1.53 9.19
5/12/2023 4:45:00 AM 14.12 57.416 1.301 7.26 1.52 9.2
5/12/2023 5:00:00 AM 14.1 57.38 1.333 7.23 1.54 9.19
5/12/2023 5:15:00 AM 14.08 57.344 1.313 7.26 1.54 9.21
5/12/2023 5:30:00 AM 14.07 57.326 1.294 7.26 1.61 9.21
5/12/2023 5:45:00 AM 14.06 57.308 1.253 7.24 1.63 9.22
5/12/2023 6:00:00 AM 14.04 57.272 2.255 7.23 1.45 9.22
5/12/2023 6:15:00 AM 14.03 57.254 1.887 7.26 1.48 9.28
5/12/2023 6:30:00 AM 14.04 57.272 1.942 7.24 1.57 9.38
5/12/2023 6:45:00 AM 14.05 57.29 1.917 7.29 1.71 9.51
5/12/2023 7:00:00 AM 14.07 57.326 2.055 7.33 1.36 9.68
5/12/2023 7:15:00 AM 14.09 57.362 2.061 7.33 1.32 9.82
5/12/2023 7:30:00 AM 14.13 57.434 2.122 7.4 1.43 9.99
5/12/2023 7:45:00 AM 14.18 57.524 2.318 7.44 1.34 10.15
5/12/2023 8:00:00 AM 14.26 57.668 2.552 7.49 1.25 10.32
5/12/2023 8:15:00 AM 14.35 57.83 2.757 7.54 1.33 10.45
5/12/2023 8:30:00 AM 14.47 58.046 2.848 7.6 1.49 10.57
5/12/2023 8:45:00 AM 14.58 58.244 2.988 7.63 1.35 10.68
5/12/2023 9:00:00 AM 14.73 58.514 2.955 7.73 1.46 10.77
5/12/2023 9:15:00 AM 14.87 58.766 2.777 7.81 1.28 10.84
5/12/2023 9:30:00 AM 15.03 59.054 2.937 7.85 1.21 10.9
5/12/2023 9:45:00 AM 15.21 59.378 2.852 7.95 1.27 10.96
5/12/2023 10:00:00 AM 15.4 59.72 2.76 8.01 1.21 11.03
5/12/2023 10:15:00 AM 15.58 60.044 2.705 8.08 1.2 11.08
5/12/2023 10:30:00 AM 15.77 60.386 2.837 8.16 1.24 11.13
5/12/2023 10:45:00 AM 16.01 60.818 2.815 8.25 1.3 11.19
5/12/2023 11:00:00 AM 16.27 61.286 2.836 8.33 5.48 11.24
5/12/2023 11:15:00 AM 16.5 61.7 2.779 8.41 4.67 11.28
5/12/2023 11:30:00 AM 16.76 62.168 2.759 8.49 5.19 11.29
5/12/2023 11:45:00 AM 17.03 62.654 1.602 8.61 1.27 11.36
5/12/2023 12:00:00 PM 17.35 63.23 1.863 8.65 5.35 11.36
5/12/2023 12:15:00 PM 17.62 63.716 2.758 8.7 4.85 11.28
5/12/2023 12:30:00 PM 17.94 64.292 2.814 8.75 4.63 11.29
5/12/2023 12:45:00 PM 18.25 64.85 2.757 8.8 1.33 11.26
5/12/2023 1:00:00 PM 18.55 65.39 2.682 8.86 1.17 11.23
5/12/2023 1:15:00 PM 18.84 65.912 2.782 8.9 1.26 11.18
5/12/2023 1:30:00 PM 19.13 66.434 2.802 8.94 1.42 11.18
5/12/2023 1:45:00 PM 19.43 66.974 2.793 8.97 1.21 11.12
5/12/2023 2:00:00 PM 19.65 67.37 2.626 8.99 1.16 11.07
5/12/2023 2:15:00 PM 19.81 67.658 2.522 9.02 1.24 11
5/12/2023 2:30:00 PM 19.87 67.766 2.534 9.02 1.1 10.87
5/12/2023 2:45:00 PM 20.05 68.09 2.463 9.06 1.08 10.86
5/12/2023 3:00:00 PM 20.06 68.108 2.425 9.05 1.19 10.79
5/12/2023 3:15:00 PM 20.06 68.108 2.208 9.06 1.11 10.64
5/12/2023 3:30:00 PM 20.12 68.216 2.045 9.09 1.49 10.65
5/12/2023 3:45:00 PM 20.17 68.306 0.991 9.1 1.11 10.66
5/12/2023 4:00:00 PM 20.23 68.414 2.426 9.1 1.17 10.58
5/12/2023 4:15:00 PM 20.23 68.414 1.696 9.07 4.79 10.42
5/12/2023 4:30:00 PM 20.32 68.576 1.815 9.09 1.18 10.45
5/12/2023 4:45:00 PM 20.35 68.63 1.435 9.11 1.26 10.41
5/12/2023 5:00:00 PM 20.36 68.648 1.662 9.09 1.12 10.33
5/12/2023 5:15:00 PM 20.36 68.648 1.845 9.07 1.18 10.23
5/12/2023 5:30:00 PM 20.37 68.666 1.882 9.05 1.03 10.08
5/12/2023 5:45:00 PM 20.3 68.54 1.897 8.96 1.11 9.92
5/12/2023 6:00:00 PM 20.25 68.45 1.988 8.92 1.09 9.73
5/12/2023 6:15:00 PM 20.17 68.306 2.02 8.83 1.16 9.57
5/12/2023 6:30:00 PM 20.08 68.144 2.168 8.75 4.23 9.42
5/12/2023 6:45:00 PM 19.98 67.964 2.235 8.66 1.16 9.25
5/12/2023 7:00:00 PM 19.88 67.784 2.219 8.5 1.21 9.07
5/12/2023 7:15:00 PM 19.78 67.604 2.142 8.38 1.19 8.93
5/12/2023 7:30:00 PM 19.66 67.388 1.996 8.24 1.14 8.79
5/12/2023 7:45:00 PM 19.54 67.172 2.008 8.08 1.16 8.65
5/12/2023 8:00:00 PM 19.41 66.938 1.903 7.91 4.5 8.51
5/12/2023 8:15:00 PM 19.26 66.668 1.901 7.81 4.24 8.39
5/12/2023 8:30:00 PM 19.1 66.38 1.867 7.73 1.16 8.29
5/12/2023 8:45:00 PM 18.94 66.092 1.946 7.66 1.3 8.25
5/12/2023 9:00:00 PM 18.77 65.786 2.011 7.61 1.36 8.21
5/12/2023 9:15:00 PM 18.61 65.498 2.096 7.53 4.86 8.2
5/12/2023 9:30:00 PM 18.45 65.21 2.124 7.52 1.29 8.21
5/12/2023 9:45:00 PM 18.3 64.94 2.156 7.48 1.34 8.21
5/12/2023 10:00:00 PM 18.15 64.67 2.301 7.45 1.53 8.22
5/12/2023 10:15:00 PM 18 64.4 2.243 7.43 1.41 8.25
5/12/2023 10:30:00 PM 17.85 64.13 2.155 7.4 1.37 8.27
5/12/2023 10:45:00 PM 17.7 63.86 2.14 7.38 5.24 8.3
5/12/2023 11:00:00 PM 17.56 63.608 2.173 7.38 1.38 8.33
5/12/2023 11:15:00 PM 17.41 63.338 2.067 7.35 4.59 8.35
5/12/2023 11:30:00 PM 17.27 63.086 2.094 7.34 5.12 8.38
5/12/2023 11:45:00 PM 17.13 62.834 2.058 7.35 1.36 8.41
5/13/2023 12:00:00 AM 17 62.6 2.03 7.34 1.31 8.43
5/13/2023 12:15:00 AM 16.88 62.384 2.049 7.33 1.44 8.46
5/13/2023 12:30:00 AM 16.76 62.168 2.114 7.29 4.87 8.48
5/13/2023 12:45:00 AM 16.66 61.988 2.137 7.32 1.35 8.52
5/13/2023 1:00:00 AM 16.56 61.808 2.152 7.33 4.86 8.53
5/13/2023 1:15:00 AM 16.48 61.664 2.046 7.27 1.5 8.56
5/13/2023 1:30:00 AM 16.38 61.484 2.182 7.27 4.93 8.57
5/13/2023 1:45:00 AM 16.31 61.358 2.172 7.33 1.36 8.6
5/13/2023 2:00:00 AM 16.23 61.214 2.159 7.26 4.76 8.61
5/13/2023 2:15:00 AM 16.16 61.088 2.156 7.28 1.4 8.63
5/13/2023 2:30:00 AM 16.09 60.962 2.103 7.25 5 8.64
5/13/2023 2:45:00 AM 16.02 60.836 2.007 7.26 5.6 8.66
5/13/2023 3:00:00 AM 15.97 60.746 2.063 7.25 4.82 8.67
5/13/2023 3:15:00 AM 15.91 60.638 2.034 7.26 1.44 8.69
5/13/2023 3:30:00 AM 15.87 60.566 1.932 7.25 1.39 8.69
5/13/2023 3:45:00 AM 15.83 60.494 1.816 7.21 1.45 8.71
5/13/2023 4:00:00 AM 15.79 60.422 1.994 7.24 1.47 8.71
5/13/2023 4:15:00 AM 15.77 60.386 2.054 7.22 1.51 8.72
5/13/2023 4:30:00 AM 15.74 60.332 2.042 7.22 1.45 8.73
5/13/2023 4:45:00 AM 15.71 60.278 2.057 7.23 1.45 8.73
5/13/2023 5:00:00 AM 15.71 60.278 2.045 7.23 1.81 8.74
5/13/2023 5:15:00 AM 15.69 60.242 2.065 7.2 4.81 8.74
5/13/2023 5:30:00 AM 15.68 60.224 2.108 7.21 1.4 8.74
5/13/2023 5:45:00 AM 15.66 60.188 2.077 7.22 1.42 8.75
5/13/2023 6:00:00 AM 15.66 60.188 2.077 7.23 1.7 8.77
5/13/2023 6:15:00 AM 15.64 60.152 2.05 7.2 1.35 8.82
5/13/2023 6:30:00 AM 15.64 60.152 2.054 7.21 1.48 8.91
5/13/2023 6:45:00 AM 15.64 60.152 2.095 7.27 1.26 9.02
5/13/2023 7:00:00 AM 15.67 60.206 2.135 7.3 1.54 9.21
5/13/2023 7:15:00 AM 15.7 60.26 2.151 7.33 1.24 9.43
5/13/2023 7:30:00 AM 15.73 60.314 2.15 7.37 1.23 9.62
5/13/2023 7:45:00 AM 15.79 60.422 2.132 7.42 1.24 9.85
5/13/2023 8:00:00 AM 15.86 60.548 2.071 7.5 1.27 10.1
5/13/2023 8:15:00 AM 15.93 60.674 2.084 7.62 1.27 10.3
5/13/2023 8:30:00 AM 16.02 60.836 2.09 7.67 4.44 10.52
5/13/2023 8:45:00 AM 16.14 61.052 2.158 7.8 1.25 10.68
5/13/2023 9:00:00 AM 16.26 61.268 2.197 7.93 1.26 10.84
5/13/2023 9:15:00 AM 16.36 61.448 2.117 8.07 1.23 10.98
5/13/2023 9:30:00 AM 16.47 61.646 2.1 8.17 1.24 11.1
5/13/2023 9:45:00 AM 16.58 61.844 2.078 8.28 1.21 11.2
5/13/2023 10:00:00 AM 16.68 62.024 2.108 8.38 1.37 11.28
5/13/2023 10:15:00 AM 16.8 62.24 2.229 8.48 1.33 11.34
5/13/2023 10:30:00 AM 16.92 62.456 2.246 8.55 1.28 11.41
5/13/2023 10:45:00 AM 17.04 62.672 2.199 8.6 1.27 11.48
5/13/2023 11:00:00 AM 17.17 62.906 2.143 8.69 4.88 11.53
5/13/2023 11:15:00 AM 17.29 63.122 2.047 8.76 1.26 11.59
5/13/2023 11:30:00 AM 17.42 63.356 2.195 8.8 1.41 11.59
5/13/2023 11:45:00 AM 17.57 63.626 1.723 8.87 1.35 11.67
5/13/2023 12:00:00 PM 17.73 63.914 1.864 8.91 1.52 11.68
5/13/2023 12:15:00 PM 17.91 64.238 1.914 8.96 1.17 11.69
5/13/2023 12:30:00 PM 18.06 64.508 1.955 8.98 5.06 11.68
5/13/2023 12:45:00 PM 18.24 64.832 1.982 9.05 1.42 11.68
5/13/2023 1:00:00 PM 18.42 65.156 1.946 9.08 5.51 11.65
5/13/2023 1:15:00 PM 18.57 65.426 1.938 9.12 1.18 11.64
5/13/2023 1:30:00 PM 18.73 65.714 1.911 9.16 1.25 11.63
5/13/2023 1:45:00 PM 18.91 66.038 2.104 9.2 1.21 11.6
5/13/2023 2:00:00 PM 18.99 66.182 2.271 9.22 4.76 11.49
5/13/2023 2:15:00 PM 19.25 66.65 2.309 9.24 1.21 11.49
5/13/2023 2:30:00 PM 19.48 67.064 2.348 9.25 4.95 11.46
5/13/2023 2:45:00 PM 19.67 67.406 2.439 9.27 1.2 11.38
5/13/2023 3:00:00 PM 19.83 67.694 2.494 9.28 1.17 11.28
5/13/2023 3:15:00 PM 19.91 67.838 2.509 9.29 1.44 11.17
5/13/2023 3:30:00 PM 20.05 68.09 2.461 9.28 1.17 11.1
5/13/2023 3:45:00 PM 20.05 68.09 2.395 9.29 1.24 10.97
5/13/2023 4:00:00 PM 20.01 68.018 2.413 9.28 1.25 10.76
5/13/2023 4:15:00 PM 20.02 68.036 2.372 9.26 1.21 10.73
5/13/2023 4:30:00 PM 20.01 68.018 2.296 9.25 1.17 10.58
5/13/2023 4:45:00 PM 20.03 68.054 2.286 9.23 1.19 10.52
5/13/2023 5:00:00 PM 20.04 68.07201 2.37 9.2 4.85 10.45
5/13/2023 5:15:00 PM 19.95 67.91 2.304 9.18 1.19 10.3
5/13/2023 5:30:00 PM 19.89 67.802 2.292 9.16 1.31 10.22
5/13/2023 5:45:00 PM 19.83 67.694 2.162 9.11 1.21 10.08
5/13/2023 6:00:00 PM 19.77 67.586 2.111 9.08 4.57 9.98
5/13/2023 6:15:00 PM 19.71 67.478 2.068 9.06 1.22 9.94
5/13/2023 6:30:00 PM 19.65 67.37 2.008 8.98 1.27 9.8
5/13/2023 6:45:00 PM 19.57 67.226 1.988 8.94 1.35 9.61
5/13/2023 7:00:00 PM 19.47 67.046 1.564 8.81 1.37 9.38
5/13/2023 7:15:00 PM 19.33 66.794 1.542 8.69 1.25 9.15
5/13/2023 7:30:00 PM 19.21 66.578 1.37 8.52 1.3 8.93
5/13/2023 7:45:00 PM 19.08 66.344 1.619 8.32 1.27 8.73
5/13/2023 8:00:00 PM 18.97 66.146 1.047 8.16 1.26 8.57
5/13/2023 8:15:00 PM 18.88 65.984 1.384 8 1.35 8.43
5/13/2023 8:30:00 PM 18.76 65.768 1.344 7.84 4.86 8.32
5/13/2023 8:45:00 PM 18.62 65.516 1.412 7.77 4.83 8.24
5/13/2023 9:00:00 PM 18.49 65.282 1.787 7.71 1.53 8.2
5/13/2023 9:15:00 PM 18.36 65.048 1.899 7.61 1.39 8.18
5/13/2023 9:30:00 PM 18.23 64.814 1.726 7.61 1.36 8.18
5/13/2023 9:45:00 PM 18.08 64.544 1.679 7.56 1.33 8.18
5/13/2023 10:00:00 PM 17.94 64.292 1.795 7.53 1.37 8.2
5/13/2023 10:15:00 PM 17.79 64.022 1.94 7.5 1.37 8.22
5/13/2023 10:30:00 PM 17.66 63.788 2.034 7.44 5.1 8.23
5/13/2023 10:45:00 PM 17.5 63.5 2.096 7.46 1.46 8.26
5/13/2023 11:00:00 PM 17.35 63.23 1.98 7.42 5.44 8.28
5/13/2023 11:15:00 PM 17.19 62.942 1.975 7.42 1.5 8.31
5/13/2023 11:30:00 PM 17.04 62.672 1.272 7.42 1.41 8.35
5/13/2023 11:45:00 PM 16.9 62.42 1.319 7.41 1.38 8.4
5/14/2023 12:00:00 AM 16.74 62.132 2.257 7.34 5.36 8.39
5/14/2023 12:15:00 AM 16.59 61.862 2.297 7.37 1.51 8.42
5/14/2023 12:30:00 AM 16.44 61.592 2.214 7.32 1.4 8.47
5/14/2023 12:45:00 AM 16.29 61.322 1.764 7.34 1.5 8.52
5/14/2023 1:00:00 AM 16.15 61.07 1.255 7.34 5.11 8.57
5/14/2023 1:15:00 AM 16.01 60.818 1.404 7.31 6.02 8.59
5/14/2023 1:30:00 AM 15.86 60.548 1.247 7.31 5.74 8.63
5/14/2023 1:45:00 AM 15.73 60.314 1.106 7.32 1.45 8.67
5/14/2023 2:00:00 AM 15.6 60.08 1.048 7.31 1.48 8.7
5/14/2023 2:15:00 AM 15.48 59.864 1.027 7.31 1.41 8.74
5/14/2023 2:30:00 AM 15.35 59.63 0.834 7.32 1.47 8.77
5/14/2023 2:45:00 AM 15.23 59.414 1.212 7.31 1.45 8.8
5/14/2023 3:00:00 AM 15.11 59.198 1.299 7.27 4.98 8.82
5/14/2023 3:15:00 AM 14.99 58.982 1.368 7.3 1.42 8.85
5/14/2023 3:30:00 AM 14.87 58.766 1.378 7.29 5.49 8.87
5/14/2023 3:45:00 AM 14.77 58.586 1.38 7.3 1.51 8.91
5/14/2023 4:00:00 AM 14.66 58.388 1.229 7.31 1.49 8.94
5/14/2023 4:15:00 AM 14.55 58.19 1.223 7.34 1.51 8.97
5/14/2023 4:30:00 AM 14.46 58.028 1.265 7.32 1.46 9
5/14/2023 4:45:00 AM 14.38 57.884 1.086 7.32 1.51 9.04
5/14/2023 5:00:00 AM 14.27 57.686 1.185 7.29 5.41 9.04
5/14/2023 5:15:00 AM 14.17 57.506 0.804 7.32 1.43 9.08
5/14/2023 5:30:00 AM 14.1 57.38 1.231 7.28 1.58 9.09
5/14/2023 5:45:00 AM 14.02 57.236 2.709 7.26 1.42 9.08
5/14/2023 6:00:00 AM 13.95 57.11 1.732 7.29 1.46 9.16
5/14/2023 6:15:00 AM 13.89 57.002 1.704 7.3 1.48 9.26
5/14/2023 6:30:00 AM 13.82 56.876 1.541 7.31 1.28 9.43
5/14/2023 6:45:00 AM 13.77 56.786 1.714 7.35 1.51 9.57
5/14/2023 7:00:00 AM 13.74 56.732 1.673 7.35 5.43 9.76
5/14/2023 7:15:00 AM 13.72 56.696 1.64 7.41 5.1 9.98
5/14/2023 7:30:00 AM 13.72 56.696 1.026 7.49 1.22 10.28
5/14/2023 7:45:00 AM 13.73 56.714 1.348 7.53 1.28 10.46
5/14/2023 8:00:00 AM 13.79 56.822 1.462 7.61 1.21 10.69
5/14/2023 8:15:00 AM 13.87 56.966 1.776 7.7 1.25 10.93
5/14/2023 8:30:00 AM 13.95 57.11 1.826 7.77 4.77 11.08
5/14/2023 8:45:00 AM 14.03 57.254 1.847 7.91 1.13 11.26
5/14/2023 9:00:00 AM 14.1 57.38 1.696 8 1.12 11.39
5/14/2023 9:15:00 AM 14.19 57.542 1.694 8.13 1.2 11.49
5/14/2023 9:30:00 AM 14.32 57.776 1.752 8.21 1.19 11.54
5/14/2023 9:45:00 AM 14.46 58.028 1.781 8.27 1.13 11.64
5/14/2023 10:00:00 AM 14.58 58.244 1.7 8.36 1.1 11.66
5/14/2023 10:15:00 AM 14.76 58.568 1.574 8.42 1.23 11.67
5/14/2023 10:30:00 AM 14.94 58.892 1.551 8.47 1.09 11.69
5/14/2023 10:45:00 AM 15.12 59.216 1.555 8.5 1.11 11.7
5/14/2023 11:00:00 AM 15.33 59.594 1.579 8.55 1.12 11.71
5/14/2023 11:15:00 AM 15.54 59.972 1.544 8.6 1.06 11.72
5/14/2023 11:30:00 AM 15.78 60.404 1.496 8.63 1.08 11.73
5/14/2023 11:45:00 AM 16.04 60.872 1.244 8.69 1.07 11.74
5/14/2023 12:00:00 PM 16.33 61.394 1.437 8.71 4.84 11.71
5/14/2023 12:15:00 PM 16.6 61.88 1.571 8.77 1.11 11.7
5/14/2023 12:30:00 PM 16.91 62.438 1.701 8.81 1.03 11.69
5/14/2023 12:45:00 PM 17.22 62.996 1.738 8.83 4.7 11.66
5/14/2023 1:00:00 PM 17.52 63.536 1.811 8.89 1.09 11.64
5/14/2023 1:15:00 PM 17.82 64.076 1.673 8.91 4.49 11.61
5/14/2023 1:30:00 PM 18.11 64.598 1.675 8.97 1.06 11.56
5/14/2023 1:45:00 PM 18.4 65.12 1.637 8.97 1.03 11.52
5/14/2023 2:00:00 PM 18.63 65.534 1.887 9.03 1.27 11.48
5/14/2023 2:15:00 PM 18.86 65.948 1.996 9.06 1.06 11.41
5/14/2023 2:30:00 PM 19.06 66.308 2.287 9.08 4.46 11.35
5/14/2023 2:45:00 PM 19.23 66.614 2.148 9.12 1.06 11.3
5/14/2023 3:00:00 PM 19.33 66.794 2.259 9.14 1.03 11.25
5/14/2023 3:15:00 PM 19.42 66.956 2.196 9.16 1.24 11.22
5/14/2023 3:30:00 PM 19.5 67.1 1.964 9.16 1.09 11.13
5/14/2023 3:45:00 PM 19.53 67.154 1.95 9.17 1.06 11.06
5/14/2023 4:00:00 PM 19.52 67.136 2.134 9.17 5.77 10.98
5/14/2023 4:15:00 PM 19.5 67.1 2.045 9.18 1.33 10.95
5/14/2023 4:30:00 PM 19.45 67.01 2.295 9.16 1.1 10.84
5/14/2023 4:45:00 PM 19.37 66.866 2.389 9.16 1.11 10.78
5/14/2023 5:00:00 PM 19.29 66.722 2.238 9.13 5.35 10.71
5/14/2023 5:15:00 PM 19.19 66.542 2.199 9.13 1.08 10.63
5/14/2023 5:30:00 PM 19.11 66.398 2.042 9.1 1.06 10.58
5/14/2023 5:45:00 PM 18.97 66.146 2.519 9.07 5.76 10.42
5/14/2023 6:00:00 PM 18.87 65.966 2.464 9.04 4.54 10.29
5/14/2023 6:15:00 PM 18.78 65.804 2.448 8.98 1.08 10.19
5/14/2023 6:30:00 PM 18.67 65.606 2.579 8.94 4.74 10.07
5/14/2023 6:45:00 PM 18.54 65.372 2.506 8.85 1.31 9.83
5/14/2023 7:00:00 PM 18.4 65.12 2.355 8.76 2.89 9.68
5/14/2023 7:15:00 PM 18.27 64.886 2.21 8.64 1.08 9.49
5/14/2023 7:30:00 PM 18.11 64.598 2.077 8.48 1.12 9.31
5/14/2023 7:45:00 PM 17.96 64.328 2.141 8.3 1.17 9.11
5/14/2023 8:00:00 PM 17.83 64.094 2.443 8.12 1.08 8.92
5/14/2023 8:15:00 PM 17.67 63.806 2.414 7.96 1.2 8.76
5/14/2023 8:30:00 PM 17.53 63.554 2.498 7.81 6.57 8.62
5/14/2023 8:45:00 PM 17.38 63.284 2.492 7.75 1.19 8.53
5/14/2023 9:00:00 PM 17.25 63.05 2.501 7.66 5.56 8.49
5/14/2023 9:15:00 PM 17.1 62.78 2.409 7.63 1.37 8.46
5/14/2023 9:30:00 PM 16.93 62.474 2.454 7.57 1.28 8.45
5/14/2023 9:45:00 PM 16.79 62.222 2.506 7.54 4.81 8.47
5/14/2023 10:00:00 PM 16.59 61.862 2.585 7.51 5.24 8.48
5/14/2023 10:15:00 PM 16.43 61.574 2.501 7.49 5.33 8.51
5/14/2023 10:30:00 PM 16.25 61.25 2.398 7.47 4.69 8.54
5/14/2023 10:45:00 PM 16.08 60.944 2.329 7.49 1.31 8.56
5/14/2023 11:00:00 PM 15.91 60.638 2.254 7.42 1.28 8.6
5/14/2023 11:15:00 PM 15.74 60.332 2.128 7.43 1.32 8.63
5/14/2023 11:30:00 PM 15.57 60.026 2.087 7.42 1.27 8.68
5/14/2023 11:45:00 PM 15.42 59.756 2.018 7.38 1.27 8.71
5/15/2023 12:00:00 AM 15.27 59.486 2.081 7.4 1.33 8.76
5/15/2023 12:15:00 AM 15.1 59.18 1.936 7.4 1.35 8.79
5/15/2023 12:30:00 AM 14.95 58.91 1.908 7.41 4.86 8.83
5/15/2023 12:45:00 AM 14.79 58.622 1.893 7.43 1.24 8.87
5/15/2023 1:00:00 AM 14.63 58.334 1.847 7.4 1.41 8.9
5/15/2023 1:15:00 AM 14.49 58.082 1.806 7.4 1.26 8.94
5/15/2023 1:30:00 AM 14.35 57.83 1.834 7.39 1.28 8.97
5/15/2023 1:45:00 AM 14.22 57.596 1.764 7.36 1.89 9.01
5/15/2023 2:00:00 AM 14.08 57.344 1.825 7.37 3.55 9.06
5/15/2023 2:15:00 AM 13.94 57.092 1.868 7.33 5.98 9.07
5/15/2023 2:30:00 AM 13.8 56.84 1.747 7.36 1.67 9.11
5/15/2023 2:45:00 AM 13.69 56.642 1.449 7.32 14.49 9.16
5/15/2023 3:00:00 AM 13.55 56.39 1.483 7.35 1.54 9.18
5/15/2023 3:15:00 AM 13.44 56.192 1.479 7.34 2.62 9.22
5/15/2023 3:30:00 AM 13.32 55.976 1.458 7.34 11.15 9.26
5/15/2023 3:45:00 AM 13.2 55.76 1.446 7.33 2.78 9.28
5/15/2023 4:00:00 AM 13.11 55.598 1.458 7.32 4.59 9.31
5/15/2023 4:15:00 AM 12.99 55.382 1.468 7.32 3.43 9.34
5/15/2023 4:30:00 AM 12.89 55.202 1.469 7.31 1.24 9.38
5/15/2023 4:45:00 AM 12.79 55.022 1.472 7.31 1.28 9.4
5/15/2023 5:00:00 AM 12.7 54.86 1.47 7.31 1.32 9.43
5/15/2023 5:15:00 AM 12.61 54.698 1.457 7.31 1.33 9.46
5/15/2023 5:30:00 AM 12.49 54.482 1.387 7.3 1.6 9.48
5/15/2023 5:45:00 AM 12.41 54.338 1.381 7.26 2.24 9.52
5/15/2023 6:00:00 AM 12.3 54.14 1.39 7.29 4.19 9.58
5/15/2023 6:15:00 AM 12.25 54.05 1.419 7.32 1.3 9.7
5/15/2023 6:30:00 AM 12.18 53.924 1.391 7.34 1.22 9.85
5/15/2023 6:45:00 AM 12.11 53.798 1.339 7.33 1.3 10.01
5/15/2023 7:00:00 AM 12.06 53.708 1.303 7.37 1.28 10.17
5/15/2023 7:15:00 AM 12.03 53.654 1.249 7.41 1.32 10.4
5/15/2023 7:30:00 AM 12.05 53.69 1.309 7.48 1.18 10.68
5/15/2023 7:45:00 AM 12.08 53.744 1.237 7.55 1.25 10.92
5/15/2023 8:00:00 AM 12.13 53.834 1.218 7.62 1.21 11.14
5/15/2023 8:15:00 AM 12.22 53.996 1.164 7.71 1.26 11.37
5/15/2023 8:30:00 AM 12.32 54.176 1.192 7.82 1.19 11.56
5/15/2023 8:45:00 AM 12.42 54.356 1.243 7.92 1.22 11.68
5/15/2023 9:00:00 AM 12.53 54.554 1.227 8 1.17 11.83
5/15/2023 9:15:00 AM 12.65 54.77 1.244 8.13 1.19 11.96
5/15/2023 9:30:00 AM 12.78 55.004 1.261 8.23 1.19 12.08
5/15/2023 9:45:00 AM 12.93 55.274 1.281 8.32 1.21 12.16
5/15/2023 10:00:00 AM 13.1 55.58 1.286 8.42 1.21 12.26
5/15/2023 10:15:00 AM 13.28 55.904 1.269 8.5 1.26 12.34
5/15/2023 10:30:00 AM 13.47 56.246 1.266 8.59 1.28 12.38
5/15/2023 10:45:00 AM 13.71 56.678 1.245 8.64 1.23 12.4
5/15/2023 11:00:00 AM 13.97 57.146 1.245 8.72 1.62 12.44
5/15/2023 11:15:00 AM 14.22 57.596 1.226 8.77 1.24 12.42
5/15/2023 11:30:00 AM 14.49 58.082 1.227 8.8 1.21 12.44
5/15/2023 11:45:00 AM 14.77 58.586 1.217 8.87 1.23 12.42
5/15/2023 12:00:00 PM 15.08 59.144 1.244 8.91 1.19 12.42
5/15/2023 12:15:00 PM 15.4 59.72 1.217 8.95 1.23 12.38
5/15/2023 12:30:00 PM 15.72 60.296 1.204 9 1.11 12.39
5/15/2023 12:45:00 PM 16.07 60.926 1.147 9.04 1.14 12.38
5/15/2023 1:00:00 PM 16.42 61.556 1.173 9.08 5.94 12.35
5/15/2023 1:15:00 PM 16.73 62.114 1.169 9.12 5.55 12.32
5/15/2023 1:30:00 PM 17.03 62.654 1.183 9.17 1.07 12.3
5/15/2023 1:45:00 PM 17.29 63.122 1.192 9.2 1.27 12.27
5/15/2023 2:00:00 PM 17.55 63.59 1.596 9.23 1.11 12.18
5/15/2023 2:15:00 PM 17.79 64.022 1.323 9.24 1.21 12.15
5/15/2023 2:30:00 PM 18.02 64.436 1.318 9.29 1.17 12.09
5/15/2023 2:45:00 PM 18.23 64.814 1.376 9.3 4.9 11.97
5/15/2023 3:00:00 PM 18.41 65.138 1.388 9.32 5.58 11.86
5/15/2023 3:15:00 PM 18.58 65.444 1.39 9.36 1.3 11.75
5/15/2023 3:30:00 PM 18.71 65.67799 1.377 9.35 5.63 11.64
5/15/2023 3:45:00 PM 18.81 65.858 1.384 9.38 4.35 11.52
5/15/2023 4:00:00 PM 18.86 65.948 1.37 9.37 5.35 11.39
5/15/2023 4:15:00 PM 18.9 66.02 1.311 9.38 5.67 11.29
5/15/2023 4:30:00 PM 18.89 66.002 1.365 9.39 1.11 11.19
5/15/2023 4:45:00 PM 18.89 66.002 1.394 9.36 5.48 11.07
5/15/2023 5:00:00 PM 18.87 65.966 1.541 9.36 1.2 10.96
5/15/2023 5:15:00 PM 18.83 65.894 1.239 9.34 1.27 10.83
5/15/2023 5:30:00 PM 18.82 65.876 1.307 9.32 5.12 10.69
5/15/2023 5:45:00 PM 18.78 65.804 1.364 9.29 5.22 10.55
5/15/2023 6:00:00 PM 18.74 65.732 1.306 9.24 4.88 10.4
5/15/2023 6:15:00 PM 18.67 65.606 1.315 9.21 1.5 10.25
5/15/2023 6:30:00 PM 18.62 65.516 1.353 9.13 1.18 10.05
5/15/2023 6:45:00 PM 18.55 65.39 1.437 9.07 4.99 9.89
5/15/2023 7:00:00 PM 18.48 65.264 1.35 8.97 5.83 9.65
5/15/2023 7:15:00 PM 18.36 65.048 1.347 8.85 1.32 9.42
5/15/2023 7:30:00 PM 18.29 64.922 1.32 8.7 1.4 9.18
5/15/2023 7:45:00 PM 18.16 64.688 1.284 8.48 1.24 8.93
5/15/2023 8:00:00 PM 18.07 64.526 1.328 8.28 4.97 8.74
5/15/2023 8:15:00 PM 17.96 64.328 1.32 8.08 5.11 8.57
5/15/2023 8:30:00 PM 17.83 64.094 1.305 7.94 1.24 8.43
5/15/2023 8:45:00 PM 17.71 63.878 1.276 7.8 4.96 8.34
5/15/2023 9:00:00 PM 17.56 63.608 1.245 7.74 5.26 8.28
5/15/2023 9:15:00 PM 17.42 63.356 1.033 7.67 4.92 8.25
5/15/2023 9:30:00 PM 17.27 63.086 0.892 7.63 5.28 8.24
5/15/2023 9:45:00 PM 17.13 62.834 0.779 7.59 4.93 8.24
5/15/2023 10:00:00 PM 16.96 62.528 0.734 7.57 1.39 8.24
5/15/2023 10:15:00 PM 16.81 62.258 0.748 7.54 5.23 8.27
5/15/2023 10:30:00 PM 16.64 61.952 0.687 7.53 1.48 8.3
5/15/2023 10:45:00 PM 16.49 61.682 0.7 7.48 1.48 8.33
5/15/2023 11:00:00 PM 16.32 61.376 0.741 7.49 1.38 8.37
5/15/2023 11:15:00 PM 16.17 61.106 0.716 7.48 1.44 8.41
5/15/2023 11:30:00 PM 15.99 60.782 0.704 7.43 1.37 8.44
5/15/2023 11:45:00 PM 15.83 60.494 0.656 7.45 1.37 8.48
5/16/2023 12:00:00 AM 15.66 60.188 0.622 7.41 1.36 8.52
5/16/2023 12:15:00 AM 15.51 59.918 0.66 7.43 1.31 8.56
5/16/2023 12:30:00 AM 15.33 59.594 0.662 7.39 5.08 8.58
5/16/2023 12:45:00 AM 15.17 59.306 0.671 7.42 1.37 8.64
5/16/2023 1:00:00 AM 15.01 59.018 0.712 7.4 1.37 8.66
5/16/2023 1:15:00 AM 14.86 58.748 0.709 7.4 1.48 8.7
5/16/2023 1:30:00 AM 14.72 58.496 0.677 7.36 1.38 8.75
5/16/2023 1:45:00 AM 14.57 58.226 0.632 7.39 1.37 8.79
5/16/2023 2:00:00 AM 14.41 57.938 0.608 7.39 1.35 8.82
5/16/2023 2:15:00 AM 14.27 57.686 0.627 7.4 1.4 8.86
5/16/2023 2:30:00 AM 14.12 57.416 0.618 7.4 1.33 8.89
5/16/2023 2:45:00 AM 13.98 57.164 0.634 7.36 5.36 8.94
5/16/2023 3:00:00 AM 13.86 56.948 0.637 7.38 1.36 8.97
5/16/2023 3:15:00 AM 13.71 56.678 0.624 7.38 1.34 9.01
5/16/2023 3:30:00 AM 13.58 56.444 0.632 7.34 5.33 9.04
5/16/2023 3:45:00 AM 13.46 56.228 0.645 7.36 1.38 9.07
5/16/2023 4:00:00 AM 13.33 55.994 0.645 7.33 1.44 9.1
5/16/2023 4:15:00 AM 13.21 55.778 0.626 7.35 1.42 9.14
5/16/2023 4:30:00 AM 13.08 55.544 0.652 7.35 1.41 9.17
5/16/2023 4:45:00 AM 12.97 55.346 0.656 7.31 5.47 9.2
5/16/2023 5:00:00 AM 12.85 55.13 0.67 7.32 5.53 9.23
5/16/2023 5:15:00 AM 12.76 54.968 0.661 7.32 5.49 9.26
5/16/2023 5:30:00 AM 12.66 54.788 0.64 7.31 5.46 9.29
5/16/2023 5:45:00 AM 12.53 54.554 0.601 7.3 5.51 9.32
5/16/2023 6:00:00 AM 12.43 54.374 0.624 7.29 2.6 9.39
5/16/2023 6:15:00 AM 12.36 54.248 0.576 7.33 5.1 9.5
5/16/2023 6:30:00 AM 12.28 54.104 0.569 7.33 5.28 9.65
5/16/2023 6:45:00 AM 12.2 53.96 0.58 7.37 1.33 9.84
5/16/2023 7:00:00 AM 12.16 53.888 0.571 7.4 1.35 10.01
5/16/2023 7:15:00 AM 12.12 53.816 0.567 7.45 1.28 10.23
5/16/2023 7:30:00 AM 12.14 53.852 0.546 7.51 1.26 10.54
5/16/2023 7:45:00 AM 12.16 53.888 0.52 7.57 1.34 10.81
5/16/2023 8:00:00 AM 12.21 53.978 0.519 7.64 5.47 11.05
5/16/2023 8:15:00 AM 12.31 54.158 0.494 7.76 1.32 11.31
5/16/2023 8:30:00 AM 12.4 54.32 0.446 7.84 5.85 11.46
5/16/2023 8:45:00 AM 12.52 54.536 0.404 7.96 1.38 11.62
5/16/2023 9:00:00 AM 12.64 54.752 0.388 8.03 1.44 11.76
5/16/2023 9:15:00 AM 12.8 55.04 0.373 8.16 1.29 11.87
5/16/2023 9:30:00 AM 12.96 55.328 0.311 8.27 1.27 11.97
5/16/2023 9:45:00 AM 13.14 55.652 0.295 8.36 1.29 12.09
5/16/2023 10:00:00 AM 13.34 56.012 0.64 8.46 1.19 12.15
5/16/2023 10:15:00 AM 13.54 56.372 0.798 8.53 5.2 12.23
5/16/2023 10:30:00 AM 13.77 56.786 0.664 8.62 1.29 12.28
5/16/2023 10:45:00 AM 14.02 57.236 0.674 8.68 4.84 12.32
5/16/2023 11:00:00 AM 14.3 57.74 0.803 8.76 1.23 12.33
5/16/2023 11:15:00 AM 14.58 58.244 0.835 8.82 1.16 12.36
5/16/2023 11:30:00 AM 14.89 58.802 0.652 8.85 5.02 12.37
5/16/2023 11:45:00 AM 15.17 59.306 0.625 8.93 1.48 12.36
5/16/2023 12:00:00 PM 15.48 59.864 0.644 8.97 1.38 12.35
5/16/2023 12:15:00 PM 15.81 60.458 0.679 9.01 1.3 12.33
5/16/2023 12:30:00 PM 16.15 61.07 0.865 9.05 1.32 12.31
5/16/2023 12:45:00 PM 16.43 61.574 0.832 9.1 1.54 12.28
5/16/2023 1:00:00 PM 16.69 62.042 0.685 9.15 1.39 12.28
5/16/2023 1:15:00 PM 16.84 62.312 0.729 9.16 5.94 12.22
5/16/2023 1:30:00 PM 17.22 62.996 0.956 9.23 1.14 12.26
5/16/2023 1:45:00 PM 17.44 63.392 0.98 9.25 5.05 12.22
5/16/2023 2:00:00 PM 17.64 63.752 0.935 9.3 1.36 12.16
5/16/2023 2:15:00 PM 17.94 64.292 0.903 9.33 5.43 12.18
5/16/2023 2:30:00 PM 18.03 64.454 0.841 9.36 5.4 12.05
5/16/2023 2:45:00 PM 18.22 64.796 1.15 9.4 5.23 12.04
5/16/2023 3:00:00 PM 18.27 64.886 1.316 9.41 1.2 11.86
5/16/2023 3:15:00 PM 18.45 65.21 1.478 9.43 5.26 11.87
5/16/2023 3:30:00 PM 18.5 65.3 1.348 9.45 5.18 11.77
5/16/2023 3:45:00 PM 18.51 65.318 1.44 9.46 5.17 11.71
5/16/2023 4:00:00 PM 18.61 65.498 1.246 9.49 1.18 11.64
5/16/2023 4:15:00 PM 18.68 65.624 1.081 9.47 4.79 11.45
5/16/2023 4:30:00 PM 18.72 65.696 1.119 9.49 5.18 11.35
5/16/2023 4:45:00 PM 18.66 65.588 1.192 9.48 1.22 11.11
5/16/2023 5:00:00 PM 18.66 65.588 1.209 9.45 1.18 10.97
5/16/2023 5:15:00 PM 18.59 65.462 1.06 9.44 1.2 10.77
5/16/2023 5:30:00 PM 18.59 65.462 1.001 9.41 1.38 10.64
5/16/2023 5:45:00 PM 18.57 65.426 0.974 9.4 1.16 10.52
5/16/2023 6:00:00 PM 18.55 65.39 0.998 9.35 5.31 10.39
5/16/2023 6:15:00 PM 18.51 65.318 0.96 9.33 1.25 10.23
5/16/2023 6:30:00 PM 18.53 65.354 0.918 9.31 1.32 10.2
5/16/2023 6:45:00 PM 18.47 65.246 0.94 9.24 1.21 9.86
5/16/2023 7:00:00 PM 18.45 65.21 0.997 9.15 1.16 9.59
5/16/2023 7:15:00 PM 18.41 65.138 1.114 9.05 1.25 9.43
5/16/2023 7:30:00 PM 18.34 65.012 0.933 8.96 4.83 9.21
5/16/2023 7:45:00 PM 18.28 64.904 1.153 8.82 1.25 9.01
5/16/2023 8:00:00 PM 18.17 64.706 1.383 8.6 5.37 8.71
5/16/2023 8:15:00 PM 18.1 64.58 1.838 8.4 1.19 8.47
5/16/2023 8:30:00 PM 17.98 64.364 1.88 8.17 1.39 8.29
5/16/2023 8:45:00 PM 17.87 64.166 1.86 7.97 5.08 8.15
5/16/2023 9:00:00 PM 17.75 63.95 1.849 7.86 1.37 8.07
5/16/2023 9:15:00 PM 17.65 63.77 1.91 7.75 5.41 8.03
5/16/2023 9:30:00 PM 17.53 63.554 2.004 7.7 1.4 7.97
5/16/2023 9:45:00 PM 17.39 63.302 2.002 7.64 2.13 7.97
5/16/2023 10:00:00 PM 17.3 63.14 2.02 7.61 1.31 7.99
5/16/2023 10:15:00 PM 17.13 62.834 2.09 7.56 1.26 7.97
5/16/2023 10:30:00 PM 17.01 62.618 2.052 7.52 1.35 8.01
5/16/2023 10:45:00 PM 16.86 62.348 1.927 7.51 1.32 8.02
5/16/2023 11:00:00 PM 16.74 62.132 1.999 7.5 1.37 8.05
5/16/2023 11:15:00 PM 16.61 61.898 2.057 7.47 1.37 8.06
5/16/2023 11:30:00 PM 16.49 61.682 2.039 7.45 5.27 8.11
5/16/2023 11:45:00 PM 16.35 61.43 1.936 7.45 1.41 8.11
5/17/2023 12:00:00 AM 16.23 61.214 1.825 7.42 5.75 8.17
5/17/2023 12:15:00 AM 16.08 60.944 1.854 7.42 1.37 8.2
5/17/2023 12:30:00 AM 15.96 60.728 1.804 7.41 5.81 8.23
5/17/2023 12:45:00 AM 15.82 60.476 1.83 7.41 1.42 8.26
5/17/2023 1:00:00 AM 15.7 60.26 1.881 7.39 1.37 8.31
5/17/2023 1:15:00 AM 15.58 60.044 1.886 7.4 1.39 8.33
5/17/2023 1:30:00 AM 15.46 59.828 1.888 7.39 1.57 8.37
5/17/2023 1:45:00 AM 15.34 59.612 2.05 7.36 1.37 8.41
5/17/2023 2:00:00 AM 15.21 59.378 2.051 7.36 1.38 8.42
5/17/2023 2:15:00 AM 15.1 59.18 2.004 7.38 1.39 8.46
5/17/2023 2:30:00 AM 14.96 58.928 2.052 7.37 1.42 8.5
5/17/2023 2:45:00 AM 14.83 58.694 2.073 7.34 4.72 8.53
5/17/2023 3:00:00 AM 14.71 58.478 2.073 7.35 5 8.57
5/17/2023 3:15:00 AM 14.6 58.28 1.966 7.36 1.41 8.61
5/17/2023 3:30:00 AM 14.49 58.082 1.992 7.35 1.42 8.64
5/17/2023 3:45:00 AM 14.37 57.866 2.01 7.36 1.44 8.67
5/17/2023 4:00:00 AM 14.28 57.704 2.026 7.36 1.44 8.7
5/17/2023 4:15:00 AM 14.19 57.542 2.021 7.37 1.39 8.73
5/17/2023 4:30:00 AM 14.08 57.344 1.953 7.37 1.57 8.76
5/17/2023 4:45:00 AM 13.97 57.146 2.012 7.36 1.43 8.8
5/17/2023 5:00:00 AM 13.86 56.948 2.031 7.36 1.47 8.82
5/17/2023 5:15:00 AM 13.76 56.768 2.008 7.35 1.5 8.85
5/17/2023 5:30:00 AM 13.66 56.588 2.042 7.33 5.49 8.88
5/17/2023 5:45:00 AM 13.6 56.48 2.05 7.35 5.18 8.9
5/17/2023 6:00:00 AM 13.5 56.3 1.922 7.35 2.5 8.96
5/17/2023 6:15:00 AM 13.42 56.156 1.986 7.33 5.38 9.08
5/17/2023 6:30:00 AM 13.36 56.048 1.971 7.37 1.32 9.2
5/17/2023 6:45:00 AM 13.31 55.958 1.938 7.4 1.27 9.31
5/17/2023 7:00:00 AM 13.25 55.85 1.882 7.41 1.31 9.59
5/17/2023 7:15:00 AM 13.22 55.796 1.869 7.52 1.69 10
5/17/2023 7:30:00 AM 13.22 55.796 1.818 7.6 1.39 10.31
5/17/2023 7:45:00 AM 13.25 55.85 1.836 7.7 1.39 10.66
5/17/2023 8:00:00 AM 13.22 55.796 1.802 7.78 1.34 10.83
5/17/2023 8:15:00 AM 13.28 55.904 1.713 7.9 1.3 11.11
5/17/2023 8:30:00 AM 13.13 55.634 1.66 7.88 1.35 11.02
5/17/2023 8:45:00 AM 13.07 55.526 1.633 7.95 5.39 11.15
5/17/2023 9:00:00 AM 13.13 55.634 1.575 8.08 1.35 11.37
5/17/2023 9:15:00 AM 13.23 55.814 1.592 8.21 1.32 11.58
5/17/2023 9:30:00 AM 13.35 56.03 1.62 8.3 1.29 11.71
5/17/2023 9:45:00 AM 13.43 56.174 1.585 8.36 1.27 11.82
5/17/2023 10:00:00 AM 13.53 56.354 1.524 8.45 1.29 11.88
5/17/2023 10:15:00 AM 13.65 56.57 1.564 8.51 1.26 11.94
5/17/2023 10:30:00 AM 13.77 56.786 1.538 8.54 1.29 11.99
5/17/2023 10:45:00 AM 13.89 57.002 1.484 8.63 1.29 12.04
5/17/2023 11:00:00 AM 14.04 57.272 1.485 8.68 1.29 12.1
5/17/2023 11:15:00 AM 14.23 57.614 1.482 8.71 5.19 12.14
5/17/2023 11:30:00 AM 14.42 57.956 1.486 8.78 1.29 12.16
5/17/2023 11:45:00 AM 14.65 58.37 1.497 8.83 1.22 12.17
5/17/2023 12:00:00 PM 14.91 58.838 1.505 8.87 1.33 12.18
5/17/2023 12:15:00 PM 15.17 59.306 1.49 8.93 1.24 12.21
5/17/2023 12:30:00 PM 15.44 59.792 1.47 8.96 1.14 12.21
5/17/2023 12:45:00 PM 15.61 60.098 1.467 8.99 1.25 12.11
5/17/2023 1:00:00 PM 15.9 60.62 1.401 9.03 1.28 12.15
5/17/2023 1:15:00 PM 16.18 61.124 1.465 9.07 5.48 12.16
5/17/2023 1:30:00 PM 16.4 61.52 1.511 9.12 5.45 12.13
5/17/2023 1:45:00 PM 16.67 62.006 1.525 9.15 5.26 12.11
5/17/2023 2:00:00 PM 16.86 62.348 1.517 9.16 5.15 12.07
5/17/2023 2:15:00 PM 17.04 62.672 1.51 9.19 4.72 12.02
5/17/2023 2:30:00 PM 17.25 63.05 1.464 9.22 1.2 11.97
5/17/2023 2:45:00 PM 17.35 63.23 1.463 9.26 5.25 11.95
5/17/2023 3:00:00 PM 17.42 63.356 1.465 9.26 5.4 11.83
5/17/2023 3:15:00 PM 17.54 63.572 1.281 9.3 1.16 11.84
5/17/2023 3:30:00 PM 17.56 63.608 1.462 9.28 5.82 11.7
5/17/2023 3:45:00 PM 17.59 63.662 1.499 9.29 5.23 11.65
5/17/2023 4:00:00 PM 17.54 63.572 1.352 9.31 1.24 11.57
5/17/2023 4:15:00 PM 17.47 63.446 1.197 9.31 1.21 11.48
5/17/2023 4:30:00 PM 17.43 63.374 1.399 9.3 1.19 11.4
5/17/2023 4:45:00 PM 17.31 63.158 1.91 9.29 1.18 11.32
5/17/2023 5:00:00 PM 17.21 62.978 1.966 9.25 4.83 11.22
5/17/2023 5:15:00 PM 17.06 62.708 1.791 9.27 1.25 11.17
5/17/2023 5:30:00 PM 16.93 62.474 1.803 9.25 1.29 11.11
5/17/2023 5:45:00 PM 16.76 62.168 1.813 9.22 5.73 11.02
5/17/2023 6:00:00 PM 16.59 61.862 1.834 9.18 4.92 10.91
5/17/2023 6:15:00 PM 16.43 61.574 1.79 9.16 6.13 10.8
5/17/2023 6:30:00 PM 16.31 61.358 1.795 9.12 6.39 10.63
5/17/2023 6:45:00 PM 16.2 61.16 1.832 9.05 5.38 10.46
5/17/2023 7:00:00 PM 16.06 60.908 1.816 8.98 4.92 10.26
5/17/2023 7:15:00 PM 15.93 60.674 1.728 8.89 1.44 10.06
5/17/2023 7:30:00 PM 15.79 60.422 1.702 8.75 1.26 9.85
5/17/2023 7:45:00 PM 15.67 60.206 1.523 8.61 1.25 9.63
5/17/2023 8:00:00 PM 15.53 59.954 1.532 8.41 4.9 9.41
5/17/2023 8:15:00 PM 15.42 59.756 1.435 8.21 1.29 9.21
5/17/2023 8:30:00 PM 15.32 59.576 1.553 8.05 1.29 9.04
5/17/2023 8:45:00 PM 15.18 59.324 1.587 7.89 1.33 8.93
5/17/2023 9:00:00 PM 15.07 59.126 1.526 7.8 1.28 8.85
5/17/2023 9:15:00 PM 14.91 58.838 1.419 7.72 1.38 8.8
5/17/2023 9:30:00 PM 14.76 58.568 1.531 7.66 1.4 8.77
5/17/2023 9:45:00 PM 14.62 58.316 1.475 7.62 1.34 8.77
5/17/2023 10:00:00 PM 14.43 57.974 1.439 7.57 1.32 8.78
5/17/2023 10:15:00 PM 14.3 57.74 1.459 7.53 1.31 8.8
5/17/2023 10:30:00 PM 14.11 57.398 1.479 7.56 1.34 8.83
5/17/2023 10:45:00 PM 13.96 57.128 1.468 7.54 1.35 8.86
5/17/2023 11:00:00 PM 13.82 56.876 1.443 7.49 1.32 8.9
5/17/2023 11:15:00 PM 13.62 56.516 1.449 7.49 1.4 8.93
5/17/2023 11:30:00 PM 13.46 56.228 1.496 7.46 1.44 8.98
5/17/2023 11:45:00 PM 13.29 55.922 1.524 7.46 1.29 9.01
5/18/2023 12:00:00 AM 13.1 55.58 1.431 7.45 1.5 9.07
5/18/2023 12:15:00 AM 12.94 55.292 1.51 7.44 1.4 9.13
5/18/2023 12:30:00 AM 12.75 54.95 1.555 7.43 1.33 9.16
5/18/2023 12:45:00 AM 12.59 54.662 1.552 7.39 1.49 9.21
5/18/2023 1:00:00 AM 12.44 54.392 1.478 7.42 1.33 9.27
5/18/2023 1:15:00 AM 12.26 54.068 1.531 7.4 1.35 9.29
5/18/2023 1:30:00 AM 12.12 53.816 1.57 7.39 1.29 9.34
5/18/2023 1:45:00 AM 11.96 53.528 1.534 7.39 1.43 9.39
5/18/2023 2:00:00 AM 11.82 53.276 1.563 7.38 1.36 9.43
5/18/2023 2:15:00 AM 11.68 53.024 1.563 7.38 1.41 9.47
5/18/2023 2:30:00 AM 11.55 52.79 1.527 7.38 1.35 9.51
5/18/2023 2:45:00 AM 11.41 52.538 1.502 7.37 1.39 9.56
5/18/2023 3:00:00 AM 11.29 52.322 1.467 7.36 1.38 9.61
5/18/2023 3:15:00 AM 11.16 52.088 1.474 7.33 1.34 9.64
5/18/2023 3:30:00 AM 11.03 51.854 1.445 7.36 1.42 9.68
5/18/2023 3:45:00 AM 10.92 51.656 1.472 7.35 1.3 9.71
5/18/2023 4:00:00 AM 10.82 51.476 1.48 7.34 1.38 9.74
5/18/2023 4:15:00 AM 10.72 51.296 1.463 7.34 1.42 9.8
5/18/2023 4:30:00 AM 10.6 51.08 1.462 7.34 1.33 9.83
5/18/2023 4:45:00 AM 10.48 50.864 1.446 7.33 1.35 9.85
5/18/2023 5:00:00 AM 10.37 50.666 1.46 7.33 1.38 9.88
5/18/2023 5:15:00 AM 10.29 50.522 1.416 7.32 1.34 9.92
5/18/2023 5:30:00 AM 10.17 50.306 1.271 7.32 1.38 9.95
5/18/2023 5:45:00 AM 10.1 50.18 1.253 7.33 1.34 10
5/18/2023 6:00:00 AM 10.01 50.018 1.19 7.33 1.29 10.08
5/18/2023 6:15:00 AM 9.93 49.874 1.167 7.34 1.32 10.21
5/18/2023 6:30:00 AM 9.85 49.73 1.146 7.37 1.3 10.4
5/18/2023 6:45:00 AM 9.78 49.604 1.156 7.39 1.25 10.62
5/18/2023 7:00:00 AM 9.73 49.514 1.141 7.44 1.34 10.87
5/18/2023 7:15:00 AM 9.73 49.514 1.115 7.49 1.35 11.1
5/18/2023 7:30:00 AM 9.74 49.532 1.093 7.56 1.51 11.43
5/18/2023 7:45:00 AM 9.77 49.586 1.121 7.63 1.52 11.68
5/18/2023 8:00:00 AM 9.83 49.694 1.09 7.71 1.33 11.94
5/18/2023 8:15:00 AM 9.93 49.874 1.114 7.82 1.28 12.13
5/18/2023 8:30:00 AM 10.02 50.036 1.1 7.9 1.38 12.3
5/18/2023 8:45:00 AM 10.13 50.234 1.041 8.03 1.2 12.47
5/18/2023 9:00:00 AM 10.24 50.432 1.007 8.13 1.64 12.59
5/18/2023 9:15:00 AM 10.36 50.648 0.94 8.18 1.19 12.69
5/18/2023 9:30:00 AM 10.51 50.918 1.1 8.29 1.25 12.76
5/18/2023 9:45:00 AM 10.68 51.224 1.167 8.38 1.23 12.84
5/18/2023 10:00:00 AM 10.86 51.548 1.203 8.43 1.25 12.92
5/18/2023 10:15:00 AM 11.07 51.926 1.242 8.52 1.19 12.95
5/18/2023 10:30:00 AM 11.27 52.286 1.242 8.58 1.2 13
5/18/2023 10:45:00 AM 11.48 52.664 1.268 8.65 1.27 13.03
5/18/2023 11:00:00 AM 11.71 53.078 1.167 8.71 1.17 13.05
5/18/2023 11:15:00 AM 11.96 53.528 1.16 8.77 1.2 13.08
5/18/2023 11:30:00 AM 12.24 54.032 1.193 8.82 1.28 13.07
5/18/2023 11:45:00 AM 12.53 54.554 1.352 8.86 1.25 13.07
5/18/2023 12:00:00 PM 12.85 55.13 1.425 8.92 1.22 13.04
5/18/2023 12:15:00 PM 13.17 55.706 1.388 8.96 1.18 13.02
5/18/2023 12:30:00 PM 13.51 56.318 1.351 8.99 1.19 12.99
5/18/2023 12:45:00 PM 13.84 56.912 1.777 9.05 1.25 12.94
5/18/2023 1:00:00 PM 14.2 57.56 1.713 9.06 1.14 12.89
5/18/2023 1:15:00 PM 14.57 58.226 1.569 9.12 1.66 12.83
5/18/2023 1:30:00 PM 14.93 58.874 1.651 9.16 1.28 12.76
5/18/2023 1:45:00 PM 15.3 59.54 1.661 9.2 1.31 12.72
5/18/2023 2:00:00 PM 15.66 60.188 1.702 9.22 1.26 12.62
5/18/2023 2:15:00 PM 15.97 60.746 1.636 9.24 1.24 12.55
5/18/2023 2:30:00 PM 16.25 61.25 1.626 9.25 5.59 12.5
5/18/2023 2:45:00 PM 16.5 61.7 1.697 9.29 1.3 12.41
5/18/2023 3:00:00 PM 16.71 62.078 1.716 9.3 1.29 12.31
5/18/2023 3:15:00 PM 16.89 62.402 1.793 9.31 5.6 12.19
5/18/2023 3:30:00 PM 17 62.6 1.772 9.36 1.3 12.14
5/18/2023 3:45:00 PM 17.1 62.78 1.786 9.37 5.13 12.02
5/18/2023 4:00:00 PM 17.14 62.852 1.769 9.38 1.21 11.95
5/18/2023 4:15:00 PM 17.16 62.888 1.753 9.38 4.77 11.84
5/18/2023 4:30:00 PM 17.15 62.87 1.837 9.38 1.48 11.74
5/18/2023 4:45:00 PM 17.12 62.816 1.827 9.37 1.17 11.66
5/18/2023 5:00:00 PM 17.08 62.744 1.821 9.37 1.14 11.55
5/18/2023 5:15:00 PM 17.01 62.618 1.865 9.33 1.16 11.44
5/18/2023 5:30:00 PM 16.92 62.456 1.929 9.33 1.28 11.3
5/18/2023 5:45:00 PM 16.84 62.312 1.909 9.3 1.19 11.19
5/18/2023 6:00:00 PM 16.78 62.204 1.922 9.27 1.17 11.04
5/18/2023 6:15:00 PM 16.7 62.06 1.895 9.24 1.19 10.9
5/18/2023 6:30:00 PM 16.62 61.916 1.89 9.18 1.34 10.73
5/18/2023 6:45:00 PM 16.53 61.754 1.917 9.13 1.23 10.56
5/18/2023 7:00:00 PM 16.44 61.592 1.952 9.04 1.21 10.33

These are provisional data and have not been subject to a quality assurance process, but rather are the raw data reported by the instrument.
H: value is above sensor operating range
L: value is below sensor operating range
Offline: station is not reporting data
NC: parameter is not collected at site

Data Availability & Limitations

Uncertainty and potential for error can be associated with environmental monitoring data. Provisional data have not been subject to a quality assurance process, but rather are the raw data reported by the instrument. Data users are cautioned to consider carefully the provisional nature of the information before using it for decisions that concern personal or public safety or the conduct of business that involves substantial monetary or operational consequences.

Approved data are currently available by request by emailing: [email protected]. Approved data have been subject to a quality assurance process to correct for equipment or fouling drift. Data recorded during equipment malfunctions have been removed.

View Historical Stations that have been discontinued.